<?xml version="1.0" encoding="UTF-8" standalone="no" ?>
<gpx xmlns="http://www.topografix.com/GPX/1/1" xmlns:xsi="http://www.w3.org/2001/XMLSchema-instance" xsi:schemaLocation="http://www.topografix.com/GPX/1/1 http://www.topografix.com/GPX/1/1/gpx.xsd" version="1.1" creator="VisuGPX - https://www.visugpx.com">
  <metadata>
    <name>Footing Parkway 22 juin 2020</name>
  </metadata>
  <trk>
    <name><![CDATA[Footing Parkway 22 juin 2020_1]]></name>
    <trkseg>
      <trkpt lat="4.6251" lon="-74.07151">
        <ele>2578.4</ele>
        <time>2020-06-22T13:05:09Z</time>
      </trkpt>
      <trkpt lat="4.62511" lon="-74.07158">
        <ele>2577.9</ele>
        <time>2020-06-22T13:05:11Z</time>
      </trkpt>
      <trkpt lat="4.62512" lon="-74.07162">
        <ele>2577.8</ele>
        <time>2020-06-22T13:05:13Z</time>
      </trkpt>
      <trkpt lat="4.62513" lon="-74.07165">
        <ele>2577.8</ele>
        <time>2020-06-22T13:05:14Z</time>
      </trkpt>
      <trkpt lat="4.62514" lon="-74.07168">
        <ele>2577.8</ele>
        <time>2020-06-22T13:05:16Z</time>
      </trkpt>
      <trkpt lat="4.62514" lon="-74.07174">
        <ele>2577.7</ele>
        <time>2020-06-22T13:05:18Z</time>
      </trkpt>
      <trkpt lat="4.62514" lon="-74.07181">
        <ele>2577.7</ele>
        <time>2020-06-22T13:05:20Z</time>
      </trkpt>
      <trkpt lat="4.62514" lon="-74.07186">
        <ele>2577.7</ele>
        <time>2020-06-22T13:05:22Z</time>
      </trkpt>
      <trkpt lat="4.62514" lon="-74.07192">
        <ele>2577.6</ele>
        <time>2020-06-22T13:05:24Z</time>
      </trkpt>
      <trkpt lat="4.62515" lon="-74.07197">
        <ele>2577.6</ele>
        <time>2020-06-22T13:05:26Z</time>
      </trkpt>
      <trkpt lat="4.62516" lon="-74.07202">
        <ele>2577.5</ele>
        <time>2020-06-22T13:05:28Z</time>
      </trkpt>
      <trkpt lat="4.62517" lon="-74.07205">
        <ele>2577.4</ele>
        <time>2020-06-22T13:05:29Z</time>
      </trkpt>
      <trkpt lat="4.62517" lon="-74.0721">
        <ele>2577.3</ele>
        <time>2020-06-22T13:05:31Z</time>
      </trkpt>
      <trkpt lat="4.62518" lon="-74.07215">
        <ele>2577.3</ele>
        <time>2020-06-22T13:05:33Z</time>
      </trkpt>
      <trkpt lat="4.62519" lon="-74.07217">
        <ele>2577.1</ele>
        <time>2020-06-22T13:05:34Z</time>
      </trkpt>
      <trkpt lat="4.6252" lon="-74.07223">
        <ele>2577</ele>
        <time>2020-06-22T13:05:36Z</time>
      </trkpt>
      <trkpt lat="4.62521" lon="-74.07228">
        <ele>2577</ele>
        <time>2020-06-22T13:05:38Z</time>
      </trkpt>
      <trkpt lat="4.62523" lon="-74.07233">
        <ele>2576.8</ele>
        <time>2020-06-22T13:05:40Z</time>
      </trkpt>
      <trkpt lat="4.62524" lon="-74.07236">
        <ele>2576.7</ele>
        <time>2020-06-22T13:05:41Z</time>
      </trkpt>
      <trkpt lat="4.62524" lon="-74.07238">
        <ele>2576.7</ele>
        <time>2020-06-22T13:05:42Z</time>
      </trkpt>
      <trkpt lat="4.62525" lon="-74.07243">
        <ele>2576.6</ele>
        <time>2020-06-22T13:05:44Z</time>
      </trkpt>
      <trkpt lat="4.62525" lon="-74.07247">
        <ele>2576.5</ele>
        <time>2020-06-22T13:05:46Z</time>
      </trkpt>
      <trkpt lat="4.62525" lon="-74.0725">
        <ele>2576.4</ele>
        <time>2020-06-22T13:05:47Z</time>
      </trkpt>
      <trkpt lat="4.62525" lon="-74.07252">
        <ele>2576.3</ele>
        <time>2020-06-22T13:05:48Z</time>
      </trkpt>
      <trkpt lat="4.62526" lon="-74.07254">
        <ele>2576.3</ele>
        <time>2020-06-22T13:05:49Z</time>
      </trkpt>
      <trkpt lat="4.62527" lon="-74.0726">
        <ele>2576.2</ele>
        <time>2020-06-22T13:05:51Z</time>
      </trkpt>
      <trkpt lat="4.62528" lon="-74.07264">
        <ele>2576.1</ele>
        <time>2020-06-22T13:05:53Z</time>
      </trkpt>
      <trkpt lat="4.62529" lon="-74.07268">
        <ele>2576</ele>
        <time>2020-06-22T13:05:54Z</time>
      </trkpt>
      <trkpt lat="4.6253" lon="-74.07269">
        <ele>2576</ele>
        <time>2020-06-22T13:05:55Z</time>
      </trkpt>
      <trkpt lat="4.62531" lon="-74.07274">
        <ele>2575.9</ele>
        <time>2020-06-22T13:05:57Z</time>
      </trkpt>
      <trkpt lat="4.62531" lon="-74.07277">
        <ele>2575.9</ele>
        <time>2020-06-22T13:05:58Z</time>
      </trkpt>
      <trkpt lat="4.62531" lon="-74.07279">
        <ele>2575.8</ele>
        <time>2020-06-22T13:05:59Z</time>
      </trkpt>
      <trkpt lat="4.62532" lon="-74.07284">
        <ele>2575.7</ele>
        <time>2020-06-22T13:06:01Z</time>
      </trkpt>
      <trkpt lat="4.62531" lon="-74.0729">
        <ele>2575.6</ele>
        <time>2020-06-22T13:06:03Z</time>
      </trkpt>
      <trkpt lat="4.62531" lon="-74.07293">
        <ele>2575.5</ele>
        <time>2020-06-22T13:06:04Z</time>
      </trkpt>
      <trkpt lat="4.6253" lon="-74.07297">
        <ele>2575.4</ele>
        <time>2020-06-22T13:06:06Z</time>
      </trkpt>
      <trkpt lat="4.62531" lon="-74.07299">
        <ele>2575.4</ele>
        <time>2020-06-22T13:06:07Z</time>
      </trkpt>
      <trkpt lat="4.62532" lon="-74.07306">
        <ele>2575.2</ele>
        <time>2020-06-22T13:06:09Z</time>
      </trkpt>
      <trkpt lat="4.62533" lon="-74.07314">
        <ele>2575</ele>
        <time>2020-06-22T13:06:11Z</time>
      </trkpt>
      <trkpt lat="4.62533" lon="-74.07317">
        <ele>2575</ele>
        <time>2020-06-22T13:06:12Z</time>
      </trkpt>
      <trkpt lat="4.62533" lon="-74.07318">
        <ele>2575</ele>
        <time>2020-06-22T13:06:13Z</time>
      </trkpt>
      <trkpt lat="4.62533" lon="-74.07321">
        <ele>2574.9</ele>
        <time>2020-06-22T13:06:15Z</time>
      </trkpt>
      <trkpt lat="4.62534" lon="-74.07326">
        <ele>2574.9</ele>
        <time>2020-06-22T13:06:17Z</time>
      </trkpt>
      <trkpt lat="4.62535" lon="-74.0733">
        <ele>2574.8</ele>
        <time>2020-06-22T13:06:19Z</time>
      </trkpt>
      <trkpt lat="4.62536" lon="-74.07332">
        <ele>2574.8</ele>
        <time>2020-06-22T13:06:20Z</time>
      </trkpt>
      <trkpt lat="4.62537" lon="-74.07337">
        <ele>2574.7</ele>
        <time>2020-06-22T13:06:22Z</time>
      </trkpt>
      <trkpt lat="4.62538" lon="-74.07341">
        <ele>2574.7</ele>
        <time>2020-06-22T13:06:24Z</time>
      </trkpt>
      <trkpt lat="4.6254" lon="-74.07346">
        <ele>2574.7</ele>
        <time>2020-06-22T13:06:26Z</time>
      </trkpt>
      <trkpt lat="4.62542" lon="-74.07351">
        <ele>2574.7</ele>
        <time>2020-06-22T13:06:28Z</time>
      </trkpt>
      <trkpt lat="4.62542" lon="-74.07355">
        <ele>2574.6</ele>
        <time>2020-06-22T13:06:29Z</time>
      </trkpt>
      <trkpt lat="4.62543" lon="-74.07356">
        <ele>2574.6</ele>
        <time>2020-06-22T13:06:30Z</time>
      </trkpt>
      <trkpt lat="4.62543" lon="-74.07359">
        <ele>2574.6</ele>
        <time>2020-06-22T13:06:32Z</time>
      </trkpt>
      <trkpt lat="4.62543" lon="-74.0736">
        <ele>2574.6</ele>
        <time>2020-06-22T13:06:33Z</time>
      </trkpt>
      <trkpt lat="4.62544" lon="-74.07361">
        <ele>2574.6</ele>
        <time>2020-06-22T13:06:34Z</time>
      </trkpt>
      <trkpt lat="4.62544" lon="-74.07367">
        <ele>2574.6</ele>
        <time>2020-06-22T13:06:36Z</time>
      </trkpt>
      <trkpt lat="4.62545" lon="-74.07372">
        <ele>2574.6</ele>
        <time>2020-06-22T13:06:38Z</time>
      </trkpt>
      <trkpt lat="4.62546" lon="-74.07377">
        <ele>2574.6</ele>
        <time>2020-06-22T13:06:40Z</time>
      </trkpt>
      <trkpt lat="4.62548" lon="-74.0738">
        <ele>2574.7</ele>
        <time>2020-06-22T13:06:41Z</time>
      </trkpt>
      <trkpt lat="4.62548" lon="-74.07381">
        <ele>2574.7</ele>
        <time>2020-06-22T13:06:42Z</time>
      </trkpt>
      <trkpt lat="4.6255" lon="-74.07386">
        <ele>2574.7</ele>
        <time>2020-06-22T13:06:44Z</time>
      </trkpt>
      <trkpt lat="4.62552" lon="-74.07393">
        <ele>2574.7</ele>
        <time>2020-06-22T13:06:46Z</time>
      </trkpt>
      <trkpt lat="4.62552" lon="-74.07398">
        <ele>2574.7</ele>
        <time>2020-06-22T13:06:48Z</time>
      </trkpt>
      <trkpt lat="4.62553" lon="-74.07403">
        <ele>2574.8</ele>
        <time>2020-06-22T13:06:50Z</time>
      </trkpt>
      <trkpt lat="4.62554" lon="-74.07408">
        <ele>2574.8</ele>
        <time>2020-06-22T13:06:52Z</time>
      </trkpt>
      <trkpt lat="4.62554" lon="-74.07412">
        <ele>2574.8</ele>
        <time>2020-06-22T13:06:54Z</time>
      </trkpt>
      <trkpt lat="4.62555" lon="-74.07418">
        <ele>2574.8</ele>
        <time>2020-06-22T13:06:56Z</time>
      </trkpt>
      <trkpt lat="4.62555" lon="-74.0742">
        <ele>2574.8</ele>
        <time>2020-06-22T13:06:57Z</time>
      </trkpt>
      <trkpt lat="4.62555" lon="-74.07423">
        <ele>2574.8</ele>
        <time>2020-06-22T13:06:59Z</time>
      </trkpt>
      <trkpt lat="4.62555" lon="-74.07425">
        <ele>2574.8</ele>
        <time>2020-06-22T13:07:00Z</time>
      </trkpt>
      <trkpt lat="4.62555" lon="-74.07427">
        <ele>2574.8</ele>
        <time>2020-06-22T13:07:01Z</time>
      </trkpt>
      <trkpt lat="4.62554" lon="-74.07428">
        <ele>2574.8</ele>
        <time>2020-06-22T13:07:02Z</time>
      </trkpt>
      <trkpt lat="4.62554" lon="-74.07428">
        <ele>2574.8</ele>
        <time>2020-06-22T13:07:04Z</time>
      </trkpt>
      <trkpt lat="4.62552" lon="-74.07427">
        <ele>2574.8</ele>
        <time>2020-06-22T13:07:06Z</time>
      </trkpt>
      <trkpt lat="4.62552" lon="-74.07426">
        <ele>2574.8</ele>
        <time>2020-06-22T13:07:07Z</time>
      </trkpt>
      <trkpt lat="4.62552" lon="-74.07426">
        <ele>2574.8</ele>
        <time>2020-06-22T13:07:08Z</time>
      </trkpt>
      <trkpt lat="4.62551" lon="-74.07425">
        <ele>2574.8</ele>
        <time>2020-06-22T13:07:10Z</time>
      </trkpt>
      <trkpt lat="4.62551" lon="-74.07425">
        <ele>2574.8</ele>
        <time>2020-06-22T13:07:11Z</time>
      </trkpt>
      <trkpt lat="4.62551" lon="-74.07425">
        <ele>2574.8</ele>
        <time>2020-06-22T13:07:13Z</time>
      </trkpt>
      <trkpt lat="4.62551" lon="-74.07425">
        <ele>2574.8</ele>
        <time>2020-06-22T13:07:15Z</time>
      </trkpt>
      <trkpt lat="4.62551" lon="-74.07425">
        <ele>2574.8</ele>
        <time>2020-06-22T13:07:16Z</time>
      </trkpt>
      <trkpt lat="4.62551" lon="-74.07425">
        <ele>2574.8</ele>
        <time>2020-06-22T13:07:18Z</time>
      </trkpt>
      <trkpt lat="4.62551" lon="-74.07425">
        <ele>2574.8</ele>
        <time>2020-06-22T13:07:19Z</time>
      </trkpt>
      <trkpt lat="4.62552" lon="-74.07426">
        <ele>2574.8</ele>
        <time>2020-06-22T13:07:21Z</time>
      </trkpt>
      <trkpt lat="4.62552" lon="-74.07426">
        <ele>2574.8</ele>
        <time>2020-06-22T13:07:23Z</time>
      </trkpt>
      <trkpt lat="4.62553" lon="-74.07426">
        <ele>2574.8</ele>
        <time>2020-06-22T13:07:25Z</time>
      </trkpt>
      <trkpt lat="4.62553" lon="-74.07426">
        <ele>2574.8</ele>
        <time>2020-06-22T13:07:26Z</time>
      </trkpt>
      <trkpt lat="4.62552" lon="-74.07426">
        <ele>2574.8</ele>
        <time>2020-06-22T13:07:27Z</time>
      </trkpt>
      <trkpt lat="4.62551" lon="-74.07425">
        <ele>2574.8</ele>
        <time>2020-06-22T13:07:29Z</time>
      </trkpt>
      <trkpt lat="4.6255" lon="-74.07424">
        <ele>2574.8</ele>
        <time>2020-06-22T13:07:30Z</time>
      </trkpt>
      <trkpt lat="4.62549" lon="-74.07422">
        <ele>2574.8</ele>
        <time>2020-06-22T13:07:32Z</time>
      </trkpt>
      <trkpt lat="4.62548" lon="-74.0742">
        <ele>2574.8</ele>
        <time>2020-06-22T13:07:33Z</time>
      </trkpt>
      <trkpt lat="4.62548" lon="-74.07416">
        <ele>2574.8</ele>
        <time>2020-06-22T13:07:35Z</time>
      </trkpt>
      <trkpt lat="4.62548" lon="-74.07412">
        <ele>2574.8</ele>
        <time>2020-06-22T13:07:37Z</time>
      </trkpt>
      <trkpt lat="4.62547" lon="-74.07408">
        <ele>2574.8</ele>
        <time>2020-06-22T13:07:39Z</time>
      </trkpt>
      <trkpt lat="4.62547" lon="-74.07404">
        <ele>2574.8</ele>
        <time>2020-06-22T13:07:40Z</time>
      </trkpt>
      <trkpt lat="4.62547" lon="-74.07403">
        <ele>2574.8</ele>
        <time>2020-06-22T13:07:41Z</time>
      </trkpt>
      <trkpt lat="4.62546" lon="-74.07399">
        <ele>2574.7</ele>
        <time>2020-06-22T13:07:43Z</time>
      </trkpt>
      <trkpt lat="4.62546" lon="-74.07397">
        <ele>2574.7</ele>
        <time>2020-06-22T13:07:44Z</time>
      </trkpt>
      <trkpt lat="4.62545" lon="-74.07394">
        <ele>2574.7</ele>
        <time>2020-06-22T13:07:46Z</time>
      </trkpt>
      <trkpt lat="4.62545" lon="-74.07395">
        <ele>2574.7</ele>
        <time>2020-06-22T13:07:48Z</time>
      </trkpt>
      <trkpt lat="4.62545" lon="-74.07393">
        <ele>2574.7</ele>
        <time>2020-06-22T13:07:51Z</time>
      </trkpt>
      <trkpt lat="4.62545" lon="-74.07393">
        <ele>2574.7</ele>
        <time>2020-06-22T13:07:52Z</time>
      </trkpt>
      <trkpt lat="4.62544" lon="-74.07392">
        <ele>2574.7</ele>
        <time>2020-06-22T13:07:54Z</time>
      </trkpt>
      <trkpt lat="4.62544" lon="-74.07392">
        <ele>2574.7</ele>
        <time>2020-06-22T13:07:56Z</time>
      </trkpt>
      <trkpt lat="4.62544" lon="-74.07391">
        <ele>2574.7</ele>
        <time>2020-06-22T13:07:58Z</time>
      </trkpt>
      <trkpt lat="4.62543" lon="-74.07391">
        <ele>2574.7</ele>
        <time>2020-06-22T13:07:59Z</time>
      </trkpt>
      <trkpt lat="4.62543" lon="-74.07391">
        <ele>2574.7</ele>
        <time>2020-06-22T13:08:01Z</time>
      </trkpt>
      <trkpt lat="4.62544" lon="-74.07391">
        <ele>2574.7</ele>
        <time>2020-06-22T13:08:03Z</time>
      </trkpt>
      <trkpt lat="4.62544" lon="-74.07391">
        <ele>2574.7</ele>
        <time>2020-06-22T13:08:04Z</time>
      </trkpt>
      <trkpt lat="4.62545" lon="-74.07391">
        <ele>2574.7</ele>
        <time>2020-06-22T13:08:07Z</time>
      </trkpt>
      <trkpt lat="4.62545" lon="-74.0739">
        <ele>2574.7</ele>
        <time>2020-06-22T13:08:10Z</time>
      </trkpt>
      <trkpt lat="4.62546" lon="-74.07391">
        <ele>2574.7</ele>
        <time>2020-06-22T13:08:12Z</time>
      </trkpt>
      <trkpt lat="4.62546" lon="-74.07391">
        <ele>2574.7</ele>
        <time>2020-06-22T13:08:13Z</time>
      </trkpt>
      <trkpt lat="4.62546" lon="-74.07392">
        <ele>2574.7</ele>
        <time>2020-06-22T13:08:14Z</time>
      </trkpt>
      <trkpt lat="4.62546" lon="-74.07392">
        <ele>2574.7</ele>
        <time>2020-06-22T13:08:15Z</time>
      </trkpt>
      <trkpt lat="4.62546" lon="-74.07392">
        <ele>2574.7</ele>
        <time>2020-06-22T13:08:16Z</time>
      </trkpt>
      <trkpt lat="4.62548" lon="-74.07392">
        <ele>2574.7</ele>
        <time>2020-06-22T13:08:18Z</time>
      </trkpt>
      <trkpt lat="4.62549" lon="-74.07393">
        <ele>2574.7</ele>
        <time>2020-06-22T13:08:20Z</time>
      </trkpt>
      <trkpt lat="4.6255" lon="-74.07396">
        <ele>2574.8</ele>
        <time>2020-06-22T13:08:22Z</time>
      </trkpt>
      <trkpt lat="4.6255" lon="-74.07397">
        <ele>2574.8</ele>
        <time>2020-06-22T13:08:23Z</time>
      </trkpt>
      <trkpt lat="4.62551" lon="-74.07403">
        <ele>2574.8</ele>
        <time>2020-06-22T13:08:25Z</time>
      </trkpt>
      <trkpt lat="4.62553" lon="-74.0741">
        <ele>2574.8</ele>
        <time>2020-06-22T13:08:27Z</time>
      </trkpt>
      <trkpt lat="4.62554" lon="-74.07414">
        <ele>2574.8</ele>
        <time>2020-06-22T13:08:28Z</time>
      </trkpt>
      <trkpt lat="4.62559" lon="-74.07421">
        <ele>2574.8</ele>
        <time>2020-06-22T13:08:30Z</time>
      </trkpt>
      <trkpt lat="4.62561" lon="-74.07423">
        <ele>2574.8</ele>
        <time>2020-06-22T13:08:31Z</time>
      </trkpt>
      <trkpt lat="4.62567" lon="-74.07427">
        <ele>2574.8</ele>
        <time>2020-06-22T13:08:33Z</time>
      </trkpt>
      <trkpt lat="4.62571" lon="-74.07432">
        <ele>2574.8</ele>
        <time>2020-06-22T13:08:35Z</time>
      </trkpt>
      <trkpt lat="4.62573" lon="-74.07434">
        <ele>2574.8</ele>
        <time>2020-06-22T13:08:36Z</time>
      </trkpt>
      <trkpt lat="4.62578" lon="-74.07439">
        <ele>2574.8</ele>
        <time>2020-06-22T13:08:38Z</time>
      </trkpt>
      <trkpt lat="4.62581" lon="-74.07443">
        <ele>2574.8</ele>
        <time>2020-06-22T13:08:40Z</time>
      </trkpt>
      <trkpt lat="4.62583" lon="-74.07445">
        <ele>2574.8</ele>
        <time>2020-06-22T13:08:41Z</time>
      </trkpt>
      <trkpt lat="4.62588" lon="-74.07449">
        <ele>2574.8</ele>
        <time>2020-06-22T13:08:43Z</time>
      </trkpt>
      <trkpt lat="4.62593" lon="-74.07453">
        <ele>2574.8</ele>
        <time>2020-06-22T13:08:45Z</time>
      </trkpt>
      <trkpt lat="4.62598" lon="-74.07457">
        <ele>2574.7</ele>
        <time>2020-06-22T13:08:47Z</time>
      </trkpt>
      <trkpt lat="4.62602" lon="-74.07461">
        <ele>2574.7</ele>
        <time>2020-06-22T13:08:49Z</time>
      </trkpt>
      <trkpt lat="4.62606" lon="-74.07464">
        <ele>2574.7</ele>
        <time>2020-06-22T13:08:51Z</time>
      </trkpt>
      <trkpt lat="4.62609" lon="-74.07467">
        <ele>2574.7</ele>
        <time>2020-06-22T13:08:52Z</time>
      </trkpt>
      <trkpt lat="4.62611" lon="-74.07468">
        <ele>2574.7</ele>
        <time>2020-06-22T13:08:53Z</time>
      </trkpt>
      <trkpt lat="4.62616" lon="-74.07471">
        <ele>2574.7</ele>
        <time>2020-06-22T13:08:55Z</time>
      </trkpt>
      <trkpt lat="4.62621" lon="-74.07474">
        <ele>2574.6</ele>
        <time>2020-06-22T13:08:57Z</time>
      </trkpt>
      <trkpt lat="4.62624" lon="-74.07476">
        <ele>2574.6</ele>
        <time>2020-06-22T13:08:58Z</time>
      </trkpt>
      <trkpt lat="4.62628" lon="-74.0748">
        <ele>2574.4</ele>
        <time>2020-06-22T13:09:00Z</time>
      </trkpt>
      <trkpt lat="4.62633" lon="-74.07483">
        <ele>2574.4</ele>
        <time>2020-06-22T13:09:02Z</time>
      </trkpt>
      <trkpt lat="4.62636" lon="-74.07485">
        <ele>2574.4</ele>
        <time>2020-06-22T13:09:03Z</time>
      </trkpt>
      <trkpt lat="4.62641" lon="-74.07488">
        <ele>2574.4</ele>
        <time>2020-06-22T13:09:05Z</time>
      </trkpt>
      <trkpt lat="4.62644" lon="-74.0749">
        <ele>2574.4</ele>
        <time>2020-06-22T13:09:06Z</time>
      </trkpt>
      <trkpt lat="4.62647" lon="-74.07491">
        <ele>2574.4</ele>
        <time>2020-06-22T13:09:07Z</time>
      </trkpt>
      <trkpt lat="4.62654" lon="-74.07494">
        <ele>2574.2</ele>
        <time>2020-06-22T13:09:09Z</time>
      </trkpt>
      <trkpt lat="4.6266" lon="-74.07496">
        <ele>2574.1</ele>
        <time>2020-06-22T13:09:11Z</time>
      </trkpt>
      <trkpt lat="4.62667" lon="-74.07497">
        <ele>2573.9</ele>
        <time>2020-06-22T13:09:13Z</time>
      </trkpt>
      <trkpt lat="4.62674" lon="-74.07498">
        <ele>2573.8</ele>
        <time>2020-06-22T13:09:15Z</time>
      </trkpt>
      <trkpt lat="4.6268" lon="-74.07499">
        <ele>2573.7</ele>
        <time>2020-06-22T13:09:17Z</time>
      </trkpt>
      <trkpt lat="4.62682" lon="-74.075">
        <ele>2573.6</ele>
        <time>2020-06-22T13:09:18Z</time>
      </trkpt>
      <trkpt lat="4.62688" lon="-74.07501">
        <ele>2573.5</ele>
        <time>2020-06-22T13:09:20Z</time>
      </trkpt>
      <trkpt lat="4.62691" lon="-74.07502">
        <ele>2573.5</ele>
        <time>2020-06-22T13:09:21Z</time>
      </trkpt>
      <trkpt lat="4.62694" lon="-74.07503">
        <ele>2573.4</ele>
        <time>2020-06-22T13:09:22Z</time>
      </trkpt>
      <trkpt lat="4.627" lon="-74.07504">
        <ele>2573.3</ele>
        <time>2020-06-22T13:09:24Z</time>
      </trkpt>
      <trkpt lat="4.62706" lon="-74.07506">
        <ele>2573.1</ele>
        <time>2020-06-22T13:09:26Z</time>
      </trkpt>
      <trkpt lat="4.62709" lon="-74.07506">
        <ele>2573.1</ele>
        <time>2020-06-22T13:09:27Z</time>
      </trkpt>
      <trkpt lat="4.62712" lon="-74.07507">
        <ele>2573</ele>
        <time>2020-06-22T13:09:28Z</time>
      </trkpt>
      <trkpt lat="4.62718" lon="-74.07508">
        <ele>2572.8</ele>
        <time>2020-06-22T13:09:30Z</time>
      </trkpt>
      <trkpt lat="4.62722" lon="-74.07509">
        <ele>2572.8</ele>
        <time>2020-06-22T13:09:31Z</time>
      </trkpt>
      <trkpt lat="4.62728" lon="-74.07511">
        <ele>2572.7</ele>
        <time>2020-06-22T13:09:33Z</time>
      </trkpt>
      <trkpt lat="4.62732" lon="-74.07512">
        <ele>2572.6</ele>
        <time>2020-06-22T13:09:34Z</time>
      </trkpt>
      <trkpt lat="4.62738" lon="-74.07513">
        <ele>2572.5</ele>
        <time>2020-06-22T13:09:36Z</time>
      </trkpt>
      <trkpt lat="4.62744" lon="-74.07515">
        <ele>2572.4</ele>
        <time>2020-06-22T13:09:38Z</time>
      </trkpt>
      <trkpt lat="4.62748" lon="-74.07516">
        <ele>2572.3</ele>
        <time>2020-06-22T13:09:39Z</time>
      </trkpt>
      <trkpt lat="4.62751" lon="-74.07516">
        <ele>2572.3</ele>
        <time>2020-06-22T13:09:40Z</time>
      </trkpt>
      <trkpt lat="4.62754" lon="-74.07517">
        <ele>2572.2</ele>
        <time>2020-06-22T13:09:41Z</time>
      </trkpt>
      <trkpt lat="4.6276" lon="-74.07518">
        <ele>2572.2</ele>
        <time>2020-06-22T13:09:43Z</time>
      </trkpt>
      <trkpt lat="4.62766" lon="-74.07519">
        <ele>2572.1</ele>
        <time>2020-06-22T13:09:45Z</time>
      </trkpt>
      <trkpt lat="4.62769" lon="-74.0752">
        <ele>2572.1</ele>
        <time>2020-06-22T13:09:46Z</time>
      </trkpt>
      <trkpt lat="4.62775" lon="-74.07521">
        <ele>2572</ele>
        <time>2020-06-22T13:09:48Z</time>
      </trkpt>
      <trkpt lat="4.62778" lon="-74.07521">
        <ele>2571.9</ele>
        <time>2020-06-22T13:09:49Z</time>
      </trkpt>
      <trkpt lat="4.62784" lon="-74.07521">
        <ele>2571.9</ele>
        <time>2020-06-22T13:09:51Z</time>
      </trkpt>
      <trkpt lat="4.62789" lon="-74.07521">
        <ele>2571.9</ele>
        <time>2020-06-22T13:09:53Z</time>
      </trkpt>
      <trkpt lat="4.62795" lon="-74.0752">
        <ele>2571.8</ele>
        <time>2020-06-22T13:09:55Z</time>
      </trkpt>
      <trkpt lat="4.62801" lon="-74.0752">
        <ele>2571.7</ele>
        <time>2020-06-22T13:09:57Z</time>
      </trkpt>
      <trkpt lat="4.62804" lon="-74.0752">
        <ele>2571.7</ele>
        <time>2020-06-22T13:09:58Z</time>
      </trkpt>
      <trkpt lat="4.62806" lon="-74.0752">
        <ele>2571.7</ele>
        <time>2020-06-22T13:09:59Z</time>
      </trkpt>
      <trkpt lat="4.62812" lon="-74.0752">
        <ele>2571.6</ele>
        <time>2020-06-22T13:10:01Z</time>
      </trkpt>
      <trkpt lat="4.62815" lon="-74.0752">
        <ele>2571.5</ele>
        <time>2020-06-22T13:10:02Z</time>
      </trkpt>
      <trkpt lat="4.6282" lon="-74.07519">
        <ele>2571.4</ele>
        <time>2020-06-22T13:10:04Z</time>
      </trkpt>
      <trkpt lat="4.62826" lon="-74.07519">
        <ele>2571.3</ele>
        <time>2020-06-22T13:10:06Z</time>
      </trkpt>
      <trkpt lat="4.62831" lon="-74.07518">
        <ele>2571.2</ele>
        <time>2020-06-22T13:10:08Z</time>
      </trkpt>
      <trkpt lat="4.62837" lon="-74.07517">
        <ele>2571.1</ele>
        <time>2020-06-22T13:10:10Z</time>
      </trkpt>
      <trkpt lat="4.62842" lon="-74.07516">
        <ele>2571</ele>
        <time>2020-06-22T13:10:12Z</time>
      </trkpt>
      <trkpt lat="4.62845" lon="-74.07516">
        <ele>2571</ele>
        <time>2020-06-22T13:10:13Z</time>
      </trkpt>
      <trkpt lat="4.62847" lon="-74.07516">
        <ele>2571</ele>
        <time>2020-06-22T13:10:14Z</time>
      </trkpt>
      <trkpt lat="4.62853" lon="-74.07516">
        <ele>2570.9</ele>
        <time>2020-06-22T13:10:16Z</time>
      </trkpt>
      <trkpt lat="4.62859" lon="-74.07515">
        <ele>2570.8</ele>
        <time>2020-06-22T13:10:18Z</time>
      </trkpt>
      <trkpt lat="4.62865" lon="-74.07515">
        <ele>2570.7</ele>
        <time>2020-06-22T13:10:20Z</time>
      </trkpt>
      <trkpt lat="4.62871" lon="-74.07514">
        <ele>2570.6</ele>
        <time>2020-06-22T13:10:22Z</time>
      </trkpt>
      <trkpt lat="4.62874" lon="-74.07514">
        <ele>2570.6</ele>
        <time>2020-06-22T13:10:23Z</time>
      </trkpt>
      <trkpt lat="4.62877" lon="-74.07514">
        <ele>2570.6</ele>
        <time>2020-06-22T13:10:24Z</time>
      </trkpt>
      <trkpt lat="4.62883" lon="-74.07513">
        <ele>2570.5</ele>
        <time>2020-06-22T13:10:26Z</time>
      </trkpt>
      <trkpt lat="4.62889" lon="-74.07513">
        <ele>2570.5</ele>
        <time>2020-06-22T13:10:28Z</time>
      </trkpt>
      <trkpt lat="4.62895" lon="-74.07512">
        <ele>2570.4</ele>
        <time>2020-06-22T13:10:30Z</time>
      </trkpt>
      <trkpt lat="4.62898" lon="-74.07512">
        <ele>2570.4</ele>
        <time>2020-06-22T13:10:31Z</time>
      </trkpt>
      <trkpt lat="4.62903" lon="-74.07511">
        <ele>2570.4</ele>
        <time>2020-06-22T13:10:33Z</time>
      </trkpt>
      <trkpt lat="4.62909" lon="-74.07509">
        <ele>2570.4</ele>
        <time>2020-06-22T13:10:35Z</time>
      </trkpt>
      <trkpt lat="4.62914" lon="-74.07508">
        <ele>2570.3</ele>
        <time>2020-06-22T13:10:37Z</time>
      </trkpt>
      <trkpt lat="4.6292" lon="-74.07505">
        <ele>2570.2</ele>
        <time>2020-06-22T13:10:39Z</time>
      </trkpt>
      <trkpt lat="4.62923" lon="-74.07504">
        <ele>2570.1</ele>
        <time>2020-06-22T13:10:40Z</time>
      </trkpt>
      <trkpt lat="4.62926" lon="-74.07503">
        <ele>2570.1</ele>
        <time>2020-06-22T13:10:41Z</time>
      </trkpt>
      <trkpt lat="4.62932" lon="-74.07501">
        <ele>2569.9</ele>
        <time>2020-06-22T13:10:43Z</time>
      </trkpt>
      <trkpt lat="4.62937" lon="-74.07499">
        <ele>2569.8</ele>
        <time>2020-06-22T13:10:45Z</time>
      </trkpt>
      <trkpt lat="4.62943" lon="-74.07498">
        <ele>2569.7</ele>
        <time>2020-06-22T13:10:47Z</time>
      </trkpt>
      <trkpt lat="4.6295" lon="-74.07498">
        <ele>2569.6</ele>
        <time>2020-06-22T13:10:49Z</time>
      </trkpt>
      <trkpt lat="4.62956" lon="-74.07498">
        <ele>2569.5</ele>
        <time>2020-06-22T13:10:51Z</time>
      </trkpt>
      <trkpt lat="4.6296" lon="-74.07498">
        <ele>2569.5</ele>
        <time>2020-06-22T13:10:52Z</time>
      </trkpt>
      <trkpt lat="4.62963" lon="-74.07498">
        <ele>2569.5</ele>
        <time>2020-06-22T13:10:53Z</time>
      </trkpt>
      <trkpt lat="4.62969" lon="-74.07497">
        <ele>2569.4</ele>
        <time>2020-06-22T13:10:55Z</time>
      </trkpt>
      <trkpt lat="4.62975" lon="-74.07495">
        <ele>2569.4</ele>
        <time>2020-06-22T13:10:57Z</time>
      </trkpt>
      <trkpt lat="4.62978" lon="-74.07494">
        <ele>2569.3</ele>
        <time>2020-06-22T13:10:58Z</time>
      </trkpt>
      <trkpt lat="4.62984" lon="-74.07493">
        <ele>2569.3</ele>
        <time>2020-06-22T13:11:00Z</time>
      </trkpt>
      <trkpt lat="4.62987" lon="-74.07492">
        <ele>2569.2</ele>
        <time>2020-06-22T13:11:01Z</time>
      </trkpt>
      <trkpt lat="4.62989" lon="-74.07492">
        <ele>2569.2</ele>
        <time>2020-06-22T13:11:02Z</time>
      </trkpt>
      <trkpt lat="4.62996" lon="-74.07491">
        <ele>2569.1</ele>
        <time>2020-06-22T13:11:04Z</time>
      </trkpt>
      <trkpt lat="4.62999" lon="-74.07491">
        <ele>2569.1</ele>
        <time>2020-06-22T13:11:05Z</time>
      </trkpt>
      <trkpt lat="4.63005" lon="-74.07492">
        <ele>2569</ele>
        <time>2020-06-22T13:11:07Z</time>
      </trkpt>
      <trkpt lat="4.63011" lon="-74.07492">
        <ele>2569</ele>
        <time>2020-06-22T13:11:09Z</time>
      </trkpt>
      <trkpt lat="4.63017" lon="-74.07493">
        <ele>2568.9</ele>
        <time>2020-06-22T13:11:11Z</time>
      </trkpt>
      <trkpt lat="4.63023" lon="-74.07493">
        <ele>2568.8</ele>
        <time>2020-06-22T13:11:13Z</time>
      </trkpt>
      <trkpt lat="4.63029" lon="-74.07493">
        <ele>2568.7</ele>
        <time>2020-06-22T13:11:15Z</time>
      </trkpt>
      <trkpt lat="4.63035" lon="-74.07493">
        <ele>2568.6</ele>
        <time>2020-06-22T13:11:17Z</time>
      </trkpt>
      <trkpt lat="4.63039" lon="-74.07493">
        <ele>2568.6</ele>
        <time>2020-06-22T13:11:18Z</time>
      </trkpt>
      <trkpt lat="4.63045" lon="-74.07494">
        <ele>2568.5</ele>
        <time>2020-06-22T13:11:20Z</time>
      </trkpt>
      <trkpt lat="4.6305" lon="-74.07494">
        <ele>2568.5</ele>
        <time>2020-06-22T13:11:22Z</time>
      </trkpt>
      <trkpt lat="4.63053" lon="-74.07495">
        <ele>2568.5</ele>
        <time>2020-06-22T13:11:23Z</time>
      </trkpt>
      <trkpt lat="4.63059" lon="-74.07495">
        <ele>2568.5</ele>
        <time>2020-06-22T13:11:25Z</time>
      </trkpt>
      <trkpt lat="4.63064" lon="-74.07495">
        <ele>2568.4</ele>
        <time>2020-06-22T13:11:27Z</time>
      </trkpt>
      <trkpt lat="4.6307" lon="-74.07495">
        <ele>2568.3</ele>
        <time>2020-06-22T13:11:29Z</time>
      </trkpt>
      <trkpt lat="4.63073" lon="-74.07495">
        <ele>2568.3</ele>
        <time>2020-06-22T13:11:30Z</time>
      </trkpt>
      <trkpt lat="4.63079" lon="-74.07497">
        <ele>2568.2</ele>
        <time>2020-06-22T13:11:32Z</time>
      </trkpt>
      <trkpt lat="4.63084" lon="-74.07498">
        <ele>2568.2</ele>
        <time>2020-06-22T13:11:34Z</time>
      </trkpt>
      <trkpt lat="4.63088" lon="-74.07497">
        <ele>2568.1</ele>
        <time>2020-06-22T13:11:36Z</time>
      </trkpt>
      <trkpt lat="4.63093" lon="-74.07496">
        <ele>2568.1</ele>
        <time>2020-06-22T13:11:38Z</time>
      </trkpt>
      <trkpt lat="4.63096" lon="-74.07496">
        <ele>2568</ele>
        <time>2020-06-22T13:11:39Z</time>
      </trkpt>
      <trkpt lat="4.63101" lon="-74.07496">
        <ele>2568</ele>
        <time>2020-06-22T13:11:41Z</time>
      </trkpt>
      <trkpt lat="4.63103" lon="-74.07496">
        <ele>2568</ele>
        <time>2020-06-22T13:11:42Z</time>
      </trkpt>
      <trkpt lat="4.63109" lon="-74.07495">
        <ele>2567.9</ele>
        <time>2020-06-22T13:11:44Z</time>
      </trkpt>
      <trkpt lat="4.63114" lon="-74.07494">
        <ele>2567.9</ele>
        <time>2020-06-22T13:11:46Z</time>
      </trkpt>
      <trkpt lat="4.63117" lon="-74.07494">
        <ele>2567.8</ele>
        <time>2020-06-22T13:11:47Z</time>
      </trkpt>
      <trkpt lat="4.63123" lon="-74.07494">
        <ele>2567.8</ele>
        <time>2020-06-22T13:11:49Z</time>
      </trkpt>
      <trkpt lat="4.63126" lon="-74.07494">
        <ele>2567.8</ele>
        <time>2020-06-22T13:11:50Z</time>
      </trkpt>
      <trkpt lat="4.63129" lon="-74.07494">
        <ele>2567.7</ele>
        <time>2020-06-22T13:11:51Z</time>
      </trkpt>
      <trkpt lat="4.63135" lon="-74.07492">
        <ele>2567.7</ele>
        <time>2020-06-22T13:11:53Z</time>
      </trkpt>
      <trkpt lat="4.63137" lon="-74.07491">
        <ele>2567.7</ele>
        <time>2020-06-22T13:11:54Z</time>
      </trkpt>
      <trkpt lat="4.6314" lon="-74.07489">
        <ele>2567.6</ele>
        <time>2020-06-22T13:11:55Z</time>
      </trkpt>
      <trkpt lat="4.63145" lon="-74.07488">
        <ele>2567.6</ele>
        <time>2020-06-22T13:11:57Z</time>
      </trkpt>
      <trkpt lat="4.63151" lon="-74.07487">
        <ele>2567.6</ele>
        <time>2020-06-22T13:11:59Z</time>
      </trkpt>
      <trkpt lat="4.63154" lon="-74.07486">
        <ele>2567.6</ele>
        <time>2020-06-22T13:12:00Z</time>
      </trkpt>
      <trkpt lat="4.63157" lon="-74.07486">
        <ele>2567.6</ele>
        <time>2020-06-22T13:12:01Z</time>
      </trkpt>
      <trkpt lat="4.63164" lon="-74.07486">
        <ele>2567.5</ele>
        <time>2020-06-22T13:12:03Z</time>
      </trkpt>
      <trkpt lat="4.63171" lon="-74.07487">
        <ele>2567.5</ele>
        <time>2020-06-22T13:12:05Z</time>
      </trkpt>
      <trkpt lat="4.63174" lon="-74.07487">
        <ele>2567.5</ele>
        <time>2020-06-22T13:12:06Z</time>
      </trkpt>
      <trkpt lat="4.63177" lon="-74.07487">
        <ele>2567.5</ele>
        <time>2020-06-22T13:12:07Z</time>
      </trkpt>
      <trkpt lat="4.63184" lon="-74.07487">
        <ele>2567.4</ele>
        <time>2020-06-22T13:12:09Z</time>
      </trkpt>
      <trkpt lat="4.63188" lon="-74.07486">
        <ele>2567.3</ele>
        <time>2020-06-22T13:12:10Z</time>
      </trkpt>
      <trkpt lat="4.63194" lon="-74.07485">
        <ele>2567.2</ele>
        <time>2020-06-22T13:12:12Z</time>
      </trkpt>
      <trkpt lat="4.632" lon="-74.07487">
        <ele>2567.1</ele>
        <time>2020-06-22T13:12:14Z</time>
      </trkpt>
      <trkpt lat="4.63207" lon="-74.07489">
        <ele>2567</ele>
        <time>2020-06-22T13:12:16Z</time>
      </trkpt>
      <trkpt lat="4.6321" lon="-74.0749">
        <ele>2567</ele>
        <time>2020-06-22T13:12:17Z</time>
      </trkpt>
      <trkpt lat="4.63215" lon="-74.07491">
        <ele>2566.9</ele>
        <time>2020-06-22T13:12:19Z</time>
      </trkpt>
      <trkpt lat="4.6322" lon="-74.0749">
        <ele>2566.9</ele>
        <time>2020-06-22T13:12:21Z</time>
      </trkpt>
      <trkpt lat="4.63227" lon="-74.07492">
        <ele>2566.9</ele>
        <time>2020-06-22T13:12:23Z</time>
      </trkpt>
      <trkpt lat="4.63231" lon="-74.07493">
        <ele>2566.9</ele>
        <time>2020-06-22T13:12:25Z</time>
      </trkpt>
      <trkpt lat="4.63236" lon="-74.07494">
        <ele>2566.8</ele>
        <time>2020-06-22T13:12:27Z</time>
      </trkpt>
      <trkpt lat="4.63241" lon="-74.07494">
        <ele>2566.8</ele>
        <time>2020-06-22T13:12:29Z</time>
      </trkpt>
      <trkpt lat="4.63243" lon="-74.07494">
        <ele>2566.8</ele>
        <time>2020-06-22T13:12:30Z</time>
      </trkpt>
      <trkpt lat="4.63249" lon="-74.07493">
        <ele>2566.8</ele>
        <time>2020-06-22T13:12:32Z</time>
      </trkpt>
      <trkpt lat="4.63252" lon="-74.07492">
        <ele>2566.7</ele>
        <time>2020-06-22T13:12:33Z</time>
      </trkpt>
      <trkpt lat="4.63257" lon="-74.07491">
        <ele>2566.7</ele>
        <time>2020-06-22T13:12:35Z</time>
      </trkpt>
      <trkpt lat="4.63262" lon="-74.07492">
        <ele>2566.6</ele>
        <time>2020-06-22T13:12:37Z</time>
      </trkpt>
      <trkpt lat="4.63268" lon="-74.07493">
        <ele>2566.6</ele>
        <time>2020-06-22T13:12:39Z</time>
      </trkpt>
      <trkpt lat="4.63271" lon="-74.07494">
        <ele>2566.5</ele>
        <time>2020-06-22T13:12:40Z</time>
      </trkpt>
      <trkpt lat="4.63275" lon="-74.07495">
        <ele>2566.5</ele>
        <time>2020-06-22T13:12:41Z</time>
      </trkpt>
      <trkpt lat="4.6328" lon="-74.07496">
        <ele>2566.4</ele>
        <time>2020-06-22T13:12:43Z</time>
      </trkpt>
      <trkpt lat="4.63283" lon="-74.07496">
        <ele>2566.3</ele>
        <time>2020-06-22T13:12:44Z</time>
      </trkpt>
      <trkpt lat="4.63289" lon="-74.07497">
        <ele>2566.2</ele>
        <time>2020-06-22T13:12:46Z</time>
      </trkpt>
      <trkpt lat="4.63297" lon="-74.07499">
        <ele>2566.2</ele>
        <time>2020-06-22T13:12:48Z</time>
      </trkpt>
      <trkpt lat="4.63302" lon="-74.07501">
        <ele>2566.1</ele>
        <time>2020-06-22T13:12:50Z</time>
      </trkpt>
      <trkpt lat="4.63304" lon="-74.07502">
        <ele>2566.1</ele>
        <time>2020-06-22T13:12:51Z</time>
      </trkpt>
      <trkpt lat="4.63309" lon="-74.07504">
        <ele>2566.1</ele>
        <time>2020-06-22T13:12:53Z</time>
      </trkpt>
      <trkpt lat="4.63312" lon="-74.07505">
        <ele>2566.1</ele>
        <time>2020-06-22T13:12:54Z</time>
      </trkpt>
      <trkpt lat="4.63315" lon="-74.07506">
        <ele>2566</ele>
        <time>2020-06-22T13:12:55Z</time>
      </trkpt>
      <trkpt lat="4.63318" lon="-74.07506">
        <ele>2566</ele>
        <time>2020-06-22T13:12:56Z</time>
      </trkpt>
      <trkpt lat="4.63326" lon="-74.07507">
        <ele>2566</ele>
        <time>2020-06-22T13:12:58Z</time>
      </trkpt>
      <trkpt lat="4.63331" lon="-74.07505">
        <ele>2565.9</ele>
        <time>2020-06-22T13:13:00Z</time>
      </trkpt>
      <trkpt lat="4.63334" lon="-74.07503">
        <ele>2565.9</ele>
        <time>2020-06-22T13:13:01Z</time>
      </trkpt>
      <trkpt lat="4.63334" lon="-74.07502">
        <ele>2565.9</ele>
        <time>2020-06-22T13:13:02Z</time>
      </trkpt>
      <trkpt lat="4.63337" lon="-74.07498">
        <ele>2565.7</ele>
        <time>2020-06-22T13:13:04Z</time>
      </trkpt>
      <trkpt lat="4.63338" lon="-74.07496">
        <ele>2565.7</ele>
        <time>2020-06-22T13:13:05Z</time>
      </trkpt>
      <trkpt lat="4.63337" lon="-74.07492">
        <ele>2565.7</ele>
        <time>2020-06-22T13:13:07Z</time>
      </trkpt>
      <trkpt lat="4.63335" lon="-74.07488">
        <ele>2565.8</ele>
        <time>2020-06-22T13:13:08Z</time>
      </trkpt>
      <trkpt lat="4.63332" lon="-74.07484">
        <ele>2565.8</ele>
        <time>2020-06-22T13:13:10Z</time>
      </trkpt>
      <trkpt lat="4.63329" lon="-74.0748">
        <ele>2565.9</ele>
        <time>2020-06-22T13:13:12Z</time>
      </trkpt>
      <trkpt lat="4.63326" lon="-74.07476">
        <ele>2566</ele>
        <time>2020-06-22T13:13:13Z</time>
      </trkpt>
      <trkpt lat="4.63324" lon="-74.07474">
        <ele>2566</ele>
        <time>2020-06-22T13:13:14Z</time>
      </trkpt>
      <trkpt lat="4.63321" lon="-74.07469">
        <ele>2566</ele>
        <time>2020-06-22T13:13:16Z</time>
      </trkpt>
      <trkpt lat="4.63316" lon="-74.07463">
        <ele>2566.1</ele>
        <time>2020-06-22T13:13:18Z</time>
      </trkpt>
      <trkpt lat="4.6331" lon="-74.07459">
        <ele>2566.1</ele>
        <time>2020-06-22T13:13:20Z</time>
      </trkpt>
      <trkpt lat="4.63307" lon="-74.07456">
        <ele>2566.2</ele>
        <time>2020-06-22T13:13:21Z</time>
      </trkpt>
      <trkpt lat="4.63301" lon="-74.07453">
        <ele>2566.2</ele>
        <time>2020-06-22T13:13:23Z</time>
      </trkpt>
      <trkpt lat="4.63295" lon="-74.07449">
        <ele>2566.3</ele>
        <time>2020-06-22T13:13:25Z</time>
      </trkpt>
      <trkpt lat="4.63291" lon="-74.07445">
        <ele>2566.4</ele>
        <time>2020-06-22T13:13:27Z</time>
      </trkpt>
      <trkpt lat="4.63288" lon="-74.07442">
        <ele>2566.5</ele>
        <time>2020-06-22T13:13:28Z</time>
      </trkpt>
      <trkpt lat="4.63286" lon="-74.0744">
        <ele>2566.5</ele>
        <time>2020-06-22T13:13:29Z</time>
      </trkpt>
      <trkpt lat="4.63283" lon="-74.07435">
        <ele>2566.6</ele>
        <time>2020-06-22T13:13:31Z</time>
      </trkpt>
      <trkpt lat="4.63282" lon="-74.07432">
        <ele>2566.6</ele>
        <time>2020-06-22T13:13:32Z</time>
      </trkpt>
      <trkpt lat="4.63281" lon="-74.07431">
        <ele>2566.6</ele>
        <time>2020-06-22T13:13:33Z</time>
      </trkpt>
      <trkpt lat="4.63277" lon="-74.07427">
        <ele>2566.7</ele>
        <time>2020-06-22T13:13:35Z</time>
      </trkpt>
      <trkpt lat="4.63274" lon="-74.07424">
        <ele>2566.8</ele>
        <time>2020-06-22T13:13:37Z</time>
      </trkpt>
      <trkpt lat="4.6327" lon="-74.0742">
        <ele>2566.9</ele>
        <time>2020-06-22T13:13:39Z</time>
      </trkpt>
      <trkpt lat="4.63268" lon="-74.07417">
        <ele>2567</ele>
        <time>2020-06-22T13:13:41Z</time>
      </trkpt>
      <trkpt lat="4.63267" lon="-74.07416">
        <ele>2567</ele>
        <time>2020-06-22T13:13:43Z</time>
      </trkpt>
      <trkpt lat="4.63265" lon="-74.07413">
        <ele>2567.1</ele>
        <time>2020-06-22T13:13:45Z</time>
      </trkpt>
      <trkpt lat="4.63264" lon="-74.0741">
        <ele>2567.2</ele>
        <time>2020-06-22T13:13:47Z</time>
      </trkpt>
      <trkpt lat="4.63262" lon="-74.07407">
        <ele>2567.2</ele>
        <time>2020-06-22T13:13:49Z</time>
      </trkpt>
      <trkpt lat="4.6326" lon="-74.07404">
        <ele>2567.2</ele>
        <time>2020-06-22T13:13:51Z</time>
      </trkpt>
      <trkpt lat="4.63257" lon="-74.07401">
        <ele>2567.2</ele>
        <time>2020-06-22T13:13:53Z</time>
      </trkpt>
      <trkpt lat="4.63254" lon="-74.07398">
        <ele>2567.3</ele>
        <time>2020-06-22T13:13:55Z</time>
      </trkpt>
      <trkpt lat="4.63252" lon="-74.07396">
        <ele>2567.3</ele>
        <time>2020-06-22T13:13:57Z</time>
      </trkpt>
      <trkpt lat="4.63249" lon="-74.07392">
        <ele>2567.3</ele>
        <time>2020-06-22T13:13:58Z</time>
      </trkpt>
      <trkpt lat="4.63245" lon="-74.07388">
        <ele>2567.4</ele>
        <time>2020-06-22T13:14:00Z</time>
      </trkpt>
      <trkpt lat="4.63241" lon="-74.07384">
        <ele>2567.4</ele>
        <time>2020-06-22T13:14:02Z</time>
      </trkpt>
      <trkpt lat="4.63237" lon="-74.07379">
        <ele>2567.4</ele>
        <time>2020-06-22T13:14:04Z</time>
      </trkpt>
      <trkpt lat="4.63236" lon="-74.07377">
        <ele>2567.4</ele>
        <time>2020-06-22T13:14:05Z</time>
      </trkpt>
      <trkpt lat="4.63234" lon="-74.07374">
        <ele>2567.4</ele>
        <time>2020-06-22T13:14:07Z</time>
      </trkpt>
      <trkpt lat="4.63231" lon="-74.0737">
        <ele>2567.4</ele>
        <time>2020-06-22T13:14:08Z</time>
      </trkpt>
      <trkpt lat="4.63228" lon="-74.07366">
        <ele>2567.4</ele>
        <time>2020-06-22T13:14:10Z</time>
      </trkpt>
      <trkpt lat="4.63226" lon="-74.07365">
        <ele>2567.4</ele>
        <time>2020-06-22T13:14:11Z</time>
      </trkpt>
      <trkpt lat="4.63223" lon="-74.07361">
        <ele>2567.5</ele>
        <time>2020-06-22T13:14:13Z</time>
      </trkpt>
      <trkpt lat="4.63222" lon="-74.0736">
        <ele>2567.5</ele>
        <time>2020-06-22T13:14:14Z</time>
      </trkpt>
      <trkpt lat="4.63219" lon="-74.07358">
        <ele>2567.5</ele>
        <time>2020-06-22T13:14:16Z</time>
      </trkpt>
      <trkpt lat="4.63217" lon="-74.07357">
        <ele>2567.5</ele>
        <time>2020-06-22T13:14:17Z</time>
      </trkpt>
      <trkpt lat="4.63215" lon="-74.07355">
        <ele>2567.5</ele>
        <time>2020-06-22T13:14:19Z</time>
      </trkpt>
      <trkpt lat="4.63215" lon="-74.07355">
        <ele>2567.5</ele>
        <time>2020-06-22T13:14:20Z</time>
      </trkpt>
      <trkpt lat="4.63215" lon="-74.07355">
        <ele>2567.5</ele>
        <time>2020-06-22T13:14:22Z</time>
      </trkpt>
      <trkpt lat="4.63216" lon="-74.07354">
        <ele>2567.5</ele>
        <time>2020-06-22T13:14:23Z</time>
      </trkpt>
      <trkpt lat="4.63216" lon="-74.07354">
        <ele>2567.5</ele>
        <time>2020-06-22T13:14:25Z</time>
      </trkpt>
      <trkpt lat="4.63216" lon="-74.07353">
        <ele>2567.5</ele>
        <time>2020-06-22T13:14:26Z</time>
      </trkpt>
      <trkpt lat="4.63206" lon="-74.07357">
        <ele>2567.6</ele>
        <time>2020-06-22T13:14:59Z</time>
      </trkpt>
      <trkpt lat="4.63206" lon="-74.07356">
        <ele>2567.6</ele>
        <time>2020-06-22T13:15:00Z</time>
      </trkpt>
      <trkpt lat="4.63206" lon="-74.07355">
        <ele>2567.6</ele>
        <time>2020-06-22T13:15:01Z</time>
      </trkpt>
      <trkpt lat="4.63207" lon="-74.07351">
        <ele>2567.6</ele>
        <time>2020-06-22T13:15:03Z</time>
      </trkpt>
      <trkpt lat="4.63206" lon="-74.07348">
        <ele>2567.7</ele>
        <time>2020-06-22T13:15:05Z</time>
      </trkpt>
      <trkpt lat="4.63205" lon="-74.07346">
        <ele>2567.7</ele>
        <time>2020-06-22T13:15:06Z</time>
      </trkpt>
      <trkpt lat="4.63202" lon="-74.07342">
        <ele>2567.7</ele>
        <time>2020-06-22T13:15:08Z</time>
      </trkpt>
      <trkpt lat="4.632" lon="-74.07339">
        <ele>2567.7</ele>
        <time>2020-06-22T13:15:09Z</time>
      </trkpt>
      <trkpt lat="4.632" lon="-74.07338">
        <ele>2567.8</ele>
        <time>2020-06-22T13:15:10Z</time>
      </trkpt>
      <trkpt lat="4.63197" lon="-74.07335">
        <ele>2567.8</ele>
        <time>2020-06-22T13:15:12Z</time>
      </trkpt>
      <trkpt lat="4.63195" lon="-74.07333">
        <ele>2567.9</ele>
        <time>2020-06-22T13:15:13Z</time>
      </trkpt>
      <trkpt lat="4.63192" lon="-74.0733">
        <ele>2567.9</ele>
        <time>2020-06-22T13:15:15Z</time>
      </trkpt>
      <trkpt lat="4.63189" lon="-74.07327">
        <ele>2568</ele>
        <time>2020-06-22T13:15:17Z</time>
      </trkpt>
      <trkpt lat="4.63186" lon="-74.07325">
        <ele>2568</ele>
        <time>2020-06-22T13:15:19Z</time>
      </trkpt>
      <trkpt lat="4.63185" lon="-74.07323">
        <ele>2568</ele>
        <time>2020-06-22T13:15:20Z</time>
      </trkpt>
      <trkpt lat="4.63181" lon="-74.0732">
        <ele>2568.1</ele>
        <time>2020-06-22T13:15:22Z</time>
      </trkpt>
      <trkpt lat="4.6318" lon="-74.07318">
        <ele>2568.1</ele>
        <time>2020-06-22T13:15:23Z</time>
      </trkpt>
      <trkpt lat="4.63177" lon="-74.07313">
        <ele>2568.2</ele>
        <time>2020-06-22T13:15:25Z</time>
      </trkpt>
      <trkpt lat="4.63173" lon="-74.07309">
        <ele>2568.3</ele>
        <time>2020-06-22T13:15:27Z</time>
      </trkpt>
      <trkpt lat="4.63172" lon="-74.07307">
        <ele>2568.3</ele>
        <time>2020-06-22T13:15:28Z</time>
      </trkpt>
      <trkpt lat="4.63169" lon="-74.07304">
        <ele>2568.3</ele>
        <time>2020-06-22T13:15:30Z</time>
      </trkpt>
      <trkpt lat="4.63094" lon="-74.07242">
        <ele>2570.2</ele>
        <time>2020-06-22T13:23:19Z</time>
      </trkpt>
      <trkpt lat="4.63094" lon="-74.07242">
        <ele>2570.2</ele>
        <time>2020-06-22T13:23:22Z</time>
      </trkpt>
      <trkpt lat="4.63146" lon="-74.07301">
        <ele>2568.3</ele>
        <time>2020-06-22T13:23:25Z</time>
      </trkpt>
      <trkpt lat="4.63145" lon="-74.073">
        <ele>2568.3</ele>
        <time>2020-06-22T13:23:26Z</time>
      </trkpt>
      <trkpt lat="4.6314" lon="-74.073">
        <ele>2568.3</ele>
        <time>2020-06-22T13:23:28Z</time>
      </trkpt>
      <trkpt lat="4.63133" lon="-74.07301">
        <ele>2568.2</ele>
        <time>2020-06-22T13:23:30Z</time>
      </trkpt>
      <trkpt lat="4.63125" lon="-74.07303">
        <ele>2568.2</ele>
        <time>2020-06-22T13:23:32Z</time>
      </trkpt>
      <trkpt lat="4.63119" lon="-74.07305">
        <ele>2568.2</ele>
        <time>2020-06-22T13:23:34Z</time>
      </trkpt>
      <trkpt lat="4.63117" lon="-74.07307">
        <ele>2568.2</ele>
        <time>2020-06-22T13:23:35Z</time>
      </trkpt>
      <trkpt lat="4.63111" lon="-74.0731">
        <ele>2568.2</ele>
        <time>2020-06-22T13:23:36Z</time>
      </trkpt>
      <trkpt lat="4.63106" lon="-74.07312">
        <ele>2568.2</ele>
        <time>2020-06-22T13:23:38Z</time>
      </trkpt>
      <trkpt lat="4.63103" lon="-74.07313">
        <ele>2568.2</ele>
        <time>2020-06-22T13:23:39Z</time>
      </trkpt>
      <trkpt lat="4.63101" lon="-74.07314">
        <ele>2568.2</ele>
        <time>2020-06-22T13:23:40Z</time>
      </trkpt>
      <trkpt lat="4.63095" lon="-74.07314">
        <ele>2568.2</ele>
        <time>2020-06-22T13:23:42Z</time>
      </trkpt>
      <trkpt lat="4.63089" lon="-74.07315">
        <ele>2568.3</ele>
        <time>2020-06-22T13:23:44Z</time>
      </trkpt>
      <trkpt lat="4.63081" lon="-74.07314">
        <ele>2568.4</ele>
        <time>2020-06-22T13:23:46Z</time>
      </trkpt>
      <trkpt lat="4.63077" lon="-74.07314">
        <ele>2568.4</ele>
        <time>2020-06-22T13:23:47Z</time>
      </trkpt>
      <trkpt lat="4.63076" lon="-74.07314">
        <ele>2568.4</ele>
        <time>2020-06-22T13:23:48Z</time>
      </trkpt>
      <trkpt lat="4.63073" lon="-74.07314">
        <ele>2568.4</ele>
        <time>2020-06-22T13:23:49Z</time>
      </trkpt>
      <trkpt lat="4.63068" lon="-74.07315">
        <ele>2568.5</ele>
        <time>2020-06-22T13:23:51Z</time>
      </trkpt>
      <trkpt lat="4.63063" lon="-74.07316">
        <ele>2568.6</ele>
        <time>2020-06-22T13:23:53Z</time>
      </trkpt>
      <trkpt lat="4.63058" lon="-74.07317">
        <ele>2568.7</ele>
        <time>2020-06-22T13:23:55Z</time>
      </trkpt>
      <trkpt lat="4.63053" lon="-74.07319">
        <ele>2568.8</ele>
        <time>2020-06-22T13:23:56Z</time>
      </trkpt>
      <trkpt lat="4.63048" lon="-74.07321">
        <ele>2568.9</ele>
        <time>2020-06-22T13:23:58Z</time>
      </trkpt>
      <trkpt lat="4.63046" lon="-74.07322">
        <ele>2568.9</ele>
        <time>2020-06-22T13:23:59Z</time>
      </trkpt>
      <trkpt lat="4.63041" lon="-74.07323">
        <ele>2569</ele>
        <time>2020-06-22T13:24:01Z</time>
      </trkpt>
      <trkpt lat="4.63037" lon="-74.07323">
        <ele>2569</ele>
        <time>2020-06-22T13:24:02Z</time>
      </trkpt>
      <trkpt lat="4.63036" lon="-74.07323">
        <ele>2569</ele>
        <time>2020-06-22T13:24:03Z</time>
      </trkpt>
      <trkpt lat="4.63031" lon="-74.07323">
        <ele>2569</ele>
        <time>2020-06-22T13:24:05Z</time>
      </trkpt>
      <trkpt lat="4.63027" lon="-74.07323">
        <ele>2569.1</ele>
        <time>2020-06-22T13:24:06Z</time>
      </trkpt>
      <trkpt lat="4.63023" lon="-74.07323">
        <ele>2569.1</ele>
        <time>2020-06-22T13:24:08Z</time>
      </trkpt>
      <trkpt lat="4.63021" lon="-74.07323">
        <ele>2569.1</ele>
        <time>2020-06-22T13:24:09Z</time>
      </trkpt>
      <trkpt lat="4.63016" lon="-74.07325">
        <ele>2569.1</ele>
        <time>2020-06-22T13:24:11Z</time>
      </trkpt>
      <trkpt lat="4.63012" lon="-74.07326">
        <ele>2569.1</ele>
        <time>2020-06-22T13:24:12Z</time>
      </trkpt>
      <trkpt lat="4.63011" lon="-74.07326">
        <ele>2569.1</ele>
        <time>2020-06-22T13:24:13Z</time>
      </trkpt>
      <trkpt lat="4.63006" lon="-74.07328">
        <ele>2569.1</ele>
        <time>2020-06-22T13:24:15Z</time>
      </trkpt>
      <trkpt lat="4.63002" lon="-74.07329">
        <ele>2569.1</ele>
        <time>2020-06-22T13:24:16Z</time>
      </trkpt>
      <trkpt lat="4.62997" lon="-74.0733">
        <ele>2569.1</ele>
        <time>2020-06-22T13:24:18Z</time>
      </trkpt>
      <trkpt lat="4.62995" lon="-74.0733">
        <ele>2569.1</ele>
        <time>2020-06-22T13:24:19Z</time>
      </trkpt>
      <trkpt lat="4.6299" lon="-74.0733">
        <ele>2569.2</ele>
        <time>2020-06-22T13:24:21Z</time>
      </trkpt>
      <trkpt lat="4.62987" lon="-74.07331">
        <ele>2569.2</ele>
        <time>2020-06-22T13:24:22Z</time>
      </trkpt>
      <trkpt lat="4.62983" lon="-74.07331">
        <ele>2569.2</ele>
        <time>2020-06-22T13:24:24Z</time>
      </trkpt>
      <trkpt lat="4.6298" lon="-74.07331">
        <ele>2569.3</ele>
        <time>2020-06-22T13:24:25Z</time>
      </trkpt>
      <trkpt lat="4.62974" lon="-74.07332">
        <ele>2569.3</ele>
        <time>2020-06-22T13:24:27Z</time>
      </trkpt>
      <trkpt lat="4.6297" lon="-74.07334">
        <ele>2569.4</ele>
        <time>2020-06-22T13:24:28Z</time>
      </trkpt>
      <trkpt lat="4.62969" lon="-74.07334">
        <ele>2569.4</ele>
        <time>2020-06-22T13:24:29Z</time>
      </trkpt>
      <trkpt lat="4.62964" lon="-74.07335">
        <ele>2569.5</ele>
        <time>2020-06-22T13:24:31Z</time>
      </trkpt>
      <trkpt lat="4.6296" lon="-74.07336">
        <ele>2569.5</ele>
        <time>2020-06-22T13:24:33Z</time>
      </trkpt>
      <trkpt lat="4.62955" lon="-74.07336">
        <ele>2569.5</ele>
        <time>2020-06-22T13:24:35Z</time>
      </trkpt>
      <trkpt lat="4.62949" lon="-74.07336">
        <ele>2569.6</ele>
        <time>2020-06-22T13:24:37Z</time>
      </trkpt>
      <trkpt lat="4.62945" lon="-74.07337">
        <ele>2569.6</ele>
        <time>2020-06-22T13:24:39Z</time>
      </trkpt>
      <trkpt lat="4.62942" lon="-74.07338">
        <ele>2569.6</ele>
        <time>2020-06-22T13:24:40Z</time>
      </trkpt>
      <trkpt lat="4.62941" lon="-74.07338">
        <ele>2569.6</ele>
        <time>2020-06-22T13:24:41Z</time>
      </trkpt>
      <trkpt lat="4.62939" lon="-74.07339">
        <ele>2569.7</ele>
        <time>2020-06-22T13:24:42Z</time>
      </trkpt>
      <trkpt lat="4.62934" lon="-74.07341">
        <ele>2569.7</ele>
        <time>2020-06-22T13:24:44Z</time>
      </trkpt>
      <trkpt lat="4.62932" lon="-74.07341">
        <ele>2569.8</ele>
        <time>2020-06-22T13:24:45Z</time>
      </trkpt>
      <trkpt lat="4.62926" lon="-74.07342">
        <ele>2569.8</ele>
        <time>2020-06-22T13:24:47Z</time>
      </trkpt>
      <trkpt lat="4.62922" lon="-74.07344">
        <ele>2569.8</ele>
        <time>2020-06-22T13:24:49Z</time>
      </trkpt>
      <trkpt lat="4.62917" lon="-74.07345">
        <ele>2569.8</ele>
        <time>2020-06-22T13:24:51Z</time>
      </trkpt>
      <trkpt lat="4.62913" lon="-74.07346">
        <ele>2569.8</ele>
        <time>2020-06-22T13:24:52Z</time>
      </trkpt>
      <trkpt lat="4.62911" lon="-74.07347">
        <ele>2569.9</ele>
        <time>2020-06-22T13:24:54Z</time>
      </trkpt>
      <trkpt lat="4.62906" lon="-74.07349">
        <ele>2569.9</ele>
        <time>2020-06-22T13:24:56Z</time>
      </trkpt>
      <trkpt lat="4.62901" lon="-74.0735">
        <ele>2569.9</ele>
        <time>2020-06-22T13:24:58Z</time>
      </trkpt>
      <trkpt lat="4.62898" lon="-74.07351">
        <ele>2569.9</ele>
        <time>2020-06-22T13:24:59Z</time>
      </trkpt>
      <trkpt lat="4.62894" lon="-74.07351">
        <ele>2570</ele>
        <time>2020-06-22T13:25:01Z</time>
      </trkpt>
      <trkpt lat="4.62888" lon="-74.07352">
        <ele>2570.1</ele>
        <time>2020-06-22T13:25:03Z</time>
      </trkpt>
      <trkpt lat="4.62886" lon="-74.07352">
        <ele>2570.1</ele>
        <time>2020-06-22T13:25:04Z</time>
      </trkpt>
      <trkpt lat="4.62879" lon="-74.07353">
        <ele>2570.3</ele>
        <time>2020-06-22T13:25:06Z</time>
      </trkpt>
      <trkpt lat="4.62877" lon="-74.07353">
        <ele>2570.3</ele>
        <time>2020-06-22T13:25:07Z</time>
      </trkpt>
      <trkpt lat="4.62873" lon="-74.07354">
        <ele>2570.4</ele>
        <time>2020-06-22T13:25:09Z</time>
      </trkpt>
      <trkpt lat="4.62871" lon="-74.07355">
        <ele>2570.5</ele>
        <time>2020-06-22T13:25:10Z</time>
      </trkpt>
      <trkpt lat="4.62867" lon="-74.07355">
        <ele>2570.6</ele>
        <time>2020-06-22T13:25:12Z</time>
      </trkpt>
      <trkpt lat="4.62862" lon="-74.07356">
        <ele>2570.7</ele>
        <time>2020-06-22T13:25:14Z</time>
      </trkpt>
      <trkpt lat="4.6286" lon="-74.07356">
        <ele>2570.7</ele>
        <time>2020-06-22T13:25:15Z</time>
      </trkpt>
      <trkpt lat="4.62854" lon="-74.07357">
        <ele>2570.8</ele>
        <time>2020-06-22T13:25:17Z</time>
      </trkpt>
      <trkpt lat="4.62849" lon="-74.07358">
        <ele>2570.9</ele>
        <time>2020-06-22T13:25:18Z</time>
      </trkpt>
      <trkpt lat="4.62845" lon="-74.07359">
        <ele>2571</ele>
        <time>2020-06-22T13:25:20Z</time>
      </trkpt>
      <trkpt lat="4.62842" lon="-74.0736">
        <ele>2571</ele>
        <time>2020-06-22T13:25:21Z</time>
      </trkpt>
      <trkpt lat="4.62839" lon="-74.0736">
        <ele>2571.1</ele>
        <time>2020-06-22T13:25:22Z</time>
      </trkpt>
      <trkpt lat="4.62833" lon="-74.07363">
        <ele>2571.2</ele>
        <time>2020-06-22T13:25:24Z</time>
      </trkpt>
      <trkpt lat="4.6283" lon="-74.07363">
        <ele>2571.2</ele>
        <time>2020-06-22T13:25:25Z</time>
      </trkpt>
      <trkpt lat="4.62826" lon="-74.07364">
        <ele>2571.3</ele>
        <time>2020-06-22T13:25:27Z</time>
      </trkpt>
      <trkpt lat="4.62823" lon="-74.07364">
        <ele>2571.3</ele>
        <time>2020-06-22T13:25:28Z</time>
      </trkpt>
      <trkpt lat="4.6282" lon="-74.07365">
        <ele>2571.4</ele>
        <time>2020-06-22T13:25:30Z</time>
      </trkpt>
      <trkpt lat="4.62816" lon="-74.07365">
        <ele>2571.5</ele>
        <time>2020-06-22T13:25:31Z</time>
      </trkpt>
      <trkpt lat="4.62811" lon="-74.07366">
        <ele>2571.5</ele>
        <time>2020-06-22T13:25:33Z</time>
      </trkpt>
      <trkpt lat="4.62806" lon="-74.07367">
        <ele>2571.6</ele>
        <time>2020-06-22T13:25:36Z</time>
      </trkpt>
      <trkpt lat="4.62802" lon="-74.07368">
        <ele>2571.7</ele>
        <time>2020-06-22T13:25:37Z</time>
      </trkpt>
      <trkpt lat="4.62797" lon="-74.07369">
        <ele>2571.8</ele>
        <time>2020-06-22T13:25:39Z</time>
      </trkpt>
      <trkpt lat="4.62795" lon="-74.07369">
        <ele>2571.8</ele>
        <time>2020-06-22T13:25:40Z</time>
      </trkpt>
      <trkpt lat="4.62791" lon="-74.0737">
        <ele>2571.9</ele>
        <time>2020-06-22T13:25:42Z</time>
      </trkpt>
      <trkpt lat="4.62787" lon="-74.07371">
        <ele>2572</ele>
        <time>2020-06-22T13:25:44Z</time>
      </trkpt>
      <trkpt lat="4.62783" lon="-74.07371">
        <ele>2572.1</ele>
        <time>2020-06-22T13:25:45Z</time>
      </trkpt>
      <trkpt lat="4.62778" lon="-74.07372">
        <ele>2572.3</ele>
        <time>2020-06-22T13:25:47Z</time>
      </trkpt>
      <trkpt lat="4.62772" lon="-74.07373">
        <ele>2572.4</ele>
        <time>2020-06-22T13:25:49Z</time>
      </trkpt>
      <trkpt lat="4.62768" lon="-74.07374">
        <ele>2572.5</ele>
        <time>2020-06-22T13:25:51Z</time>
      </trkpt>
      <trkpt lat="4.62765" lon="-74.07374">
        <ele>2572.5</ele>
        <time>2020-06-22T13:25:53Z</time>
      </trkpt>
      <trkpt lat="4.62762" lon="-74.07372">
        <ele>2572.6</ele>
        <time>2020-06-22T13:25:55Z</time>
      </trkpt>
      <trkpt lat="4.62759" lon="-74.07368">
        <ele>2572.7</ele>
        <time>2020-06-22T13:25:57Z</time>
      </trkpt>
      <trkpt lat="4.62757" lon="-74.07364">
        <ele>2572.7</ele>
        <time>2020-06-22T13:25:59Z</time>
      </trkpt>
      <trkpt lat="4.62755" lon="-74.07359">
        <ele>2572.7</ele>
        <time>2020-06-22T13:26:01Z</time>
      </trkpt>
      <trkpt lat="4.62755" lon="-74.07357">
        <ele>2572.7</ele>
        <time>2020-06-22T13:26:02Z</time>
      </trkpt>
      <trkpt lat="4.62754" lon="-74.07353">
        <ele>2572.7</ele>
        <time>2020-06-22T13:26:04Z</time>
      </trkpt>
      <trkpt lat="4.62754" lon="-74.07351">
        <ele>2572.7</ele>
        <time>2020-06-22T13:26:05Z</time>
      </trkpt>
      <trkpt lat="4.62753" lon="-74.07347">
        <ele>2572.7</ele>
        <time>2020-06-22T13:26:07Z</time>
      </trkpt>
      <trkpt lat="4.62753" lon="-74.07345">
        <ele>2572.7</ele>
        <time>2020-06-22T13:26:08Z</time>
      </trkpt>
      <trkpt lat="4.62752" lon="-74.0734">
        <ele>2572.7</ele>
        <time>2020-06-22T13:26:10Z</time>
      </trkpt>
      <trkpt lat="4.62752" lon="-74.07336">
        <ele>2572.7</ele>
        <time>2020-06-22T13:26:12Z</time>
      </trkpt>
      <trkpt lat="4.62751" lon="-74.07334">
        <ele>2572.7</ele>
        <time>2020-06-22T13:26:13Z</time>
      </trkpt>
      <trkpt lat="4.62751" lon="-74.0733">
        <ele>2572.7</ele>
        <time>2020-06-22T13:26:15Z</time>
      </trkpt>
      <trkpt lat="4.62751" lon="-74.07327">
        <ele>2572.7</ele>
        <time>2020-06-22T13:26:16Z</time>
      </trkpt>
      <trkpt lat="4.62751" lon="-74.07326">
        <ele>2572.7</ele>
        <time>2020-06-22T13:26:17Z</time>
      </trkpt>
      <trkpt lat="4.62751" lon="-74.07321">
        <ele>2572.7</ele>
        <time>2020-06-22T13:26:19Z</time>
      </trkpt>
      <trkpt lat="4.6275" lon="-74.07317">
        <ele>2572.7</ele>
        <time>2020-06-22T13:26:21Z</time>
      </trkpt>
      <trkpt lat="4.6275" lon="-74.07314">
        <ele>2572.7</ele>
        <time>2020-06-22T13:26:22Z</time>
      </trkpt>
      <trkpt lat="4.6275" lon="-74.07313">
        <ele>2572.7</ele>
        <time>2020-06-22T13:26:23Z</time>
      </trkpt>
      <trkpt lat="4.6275" lon="-74.07309">
        <ele>2572.7</ele>
        <time>2020-06-22T13:26:25Z</time>
      </trkpt>
      <trkpt lat="4.62752" lon="-74.07305">
        <ele>2572.6</ele>
        <time>2020-06-22T13:26:27Z</time>
      </trkpt>
      <trkpt lat="4.62757" lon="-74.07303">
        <ele>2572.2</ele>
        <time>2020-06-22T13:26:29Z</time>
      </trkpt>
      <trkpt lat="4.62763" lon="-74.07301">
        <ele>2572</ele>
        <time>2020-06-22T13:26:31Z</time>
      </trkpt>
      <trkpt lat="4.62766" lon="-74.07301">
        <ele>2571.9</ele>
        <time>2020-06-22T13:26:32Z</time>
      </trkpt>
      <trkpt lat="4.62771" lon="-74.07299">
        <ele>2571.7</ele>
        <time>2020-06-22T13:26:34Z</time>
      </trkpt>
      <trkpt lat="4.62776" lon="-74.07298">
        <ele>2571.5</ele>
        <time>2020-06-22T13:26:36Z</time>
      </trkpt>
      <trkpt lat="4.62781" lon="-74.07297">
        <ele>2571.4</ele>
        <time>2020-06-22T13:26:38Z</time>
      </trkpt>
      <trkpt lat="4.62783" lon="-74.07297">
        <ele>2571.3</ele>
        <time>2020-06-22T13:26:39Z</time>
      </trkpt>
      <trkpt lat="4.62789" lon="-74.07296">
        <ele>2571.2</ele>
        <time>2020-06-22T13:26:41Z</time>
      </trkpt>
      <trkpt lat="4.62791" lon="-74.07296">
        <ele>2571.2</ele>
        <time>2020-06-22T13:26:42Z</time>
      </trkpt>
      <trkpt lat="4.62796" lon="-74.07295">
        <ele>2571.2</ele>
        <time>2020-06-22T13:26:44Z</time>
      </trkpt>
      <trkpt lat="4.62801" lon="-74.07294">
        <ele>2571.1</ele>
        <time>2020-06-22T13:26:46Z</time>
      </trkpt>
      <trkpt lat="4.62805" lon="-74.07293">
        <ele>2571.1</ele>
        <time>2020-06-22T13:26:48Z</time>
      </trkpt>
      <trkpt lat="4.62809" lon="-74.07292">
        <ele>2571</ele>
        <time>2020-06-22T13:26:50Z</time>
      </trkpt>
      <trkpt lat="4.62814" lon="-74.07292">
        <ele>2571</ele>
        <time>2020-06-22T13:26:52Z</time>
      </trkpt>
      <trkpt lat="4.62819" lon="-74.07292">
        <ele>2570.9</ele>
        <time>2020-06-22T13:26:54Z</time>
      </trkpt>
      <trkpt lat="4.62822" lon="-74.07291">
        <ele>2570.8</ele>
        <time>2020-06-22T13:26:55Z</time>
      </trkpt>
      <trkpt lat="4.62824" lon="-74.0729">
        <ele>2570.8</ele>
        <time>2020-06-22T13:26:56Z</time>
      </trkpt>
      <trkpt lat="4.62826" lon="-74.0729">
        <ele>2570.8</ele>
        <time>2020-06-22T13:26:57Z</time>
      </trkpt>
      <trkpt lat="4.62831" lon="-74.07289">
        <ele>2570.7</ele>
        <time>2020-06-22T13:26:59Z</time>
      </trkpt>
      <trkpt lat="4.62835" lon="-74.07288">
        <ele>2570.7</ele>
        <time>2020-06-22T13:27:01Z</time>
      </trkpt>
      <trkpt lat="4.62839" lon="-74.07287">
        <ele>2570.6</ele>
        <time>2020-06-22T13:27:02Z</time>
      </trkpt>
      <trkpt lat="4.6284" lon="-74.07287">
        <ele>2570.6</ele>
        <time>2020-06-22T13:27:03Z</time>
      </trkpt>
      <trkpt lat="4.62844" lon="-74.07287">
        <ele>2570.5</ele>
        <time>2020-06-22T13:27:05Z</time>
      </trkpt>
      <trkpt lat="4.62848" lon="-74.07286">
        <ele>2570.5</ele>
        <time>2020-06-22T13:27:07Z</time>
      </trkpt>
      <trkpt lat="4.62853" lon="-74.07286">
        <ele>2570.5</ele>
        <time>2020-06-22T13:27:09Z</time>
      </trkpt>
      <trkpt lat="4.62858" lon="-74.07285">
        <ele>2570.5</ele>
        <time>2020-06-22T13:27:11Z</time>
      </trkpt>
      <trkpt lat="4.62863" lon="-74.07283">
        <ele>2570.4</ele>
        <time>2020-06-22T13:27:13Z</time>
      </trkpt>
      <trkpt lat="4.62866" lon="-74.07283">
        <ele>2570.4</ele>
        <time>2020-06-22T13:27:14Z</time>
      </trkpt>
      <trkpt lat="4.62871" lon="-74.07282">
        <ele>2570.4</ele>
        <time>2020-06-22T13:27:16Z</time>
      </trkpt>
      <trkpt lat="4.62876" lon="-74.07281">
        <ele>2570.4</ele>
        <time>2020-06-22T13:27:18Z</time>
      </trkpt>
      <trkpt lat="4.62881" lon="-74.0728">
        <ele>2570.3</ele>
        <time>2020-06-22T13:27:20Z</time>
      </trkpt>
      <trkpt lat="4.62886" lon="-74.07279">
        <ele>2570.3</ele>
        <time>2020-06-22T13:27:22Z</time>
      </trkpt>
      <trkpt lat="4.62891" lon="-74.07278">
        <ele>2570.3</ele>
        <time>2020-06-22T13:27:24Z</time>
      </trkpt>
      <trkpt lat="4.62894" lon="-74.07277">
        <ele>2570.2</ele>
        <time>2020-06-22T13:27:25Z</time>
      </trkpt>
      <trkpt lat="4.62895" lon="-74.07276">
        <ele>2570.2</ele>
        <time>2020-06-22T13:27:26Z</time>
      </trkpt>
      <trkpt lat="4.629" lon="-74.07276">
        <ele>2570.2</ele>
        <time>2020-06-22T13:27:28Z</time>
      </trkpt>
      <trkpt lat="4.62905" lon="-74.07275">
        <ele>2570.2</ele>
        <time>2020-06-22T13:27:30Z</time>
      </trkpt>
      <trkpt lat="4.6291" lon="-74.07275">
        <ele>2570.2</ele>
        <time>2020-06-22T13:27:32Z</time>
      </trkpt>
      <trkpt lat="4.62912" lon="-74.07274">
        <ele>2570.2</ele>
        <time>2020-06-22T13:27:33Z</time>
      </trkpt>
      <trkpt lat="4.62916" lon="-74.07273">
        <ele>2570.2</ele>
        <time>2020-06-22T13:27:35Z</time>
      </trkpt>
      <trkpt lat="4.62921" lon="-74.07273">
        <ele>2570.2</ele>
        <time>2020-06-22T13:27:37Z</time>
      </trkpt>
      <trkpt lat="4.62927" lon="-74.07272">
        <ele>2570.1</ele>
        <time>2020-06-22T13:27:39Z</time>
      </trkpt>
      <trkpt lat="4.62932" lon="-74.07272">
        <ele>2570.1</ele>
        <time>2020-06-22T13:27:41Z</time>
      </trkpt>
      <trkpt lat="4.62938" lon="-74.0727">
        <ele>2570.1</ele>
        <time>2020-06-22T13:27:43Z</time>
      </trkpt>
      <trkpt lat="4.62943" lon="-74.07269">
        <ele>2570</ele>
        <time>2020-06-22T13:27:45Z</time>
      </trkpt>
      <trkpt lat="4.62949" lon="-74.07267">
        <ele>2570</ele>
        <time>2020-06-22T13:27:47Z</time>
      </trkpt>
      <trkpt lat="4.62951" lon="-74.07266">
        <ele>2570</ele>
        <time>2020-06-22T13:27:48Z</time>
      </trkpt>
      <trkpt lat="4.62956" lon="-74.07264">
        <ele>2570</ele>
        <time>2020-06-22T13:27:50Z</time>
      </trkpt>
      <trkpt lat="4.62958" lon="-74.07263">
        <ele>2570</ele>
        <time>2020-06-22T13:27:51Z</time>
      </trkpt>
      <trkpt lat="4.62962" lon="-74.07263">
        <ele>2570.1</ele>
        <time>2020-06-22T13:27:53Z</time>
      </trkpt>
      <trkpt lat="4.62967" lon="-74.07262">
        <ele>2570.1</ele>
        <time>2020-06-22T13:27:55Z</time>
      </trkpt>
      <trkpt lat="4.62971" lon="-74.07261">
        <ele>2570.1</ele>
        <time>2020-06-22T13:27:57Z</time>
      </trkpt>
      <trkpt lat="4.62973" lon="-74.0726">
        <ele>2570.1</ele>
        <time>2020-06-22T13:27:58Z</time>
      </trkpt>
      <trkpt lat="4.62978" lon="-74.0726">
        <ele>2570.1</ele>
        <time>2020-06-22T13:28:00Z</time>
      </trkpt>
      <trkpt lat="4.62983" lon="-74.07259">
        <ele>2570.1</ele>
        <time>2020-06-22T13:28:02Z</time>
      </trkpt>
      <trkpt lat="4.62988" lon="-74.07259">
        <ele>2570.1</ele>
        <time>2020-06-22T13:28:04Z</time>
      </trkpt>
      <trkpt lat="4.62993" lon="-74.07259">
        <ele>2570.1</ele>
        <time>2020-06-22T13:28:06Z</time>
      </trkpt>
      <trkpt lat="4.62998" lon="-74.07258">
        <ele>2570.1</ele>
        <time>2020-06-22T13:28:08Z</time>
      </trkpt>
      <trkpt lat="4.63003" lon="-74.07257">
        <ele>2570.1</ele>
        <time>2020-06-22T13:28:10Z</time>
      </trkpt>
      <trkpt lat="4.63005" lon="-74.07257">
        <ele>2570</ele>
        <time>2020-06-22T13:28:11Z</time>
      </trkpt>
      <trkpt lat="4.6301" lon="-74.07257">
        <ele>2570</ele>
        <time>2020-06-22T13:28:13Z</time>
      </trkpt>
      <trkpt lat="4.63015" lon="-74.07256">
        <ele>2570</ele>
        <time>2020-06-22T13:28:15Z</time>
      </trkpt>
      <trkpt lat="4.63019" lon="-74.07255">
        <ele>2570</ele>
        <time>2020-06-22T13:28:17Z</time>
      </trkpt>
      <trkpt lat="4.63024" lon="-74.07254">
        <ele>2570</ele>
        <time>2020-06-22T13:28:19Z</time>
      </trkpt>
      <trkpt lat="4.63026" lon="-74.07254">
        <ele>2570</ele>
        <time>2020-06-22T13:28:20Z</time>
      </trkpt>
      <trkpt lat="4.6303" lon="-74.07254">
        <ele>2570</ele>
        <time>2020-06-22T13:28:22Z</time>
      </trkpt>
      <trkpt lat="4.63032" lon="-74.07254">
        <ele>2570</ele>
        <time>2020-06-22T13:28:23Z</time>
      </trkpt>
      <trkpt lat="4.63036" lon="-74.07254">
        <ele>2569.9</ele>
        <time>2020-06-22T13:28:25Z</time>
      </trkpt>
      <trkpt lat="4.6304" lon="-74.07253">
        <ele>2569.9</ele>
        <time>2020-06-22T13:28:27Z</time>
      </trkpt>
      <trkpt lat="4.63045" lon="-74.07252">
        <ele>2569.9</ele>
        <time>2020-06-22T13:28:29Z</time>
      </trkpt>
      <trkpt lat="4.63049" lon="-74.07251">
        <ele>2569.9</ele>
        <time>2020-06-22T13:28:31Z</time>
      </trkpt>
      <trkpt lat="4.63054" lon="-74.07249">
        <ele>2569.9</ele>
        <time>2020-06-22T13:28:33Z</time>
      </trkpt>
      <trkpt lat="4.63056" lon="-74.07248">
        <ele>2569.9</ele>
        <time>2020-06-22T13:28:34Z</time>
      </trkpt>
      <trkpt lat="4.63061" lon="-74.07248">
        <ele>2569.9</ele>
        <time>2020-06-22T13:28:36Z</time>
      </trkpt>
      <trkpt lat="4.63065" lon="-74.07248">
        <ele>2569.9</ele>
        <time>2020-06-22T13:28:38Z</time>
      </trkpt>
      <trkpt lat="4.63069" lon="-74.07247">
        <ele>2569.9</ele>
        <time>2020-06-22T13:28:40Z</time>
      </trkpt>
      <trkpt lat="4.63072" lon="-74.07247">
        <ele>2569.9</ele>
        <time>2020-06-22T13:28:41Z</time>
      </trkpt>
      <trkpt lat="4.63076" lon="-74.07246">
        <ele>2570</ele>
        <time>2020-06-22T13:28:43Z</time>
      </trkpt>
      <trkpt lat="4.63079" lon="-74.07246">
        <ele>2570</ele>
        <time>2020-06-22T13:28:44Z</time>
      </trkpt>
      <trkpt lat="4.63082" lon="-74.07245">
        <ele>2570</ele>
        <time>2020-06-22T13:28:46Z</time>
      </trkpt>
      <trkpt lat="4.63086" lon="-74.07244">
        <ele>2570</ele>
        <time>2020-06-22T13:28:48Z</time>
      </trkpt>
      <trkpt lat="4.6309" lon="-74.07243">
        <ele>2570</ele>
        <time>2020-06-22T13:28:50Z</time>
      </trkpt>
      <trkpt lat="4.63092" lon="-74.07243">
        <ele>2570</ele>
        <time>2020-06-22T13:28:51Z</time>
      </trkpt>
      <trkpt lat="4.63097" lon="-74.07242">
        <ele>2570</ele>
        <time>2020-06-22T13:28:53Z</time>
      </trkpt>
      <trkpt lat="4.631" lon="-74.07242">
        <ele>2570</ele>
        <time>2020-06-22T13:28:55Z</time>
      </trkpt>
      <trkpt lat="4.63104" lon="-74.07241">
        <ele>2570</ele>
        <time>2020-06-22T13:28:57Z</time>
      </trkpt>
      <trkpt lat="4.63107" lon="-74.07241">
        <ele>2570.1</ele>
        <time>2020-06-22T13:28:59Z</time>
      </trkpt>
      <trkpt lat="4.63108" lon="-74.07241">
        <ele>2570.1</ele>
        <time>2020-06-22T13:29:00Z</time>
      </trkpt>
      <trkpt lat="4.6311" lon="-74.07241">
        <ele>2570.1</ele>
        <time>2020-06-22T13:29:02Z</time>
      </trkpt>
      <trkpt lat="4.63111" lon="-74.0724">
        <ele>2570.1</ele>
        <time>2020-06-22T13:29:03Z</time>
      </trkpt>
      <trkpt lat="4.63115" lon="-74.0724">
        <ele>2570.1</ele>
        <time>2020-06-22T13:29:05Z</time>
      </trkpt>
      <trkpt lat="4.63117" lon="-74.07239">
        <ele>2570.2</ele>
        <time>2020-06-22T13:29:07Z</time>
      </trkpt>
      <trkpt lat="4.63119" lon="-74.07239">
        <ele>2570.1</ele>
        <time>2020-06-22T13:29:09Z</time>
      </trkpt>
      <trkpt lat="4.6312" lon="-74.07239">
        <ele>2570.1</ele>
        <time>2020-06-22T13:29:10Z</time>
      </trkpt>
      <trkpt lat="4.63121" lon="-74.07239">
        <ele>2570.1</ele>
        <time>2020-06-22T13:29:11Z</time>
      </trkpt>
      <trkpt lat="4.63122" lon="-74.07239">
        <ele>2570</ele>
        <time>2020-06-22T13:29:13Z</time>
      </trkpt>
      <trkpt lat="4.63124" lon="-74.07238">
        <ele>2570</ele>
        <time>2020-06-22T13:33:12Z</time>
      </trkpt>
      <trkpt lat="4.63122" lon="-74.07239">
        <ele>2570</ele>
        <time>2020-06-22T13:33:13Z</time>
      </trkpt>
      <trkpt lat="4.63122" lon="-74.07237">
        <ele>2570</ele>
        <time>2020-06-22T13:33:15Z</time>
      </trkpt>
      <trkpt lat="4.63122" lon="-74.07236">
        <ele>2570</ele>
        <time>2020-06-22T13:33:16Z</time>
      </trkpt>
      <trkpt lat="4.63119" lon="-74.07233">
        <ele>2570</ele>
        <time>2020-06-22T13:33:18Z</time>
      </trkpt>
      <trkpt lat="4.63115" lon="-74.0723">
        <ele>2570.4</ele>
        <time>2020-06-22T13:33:20Z</time>
      </trkpt>
      <trkpt lat="4.63112" lon="-74.07228">
        <ele>2570.4</ele>
        <time>2020-06-22T13:33:21Z</time>
      </trkpt>
      <trkpt lat="4.63111" lon="-74.07225">
        <ele>2570.4</ele>
        <time>2020-06-22T13:33:22Z</time>
      </trkpt>
      <trkpt lat="4.63107" lon="-74.0722">
        <ele>2570.4</ele>
        <time>2020-06-22T13:33:24Z</time>
      </trkpt>
      <trkpt lat="4.63105" lon="-74.07217">
        <ele>2570.5</ele>
        <time>2020-06-22T13:33:25Z</time>
      </trkpt>
      <trkpt lat="4.631" lon="-74.07212">
        <ele>2570.5</ele>
        <time>2020-06-22T13:33:27Z</time>
      </trkpt>
      <trkpt lat="4.63098" lon="-74.07209">
        <ele>2570.6</ele>
        <time>2020-06-22T13:33:28Z</time>
      </trkpt>
      <trkpt lat="4.63094" lon="-74.07204">
        <ele>2570.6</ele>
        <time>2020-06-22T13:33:30Z</time>
      </trkpt>
      <trkpt lat="4.63092" lon="-74.07201">
        <ele>2570.7</ele>
        <time>2020-06-22T13:33:31Z</time>
      </trkpt>
      <trkpt lat="4.63087" lon="-74.07195">
        <ele>2570.8</ele>
        <time>2020-06-22T13:33:33Z</time>
      </trkpt>
      <trkpt lat="4.63085" lon="-74.07193">
        <ele>2570.8</ele>
        <time>2020-06-22T13:33:34Z</time>
      </trkpt>
      <trkpt lat="4.63081" lon="-74.07188">
        <ele>2570.9</ele>
        <time>2020-06-22T13:33:36Z</time>
      </trkpt>
      <trkpt lat="4.63078" lon="-74.07186">
        <ele>2570.9</ele>
        <time>2020-06-22T13:33:37Z</time>
      </trkpt>
      <trkpt lat="4.63076" lon="-74.07183">
        <ele>2571</ele>
        <time>2020-06-22T13:33:38Z</time>
      </trkpt>
      <trkpt lat="4.63074" lon="-74.07181">
        <ele>2571</ele>
        <time>2020-06-22T13:33:39Z</time>
      </trkpt>
      <trkpt lat="4.6307" lon="-74.07176">
        <ele>2571.2</ele>
        <time>2020-06-22T13:33:41Z</time>
      </trkpt>
      <trkpt lat="4.63066" lon="-74.07172">
        <ele>2571.2</ele>
        <time>2020-06-22T13:33:43Z</time>
      </trkpt>
      <trkpt lat="4.63064" lon="-74.0717">
        <ele>2571.3</ele>
        <time>2020-06-22T13:33:44Z</time>
      </trkpt>
      <trkpt lat="4.63061" lon="-74.07168">
        <ele>2571.3</ele>
        <time>2020-06-22T13:33:45Z</time>
      </trkpt>
      <trkpt lat="4.63059" lon="-74.07165">
        <ele>2571.4</ele>
        <time>2020-06-22T13:33:46Z</time>
      </trkpt>
      <trkpt lat="4.63057" lon="-74.07163">
        <ele>2571.5</ele>
        <time>2020-06-22T13:33:47Z</time>
      </trkpt>
      <trkpt lat="4.63056" lon="-74.07161">
        <ele>2571.5</ele>
        <time>2020-06-22T13:33:48Z</time>
      </trkpt>
      <trkpt lat="4.63054" lon="-74.07159">
        <ele>2571.6</ele>
        <time>2020-06-22T13:33:49Z</time>
      </trkpt>
      <trkpt lat="4.63049" lon="-74.07154">
        <ele>2571.7</ele>
        <time>2020-06-22T13:33:51Z</time>
      </trkpt>
      <trkpt lat="4.63047" lon="-74.07152">
        <ele>2571.8</ele>
        <time>2020-06-22T13:33:52Z</time>
      </trkpt>
      <trkpt lat="4.6304" lon="-74.07142">
        <ele>2572.1</ele>
        <time>2020-06-22T13:33:54Z</time>
      </trkpt>
      <trkpt lat="4.63035" lon="-74.07137">
        <ele>2572.3</ele>
        <time>2020-06-22T13:33:56Z</time>
      </trkpt>
      <trkpt lat="4.63033" lon="-74.07134">
        <ele>2572.4</ele>
        <time>2020-06-22T13:33:57Z</time>
      </trkpt>
      <trkpt lat="4.6303" lon="-74.0713">
        <ele>2572.5</ele>
        <time>2020-06-22T13:33:58Z</time>
      </trkpt>
      <trkpt lat="4.63026" lon="-74.07129">
        <ele>2572.6</ele>
        <time>2020-06-22T13:34:00Z</time>
      </trkpt>
      <trkpt lat="4.63024" lon="-74.07128">
        <ele>2572.6</ele>
        <time>2020-06-22T13:34:01Z</time>
      </trkpt>
      <trkpt lat="4.63021" lon="-74.07127">
        <ele>2572.7</ele>
        <time>2020-06-22T13:34:03Z</time>
      </trkpt>
      <trkpt lat="4.63018" lon="-74.07125">
        <ele>2572.8</ele>
        <time>2020-06-22T13:34:04Z</time>
      </trkpt>
      <trkpt lat="4.63016" lon="-74.07124">
        <ele>2572.8</ele>
        <time>2020-06-22T13:34:05Z</time>
      </trkpt>
      <trkpt lat="4.63013" lon="-74.07121">
        <ele>2572.9</ele>
        <time>2020-06-22T13:34:07Z</time>
      </trkpt>
      <trkpt lat="4.63008" lon="-74.07115">
        <ele>2573</ele>
        <time>2020-06-22T13:34:09Z</time>
      </trkpt>
      <trkpt lat="4.63004" lon="-74.07109">
        <ele>2573.1</ele>
        <time>2020-06-22T13:34:11Z</time>
      </trkpt>
      <trkpt lat="4.63002" lon="-74.07106">
        <ele>2573.1</ele>
        <time>2020-06-22T13:34:12Z</time>
      </trkpt>
      <trkpt lat="4.62998" lon="-74.071">
        <ele>2573.2</ele>
        <time>2020-06-22T13:34:14Z</time>
      </trkpt>
      <trkpt lat="4.62996" lon="-74.07098">
        <ele>2573.2</ele>
        <time>2020-06-22T13:34:15Z</time>
      </trkpt>
      <trkpt lat="4.62994" lon="-74.07095">
        <ele>2573.2</ele>
        <time>2020-06-22T13:34:16Z</time>
      </trkpt>
      <trkpt lat="4.62989" lon="-74.07089">
        <ele>2573.3</ele>
        <time>2020-06-22T13:34:18Z</time>
      </trkpt>
      <trkpt lat="4.62986" lon="-74.07086">
        <ele>2573.3</ele>
        <time>2020-06-22T13:34:19Z</time>
      </trkpt>
      <trkpt lat="4.62981" lon="-74.07081">
        <ele>2573.4</ele>
        <time>2020-06-22T13:34:21Z</time>
      </trkpt>
      <trkpt lat="4.62979" lon="-74.07079">
        <ele>2573.4</ele>
        <time>2020-06-22T13:34:22Z</time>
      </trkpt>
      <trkpt lat="4.62975" lon="-74.07074">
        <ele>2573.5</ele>
        <time>2020-06-22T13:34:24Z</time>
      </trkpt>
      <trkpt lat="4.62973" lon="-74.07072">
        <ele>2573.5</ele>
        <time>2020-06-22T13:34:25Z</time>
      </trkpt>
      <trkpt lat="4.62972" lon="-74.0707">
        <ele>2573.6</ele>
        <time>2020-06-22T13:34:26Z</time>
      </trkpt>
      <trkpt lat="4.6297" lon="-74.07073">
        <ele>2573.6</ele>
        <time>2020-06-22T13:34:28Z</time>
      </trkpt>
      <trkpt lat="4.62969" lon="-74.07071">
        <ele>2573.7</ele>
        <time>2020-06-22T13:34:29Z</time>
      </trkpt>
      <trkpt lat="4.62967" lon="-74.07069">
        <ele>2573.7</ele>
        <time>2020-06-22T13:34:30Z</time>
      </trkpt>
      <trkpt lat="4.62964" lon="-74.07067">
        <ele>2573.8</ele>
        <time>2020-06-22T13:34:32Z</time>
      </trkpt>
      <trkpt lat="4.62959" lon="-74.07061">
        <ele>2574</ele>
        <time>2020-06-22T13:34:33Z</time>
      </trkpt>
      <trkpt lat="4.62956" lon="-74.07057">
        <ele>2574.1</ele>
        <time>2020-06-22T13:34:34Z</time>
      </trkpt>
      <trkpt lat="4.62951" lon="-74.07051">
        <ele>2574.3</ele>
        <time>2020-06-22T13:34:36Z</time>
      </trkpt>
      <trkpt lat="4.62947" lon="-74.07047">
        <ele>2574.5</ele>
        <time>2020-06-22T13:34:38Z</time>
      </trkpt>
      <trkpt lat="4.62943" lon="-74.07042">
        <ele>2574.6</ele>
        <time>2020-06-22T13:34:40Z</time>
      </trkpt>
      <trkpt lat="4.62941" lon="-74.0704">
        <ele>2574.7</ele>
        <time>2020-06-22T13:34:41Z</time>
      </trkpt>
      <trkpt lat="4.62938" lon="-74.07034">
        <ele>2574.8</ele>
        <time>2020-06-22T13:34:43Z</time>
      </trkpt>
      <trkpt lat="4.62934" lon="-74.07026">
        <ele>2574.8</ele>
        <time>2020-06-22T13:34:44Z</time>
      </trkpt>
      <trkpt lat="4.62932" lon="-74.07023">
        <ele>2574.8</ele>
        <time>2020-06-22T13:34:45Z</time>
      </trkpt>
      <trkpt lat="4.62927" lon="-74.07013">
        <ele>2574.9</ele>
        <time>2020-06-22T13:34:47Z</time>
      </trkpt>
      <trkpt lat="4.62922" lon="-74.07008">
        <ele>2574.9</ele>
        <time>2020-06-22T13:34:49Z</time>
      </trkpt>
      <trkpt lat="4.62918" lon="-74.07003">
        <ele>2574.9</ele>
        <time>2020-06-22T13:34:51Z</time>
      </trkpt>
      <trkpt lat="4.62916" lon="-74.07001">
        <ele>2574.9</ele>
        <time>2020-06-22T13:34:52Z</time>
      </trkpt>
      <trkpt lat="4.62913" lon="-74.06997">
        <ele>2575</ele>
        <time>2020-06-22T13:34:54Z</time>
      </trkpt>
      <trkpt lat="4.62911" lon="-74.06994">
        <ele>2575</ele>
        <time>2020-06-22T13:34:55Z</time>
      </trkpt>
      <trkpt lat="4.62908" lon="-74.06992">
        <ele>2575</ele>
        <time>2020-06-22T13:34:56Z</time>
      </trkpt>
      <trkpt lat="4.62903" lon="-74.06988">
        <ele>2575.1</ele>
        <time>2020-06-22T13:34:58Z</time>
      </trkpt>
      <trkpt lat="4.629" lon="-74.06984">
        <ele>2575.2</ele>
        <time>2020-06-22T13:35:00Z</time>
      </trkpt>
      <trkpt lat="4.62898" lon="-74.06982">
        <ele>2575.2</ele>
        <time>2020-06-22T13:35:01Z</time>
      </trkpt>
      <trkpt lat="4.62895" lon="-74.0698">
        <ele>2575.3</ele>
        <time>2020-06-22T13:35:03Z</time>
      </trkpt>
      <trkpt lat="4.62891" lon="-74.06978">
        <ele>2575.4</ele>
        <time>2020-06-22T13:35:04Z</time>
      </trkpt>
      <trkpt lat="4.62886" lon="-74.06976">
        <ele>2575.5</ele>
        <time>2020-06-22T13:35:06Z</time>
      </trkpt>
      <trkpt lat="4.6288" lon="-74.06972">
        <ele>2575.6</ele>
        <time>2020-06-22T13:35:08Z</time>
      </trkpt>
      <trkpt lat="4.62878" lon="-74.0697">
        <ele>2575.6</ele>
        <time>2020-06-22T13:35:10Z</time>
      </trkpt>
      <trkpt lat="4.62876" lon="-74.06969">
        <ele>2575.6</ele>
        <time>2020-06-22T13:35:11Z</time>
      </trkpt>
      <trkpt lat="4.62875" lon="-74.06964">
        <ele>2575.7</ele>
        <time>2020-06-22T13:35:13Z</time>
      </trkpt>
      <trkpt lat="4.62872" lon="-74.06957">
        <ele>2575.8</ele>
        <time>2020-06-22T13:35:14Z</time>
      </trkpt>
      <trkpt lat="4.62869" lon="-74.06951">
        <ele>2576</ele>
        <time>2020-06-22T13:35:16Z</time>
      </trkpt>
      <trkpt lat="4.62866" lon="-74.06945">
        <ele>2576.2</ele>
        <time>2020-06-22T13:35:18Z</time>
      </trkpt>
      <trkpt lat="4.62863" lon="-74.0694">
        <ele>2576.4</ele>
        <time>2020-06-22T13:35:20Z</time>
      </trkpt>
      <trkpt lat="4.62859" lon="-74.06934">
        <ele>2576.6</ele>
        <time>2020-06-22T13:35:22Z</time>
      </trkpt>
      <trkpt lat="4.62856" lon="-74.06929">
        <ele>2576.8</ele>
        <time>2020-06-22T13:35:24Z</time>
      </trkpt>
      <trkpt lat="4.62854" lon="-74.06927">
        <ele>2576.9</ele>
        <time>2020-06-22T13:35:25Z</time>
      </trkpt>
      <trkpt lat="4.62851" lon="-74.06923">
        <ele>2577</ele>
        <time>2020-06-22T13:35:27Z</time>
      </trkpt>
      <trkpt lat="4.62848" lon="-74.06918">
        <ele>2577.2</ele>
        <time>2020-06-22T13:35:29Z</time>
      </trkpt>
      <trkpt lat="4.62846" lon="-74.06916">
        <ele>2577.3</ele>
        <time>2020-06-22T13:35:30Z</time>
      </trkpt>
      <trkpt lat="4.62844" lon="-74.06913">
        <ele>2577.5</ele>
        <time>2020-06-22T13:35:31Z</time>
      </trkpt>
      <trkpt lat="4.62842" lon="-74.06911">
        <ele>2577.6</ele>
        <time>2020-06-22T13:35:32Z</time>
      </trkpt>
      <trkpt lat="4.62839" lon="-74.06906">
        <ele>2577.8</ele>
        <time>2020-06-22T13:35:34Z</time>
      </trkpt>
      <trkpt lat="4.62835" lon="-74.069">
        <ele>2578</ele>
        <time>2020-06-22T13:35:36Z</time>
      </trkpt>
      <trkpt lat="4.62834" lon="-74.06898">
        <ele>2578.1</ele>
        <time>2020-06-22T13:35:37Z</time>
      </trkpt>
      <trkpt lat="4.62831" lon="-74.06894">
        <ele>2578.3</ele>
        <time>2020-06-22T13:35:39Z</time>
      </trkpt>
      <trkpt lat="4.62828" lon="-74.0689">
        <ele>2578.6</ele>
        <time>2020-06-22T13:35:41Z</time>
      </trkpt>
      <trkpt lat="4.62826" lon="-74.06887">
        <ele>2578.7</ele>
        <time>2020-06-22T13:35:42Z</time>
      </trkpt>
      <trkpt lat="4.62825" lon="-74.06886">
        <ele>2578.8</ele>
        <time>2020-06-22T13:35:43Z</time>
      </trkpt>
      <trkpt lat="4.62821" lon="-74.06881">
        <ele>2579.1</ele>
        <time>2020-06-22T13:35:45Z</time>
      </trkpt>
      <trkpt lat="4.62818" lon="-74.06878">
        <ele>2579.2</ele>
        <time>2020-06-22T13:35:46Z</time>
      </trkpt>
      <trkpt lat="4.62814" lon="-74.06874">
        <ele>2579.4</ele>
        <time>2020-06-22T13:35:48Z</time>
      </trkpt>
      <trkpt lat="4.62811" lon="-74.06871">
        <ele>2579.6</ele>
        <time>2020-06-22T13:35:50Z</time>
      </trkpt>
      <trkpt lat="4.62809" lon="-74.06869">
        <ele>2579.7</ele>
        <time>2020-06-22T13:35:51Z</time>
      </trkpt>
      <trkpt lat="4.62806" lon="-74.06866">
        <ele>2579.8</ele>
        <time>2020-06-22T13:35:53Z</time>
      </trkpt>
      <trkpt lat="4.62804" lon="-74.06864">
        <ele>2579.8</ele>
        <time>2020-06-22T13:35:54Z</time>
      </trkpt>
      <trkpt lat="4.628" lon="-74.06859">
        <ele>2580</ele>
        <time>2020-06-22T13:35:56Z</time>
      </trkpt>
      <trkpt lat="4.62798" lon="-74.06857">
        <ele>2580</ele>
        <time>2020-06-22T13:35:57Z</time>
      </trkpt>
      <trkpt lat="4.62794" lon="-74.06852">
        <ele>2580.4</ele>
        <time>2020-06-22T13:35:59Z</time>
      </trkpt>
      <trkpt lat="4.6279" lon="-74.06848">
        <ele>2580.4</ele>
        <time>2020-06-22T13:36:01Z</time>
      </trkpt>
      <trkpt lat="4.62788" lon="-74.06846">
        <ele>2580.4</ele>
        <time>2020-06-22T13:36:02Z</time>
      </trkpt>
      <trkpt lat="4.62786" lon="-74.06844">
        <ele>2580.5</ele>
        <time>2020-06-22T13:36:03Z</time>
      </trkpt>
      <trkpt lat="4.62782" lon="-74.06839">
        <ele>2580.7</ele>
        <time>2020-06-22T13:36:05Z</time>
      </trkpt>
      <trkpt lat="4.62779" lon="-74.06835">
        <ele>2580.8</ele>
        <time>2020-06-22T13:36:07Z</time>
      </trkpt>
      <trkpt lat="4.62777" lon="-74.06833">
        <ele>2580.9</ele>
        <time>2020-06-22T13:36:08Z</time>
      </trkpt>
      <trkpt lat="4.62774" lon="-74.06829">
        <ele>2581</ele>
        <time>2020-06-22T13:36:10Z</time>
      </trkpt>
      <trkpt lat="4.62772" lon="-74.06827">
        <ele>2581.1</ele>
        <time>2020-06-22T13:36:11Z</time>
      </trkpt>
      <trkpt lat="4.62769" lon="-74.06822">
        <ele>2581.2</ele>
        <time>2020-06-22T13:36:13Z</time>
      </trkpt>
      <trkpt lat="4.62767" lon="-74.06819">
        <ele>2581.3</ele>
        <time>2020-06-22T13:36:14Z</time>
      </trkpt>
      <trkpt lat="4.62766" lon="-74.06818">
        <ele>2581.3</ele>
        <time>2020-06-22T13:36:15Z</time>
      </trkpt>
      <trkpt lat="4.62764" lon="-74.06813">
        <ele>2581.4</ele>
        <time>2020-06-22T13:36:17Z</time>
      </trkpt>
      <trkpt lat="4.62763" lon="-74.06811">
        <ele>2581.5</ele>
        <time>2020-06-22T13:36:18Z</time>
      </trkpt>
      <trkpt lat="4.62761" lon="-74.06806">
        <ele>2581.6</ele>
        <time>2020-06-22T13:36:20Z</time>
      </trkpt>
      <trkpt lat="4.6276" lon="-74.06801">
        <ele>2581.7</ele>
        <time>2020-06-22T13:36:22Z</time>
      </trkpt>
      <trkpt lat="4.62759" lon="-74.06799">
        <ele>2581.7</ele>
        <time>2020-06-22T13:36:23Z</time>
      </trkpt>
      <trkpt lat="4.62758" lon="-74.06794">
        <ele>2581.9</ele>
        <time>2020-06-22T13:36:25Z</time>
      </trkpt>
      <trkpt lat="4.62759" lon="-74.0679">
        <ele>2582</ele>
        <time>2020-06-22T13:36:26Z</time>
      </trkpt>
      <trkpt lat="4.62758" lon="-74.06785">
        <ele>2582.1</ele>
        <time>2020-06-22T13:36:28Z</time>
      </trkpt>
      <trkpt lat="4.62756" lon="-74.06781">
        <ele>2582.3</ele>
        <time>2020-06-22T13:36:30Z</time>
      </trkpt>
      <trkpt lat="4.62752" lon="-74.06778">
        <ele>2582.4</ele>
        <time>2020-06-22T13:36:31Z</time>
      </trkpt>
      <trkpt lat="4.62746" lon="-74.06776">
        <ele>2582.6</ele>
        <time>2020-06-22T13:36:33Z</time>
      </trkpt>
      <trkpt lat="4.62744" lon="-74.06774">
        <ele>2582.7</ele>
        <time>2020-06-22T13:36:34Z</time>
      </trkpt>
      <trkpt lat="4.62741" lon="-74.06766">
        <ele>2583</ele>
        <time>2020-06-22T13:36:36Z</time>
      </trkpt>
      <trkpt lat="4.62741" lon="-74.06763">
        <ele>2583.1</ele>
        <time>2020-06-22T13:36:37Z</time>
      </trkpt>
      <trkpt lat="4.62741" lon="-74.06762">
        <ele>2583.2</ele>
        <time>2020-06-22T13:36:38Z</time>
      </trkpt>
      <trkpt lat="4.62741" lon="-74.06758">
        <ele>2583.3</ele>
        <time>2020-06-22T13:36:39Z</time>
      </trkpt>
      <trkpt lat="4.62742" lon="-74.06757">
        <ele>2583.3</ele>
        <time>2020-06-22T13:36:40Z</time>
      </trkpt>
      <trkpt lat="4.62742" lon="-74.06752">
        <ele>2583.5</ele>
        <time>2020-06-22T13:36:42Z</time>
      </trkpt>
      <trkpt lat="4.62742" lon="-74.06746">
        <ele>2583.7</ele>
        <time>2020-06-22T13:36:43Z</time>
      </trkpt>
      <trkpt lat="4.62743" lon="-74.06741">
        <ele>2583.9</ele>
        <time>2020-06-22T13:36:45Z</time>
      </trkpt>
      <trkpt lat="4.6274" lon="-74.06734">
        <ele>2584.1</ele>
        <time>2020-06-22T13:36:47Z</time>
      </trkpt>
      <trkpt lat="4.62745" lon="-74.06737">
        <ele>2583.9</ele>
        <time>2020-06-22T13:36:49Z</time>
      </trkpt>
      <trkpt lat="4.62747" lon="-74.06739">
        <ele>2583.9</ele>
        <time>2020-06-22T13:36:50Z</time>
      </trkpt>
      <trkpt lat="4.62749" lon="-74.06741">
        <ele>2583.9</ele>
        <time>2020-06-22T13:36:51Z</time>
      </trkpt>
      <trkpt lat="4.62755" lon="-74.06747">
        <ele>2583.7</ele>
        <time>2020-06-22T13:36:53Z</time>
      </trkpt>
      <trkpt lat="4.62761" lon="-74.06753">
        <ele>2583.6</ele>
        <time>2020-06-22T13:36:55Z</time>
      </trkpt>
      <trkpt lat="4.62768" lon="-74.06753">
        <ele>2583.4</ele>
        <time>2020-06-22T13:36:56Z</time>
      </trkpt>
      <trkpt lat="4.62775" lon="-74.06753">
        <ele>2583.3</ele>
        <time>2020-06-22T13:36:58Z</time>
      </trkpt>
      <trkpt lat="4.62781" lon="-74.06753">
        <ele>2583.2</ele>
        <time>2020-06-22T13:37:00Z</time>
      </trkpt>
      <trkpt lat="4.62784" lon="-74.06752">
        <ele>2583.2</ele>
        <time>2020-06-22T13:37:01Z</time>
      </trkpt>
      <trkpt lat="4.62795" lon="-74.06741">
        <ele>2582.7</ele>
        <time>2020-06-22T13:37:03Z</time>
      </trkpt>
      <trkpt lat="4.62798" lon="-74.0674">
        <ele>2583.7</ele>
        <time>2020-06-22T13:37:04Z</time>
      </trkpt>
      <trkpt lat="4.62801" lon="-74.06737">
        <ele>2583.9</ele>
        <time>2020-06-22T13:37:06Z</time>
      </trkpt>
      <trkpt lat="4.62804" lon="-74.06734">
        <ele>2584.1</ele>
        <time>2020-06-22T13:37:08Z</time>
      </trkpt>
      <trkpt lat="4.62804" lon="-74.06733">
        <ele>2584.1</ele>
        <time>2020-06-22T13:37:09Z</time>
      </trkpt>
      <trkpt lat="4.62805" lon="-74.06732">
        <ele>2584.2</ele>
        <time>2020-06-22T13:37:10Z</time>
      </trkpt>
      <trkpt lat="4.62806" lon="-74.06729">
        <ele>2584.3</ele>
        <time>2020-06-22T13:37:12Z</time>
      </trkpt>
      <trkpt lat="4.62807" lon="-74.06726">
        <ele>2584.4</ele>
        <time>2020-06-22T13:37:15Z</time>
      </trkpt>
      <trkpt lat="4.62807" lon="-74.06724">
        <ele>2584.5</ele>
        <time>2020-06-22T13:37:16Z</time>
      </trkpt>
      <trkpt lat="4.62802" lon="-74.06724">
        <ele>2584.7</ele>
        <time>2020-06-22T13:37:18Z</time>
      </trkpt>
      <trkpt lat="4.62807" lon="-74.06721">
        <ele>2584.9</ele>
        <time>2020-06-22T13:37:19Z</time>
      </trkpt>
      <trkpt lat="4.62811" lon="-74.06718">
        <ele>2585.2</ele>
        <time>2020-06-22T13:37:21Z</time>
      </trkpt>
      <trkpt lat="4.62816" lon="-74.06715">
        <ele>2585.5</ele>
        <time>2020-06-22T13:37:22Z</time>
      </trkpt>
      <trkpt lat="4.62824" lon="-74.06709">
        <ele>2585.2</ele>
        <time>2020-06-22T13:37:24Z</time>
      </trkpt>
      <trkpt lat="4.62829" lon="-74.06705">
        <ele>2585.1</ele>
        <time>2020-06-22T13:37:26Z</time>
      </trkpt>
      <trkpt lat="4.62832" lon="-74.06706">
        <ele>2585</ele>
        <time>2020-06-22T13:37:28Z</time>
      </trkpt>
      <trkpt lat="4.62832" lon="-74.06707">
        <ele>2585</ele>
        <time>2020-06-22T13:37:30Z</time>
      </trkpt>
      <trkpt lat="4.62832" lon="-74.06707">
        <ele>2585</ele>
        <time>2020-06-22T13:37:32Z</time>
      </trkpt>
      <trkpt lat="4.62837" lon="-74.06703">
        <ele>2584.9</ele>
        <time>2020-06-22T13:37:34Z</time>
      </trkpt>
      <trkpt lat="4.62839" lon="-74.06701">
        <ele>2584.8</ele>
        <time>2020-06-22T13:37:36Z</time>
      </trkpt>
      <trkpt lat="4.62842" lon="-74.06699">
        <ele>2584.7</ele>
        <time>2020-06-22T13:37:37Z</time>
      </trkpt>
      <trkpt lat="4.62845" lon="-74.06696">
        <ele>2584.6</ele>
        <time>2020-06-22T13:37:39Z</time>
      </trkpt>
      <trkpt lat="4.62847" lon="-74.06695">
        <ele>2584.6</ele>
        <time>2020-06-22T13:37:40Z</time>
      </trkpt>
      <trkpt lat="4.62851" lon="-74.06695">
        <ele>2584.5</ele>
        <time>2020-06-22T13:37:42Z</time>
      </trkpt>
      <trkpt lat="4.62862" lon="-74.06694">
        <ele>2584.2</ele>
        <time>2020-06-22T13:37:44Z</time>
      </trkpt>
      <trkpt lat="4.62869" lon="-74.06693">
        <ele>2584</ele>
        <time>2020-06-22T13:37:46Z</time>
      </trkpt>
      <trkpt lat="4.62877" lon="-74.06691">
        <ele>2583.9</ele>
        <time>2020-06-22T13:37:48Z</time>
      </trkpt>
      <trkpt lat="4.62881" lon="-74.06688">
        <ele>2583.8</ele>
        <time>2020-06-22T13:37:50Z</time>
      </trkpt>
      <trkpt lat="4.62885" lon="-74.06686">
        <ele>2583.7</ele>
        <time>2020-06-22T13:37:52Z</time>
      </trkpt>
      <trkpt lat="4.62889" lon="-74.06684">
        <ele>2583.5</ele>
        <time>2020-06-22T13:37:54Z</time>
      </trkpt>
      <trkpt lat="4.62891" lon="-74.06681">
        <ele>2583.5</ele>
        <time>2020-06-22T13:37:55Z</time>
      </trkpt>
      <trkpt lat="4.62892" lon="-74.06678">
        <ele>2583.5</ele>
        <time>2020-06-22T13:37:56Z</time>
      </trkpt>
      <trkpt lat="4.62891" lon="-74.06677">
        <ele>2584</ele>
        <time>2020-06-22T13:37:58Z</time>
      </trkpt>
      <trkpt lat="4.62891" lon="-74.06674">
        <ele>2584</ele>
        <time>2020-06-22T13:38:00Z</time>
      </trkpt>
      <trkpt lat="4.6289" lon="-74.0667">
        <ele>2584.1</ele>
        <time>2020-06-22T13:38:02Z</time>
      </trkpt>
      <trkpt lat="4.6289" lon="-74.06668">
        <ele>2584.2</ele>
        <time>2020-06-22T13:38:03Z</time>
      </trkpt>
      <trkpt lat="4.62892" lon="-74.06652">
        <ele>2584.7</ele>
        <time>2020-06-22T13:38:06Z</time>
      </trkpt>
      <trkpt lat="4.62893" lon="-74.06648">
        <ele>2584.8</ele>
        <time>2020-06-22T13:38:08Z</time>
      </trkpt>
      <trkpt lat="4.62893" lon="-74.06647">
        <ele>2584.8</ele>
        <time>2020-06-22T13:38:09Z</time>
      </trkpt>
      <trkpt lat="4.62892" lon="-74.06642">
        <ele>2585</ele>
        <time>2020-06-22T13:38:10Z</time>
      </trkpt>
      <trkpt lat="4.6289" lon="-74.06635">
        <ele>2585.2</ele>
        <time>2020-06-22T13:38:13Z</time>
      </trkpt>
      <trkpt lat="4.62889" lon="-74.06631">
        <ele>2585.4</ele>
        <time>2020-06-22T13:38:14Z</time>
      </trkpt>
      <trkpt lat="4.62888" lon="-74.06628">
        <ele>2585.5</ele>
        <time>2020-06-22T13:38:15Z</time>
      </trkpt>
      <trkpt lat="4.62887" lon="-74.06624">
        <ele>2585.7</ele>
        <time>2020-06-22T13:38:17Z</time>
      </trkpt>
      <trkpt lat="4.62886" lon="-74.0662">
        <ele>2585.9</ele>
        <time>2020-06-22T13:38:19Z</time>
      </trkpt>
      <trkpt lat="4.62885" lon="-74.06617">
        <ele>2586.1</ele>
        <time>2020-06-22T13:38:21Z</time>
      </trkpt>
      <trkpt lat="4.62884" lon="-74.06612">
        <ele>2586.3</ele>
        <time>2020-06-22T13:38:22Z</time>
      </trkpt>
      <trkpt lat="4.62883" lon="-74.06608">
        <ele>2586.6</ele>
        <time>2020-06-22T13:38:24Z</time>
      </trkpt>
      <trkpt lat="4.62883" lon="-74.06606">
        <ele>2586.6</ele>
        <time>2020-06-22T13:38:25Z</time>
      </trkpt>
      <trkpt lat="4.62883" lon="-74.06605">
        <ele>2586.7</ele>
        <time>2020-06-22T13:38:26Z</time>
      </trkpt>
      <trkpt lat="4.62885" lon="-74.06603">
        <ele>2586.8</ele>
        <time>2020-06-22T13:38:28Z</time>
      </trkpt>
      <trkpt lat="4.62888" lon="-74.06601">
        <ele>2587</ele>
        <time>2020-06-22T13:38:29Z</time>
      </trkpt>
      <trkpt lat="4.62891" lon="-74.06597">
        <ele>2587.3</ele>
        <time>2020-06-22T13:38:31Z</time>
      </trkpt>
      <trkpt lat="4.62892" lon="-74.06595">
        <ele>2587.1</ele>
        <time>2020-06-22T13:38:32Z</time>
      </trkpt>
      <trkpt lat="4.62896" lon="-74.06592">
        <ele>2586.8</ele>
        <time>2020-06-22T13:38:34Z</time>
      </trkpt>
      <trkpt lat="4.62903" lon="-74.06588">
        <ele>2586.2</ele>
        <time>2020-06-22T13:38:36Z</time>
      </trkpt>
      <trkpt lat="4.62908" lon="-74.06586">
        <ele>2585.8</ele>
        <time>2020-06-22T13:38:38Z</time>
      </trkpt>
      <trkpt lat="4.62907" lon="-74.06583">
        <ele>2585.6</ele>
        <time>2020-06-22T13:38:39Z</time>
      </trkpt>
      <trkpt lat="4.6291" lon="-74.06582">
        <ele>2585.3</ele>
        <time>2020-06-22T13:38:41Z</time>
      </trkpt>
      <trkpt lat="4.62912" lon="-74.06581">
        <ele>2585.2</ele>
        <time>2020-06-22T13:38:43Z</time>
      </trkpt>
      <trkpt lat="4.62913" lon="-74.06581">
        <ele>2585.1</ele>
        <time>2020-06-22T13:38:44Z</time>
      </trkpt>
      <trkpt lat="4.62921" lon="-74.0658">
        <ele>2584.5</ele>
        <time>2020-06-22T13:38:45Z</time>
      </trkpt>
      <trkpt lat="4.62928" lon="-74.06581">
        <ele>2584</ele>
        <time>2020-06-22T13:38:46Z</time>
      </trkpt>
      <trkpt lat="4.6293" lon="-74.0658">
        <ele>2583.3</ele>
        <time>2020-06-22T13:38:47Z</time>
      </trkpt>
      <trkpt lat="4.62939" lon="-74.06584">
        <ele>2584.6</ele>
        <time>2020-06-22T13:38:49Z</time>
      </trkpt>
      <trkpt lat="4.62938" lon="-74.06582">
        <ele>2585</ele>
        <time>2020-06-22T13:38:51Z</time>
      </trkpt>
      <trkpt lat="4.62938" lon="-74.0658">
        <ele>2585.3</ele>
        <time>2020-06-22T13:38:53Z</time>
      </trkpt>
      <trkpt lat="4.62938" lon="-74.06576">
        <ele>2585.7</ele>
        <time>2020-06-22T13:38:54Z</time>
      </trkpt>
      <trkpt lat="4.62938" lon="-74.06574">
        <ele>2585.9</ele>
        <time>2020-06-22T13:38:55Z</time>
      </trkpt>
      <trkpt lat="4.62939" lon="-74.06566">
        <ele>2587</ele>
        <time>2020-06-22T13:38:57Z</time>
      </trkpt>
      <trkpt lat="4.62943" lon="-74.06559">
        <ele>2587.8</ele>
        <time>2020-06-22T13:38:59Z</time>
      </trkpt>
      <trkpt lat="4.62946" lon="-74.06556">
        <ele>2589.9</ele>
        <time>2020-06-22T13:39:00Z</time>
      </trkpt>
      <trkpt lat="4.62948" lon="-74.06554">
        <ele>2590.1</ele>
        <time>2020-06-22T13:39:01Z</time>
      </trkpt>
      <trkpt lat="4.6295" lon="-74.06552">
        <ele>2590.3</ele>
        <time>2020-06-22T13:39:02Z</time>
      </trkpt>
      <trkpt lat="4.62946" lon="-74.06548">
        <ele>2590.6</ele>
        <time>2020-06-22T13:39:04Z</time>
      </trkpt>
      <trkpt lat="4.62946" lon="-74.06548">
        <ele>2590.7</ele>
        <time>2020-06-22T13:39:06Z</time>
      </trkpt>
      <trkpt lat="4.62947" lon="-74.06548">
        <ele>2590.7</ele>
        <time>2020-06-22T13:39:07Z</time>
      </trkpt>
      <trkpt lat="4.62953" lon="-74.06548">
        <ele>2591</ele>
        <time>2020-06-22T13:39:09Z</time>
      </trkpt>
      <trkpt lat="4.62957" lon="-74.06549">
        <ele>2591.4</ele>
        <time>2020-06-22T13:39:10Z</time>
      </trkpt>
      <trkpt lat="4.62959" lon="-74.0655">
        <ele>2591.4</ele>
        <time>2020-06-22T13:39:11Z</time>
      </trkpt>
      <trkpt lat="4.6296" lon="-74.0655">
        <ele>2591.4</ele>
        <time>2020-06-22T13:39:13Z</time>
      </trkpt>
      <trkpt lat="4.62975" lon="-74.06555">
        <ele>2591.1</ele>
        <time>2020-06-22T12:45:29Z</time>
      </trkpt>
      <trkpt lat="4.62975" lon="-74.06555">
        <ele>2591.1</ele>
        <time>2020-06-22T12:45:29Z</time>
      </trkpt>
      <trkpt lat="4.62961" lon="-74.06551">
        <ele>2591.5</ele>
        <time>2020-06-22T12:45:39Z</time>
      </trkpt>
      <trkpt lat="4.62959" lon="-74.06536">
        <ele>2592.4</ele>
        <time>2020-06-22T12:45:49Z</time>
      </trkpt>
      <trkpt lat="4.62953" lon="-74.06522">
        <ele>2593.3</ele>
        <time>2020-06-22T12:45:59Z</time>
      </trkpt>
      <trkpt lat="4.62958" lon="-74.06483">
        <ele>2596.3</ele>
        <time>2020-06-22T12:46:08Z</time>
      </trkpt>
      <trkpt lat="4.62928" lon="-74.06496">
        <ele>2595.7</ele>
        <time>2020-06-22T12:46:19Z</time>
      </trkpt>
      <trkpt lat="4.62893" lon="-74.065">
        <ele>2594.9</ele>
        <time>2020-06-22T12:46:29Z</time>
      </trkpt>
      <trkpt lat="4.62871" lon="-74.06525">
        <ele>2594.2</ele>
        <time>2020-06-22T12:46:39Z</time>
      </trkpt>
      <trkpt lat="4.62849" lon="-74.0652">
        <ele>2593.9</ele>
        <time>2020-06-22T12:46:49Z</time>
      </trkpt>
      <trkpt lat="4.62834" lon="-74.06517">
        <ele>2593.6</ele>
        <time>2020-06-22T12:46:59Z</time>
      </trkpt>
      <trkpt lat="4.62805" lon="-74.06529">
        <ele>2593.1</ele>
        <time>2020-06-22T12:47:09Z</time>
      </trkpt>
      <trkpt lat="4.62801" lon="-74.06528">
        <ele>2593.1</ele>
        <time>2020-06-22T12:47:19Z</time>
      </trkpt>
      <trkpt lat="4.62792" lon="-74.06529">
        <ele>2592.9</ele>
        <time>2020-06-22T12:47:29Z</time>
      </trkpt>
      <trkpt lat="4.62742" lon="-74.06552">
        <ele>2592.2</ele>
        <time>2020-06-22T12:47:39Z</time>
      </trkpt>
      <trkpt lat="4.62738" lon="-74.06552">
        <ele>2592.2</ele>
        <time>2020-06-22T12:47:48Z</time>
      </trkpt>
      <trkpt lat="4.62714" lon="-74.06585">
        <ele>2589.7</ele>
        <time>2020-06-22T12:47:54Z</time>
      </trkpt>
      <trkpt lat="4.62688" lon="-74.0658">
        <ele>2589.3</ele>
        <time>2020-06-22T12:48:05Z</time>
      </trkpt>
      <trkpt lat="4.62668" lon="-74.0657">
        <ele>2589.3</ele>
        <time>2020-06-22T12:48:15Z</time>
      </trkpt>
      <trkpt lat="4.62605" lon="-74.06587">
      </trkpt>
      <trkpt lat="4.62572" lon="-74.06529">
      </trkpt>
      <trkpt lat="4.62395" lon="-74.06407">
      </trkpt>
      <trkpt lat="4.62398" lon="-74.0641">
        <ele>2602.1</ele>
        <time>2020-06-22T12:50:59Z</time>
      </trkpt>
      <trkpt lat="4.62398" lon="-74.0641">
        <ele>2602.1</ele>
        <time>2020-06-22T12:50:59Z</time>
      </trkpt>
      <trkpt lat="4.62397" lon="-74.0641">
        <ele>2602.1</ele>
        <time>2020-06-22T12:51:01Z</time>
      </trkpt>
      <trkpt lat="4.62396" lon="-74.06409">
        <ele>2602</ele>
        <time>2020-06-22T12:51:02Z</time>
      </trkpt>
      <trkpt lat="4.62393" lon="-74.06408">
        <ele>2601.8</ele>
        <time>2020-06-22T12:51:04Z</time>
      </trkpt>
      <trkpt lat="4.62389" lon="-74.06406">
        <ele>2601.8</ele>
        <time>2020-06-22T12:51:06Z</time>
      </trkpt>
      <trkpt lat="4.62381" lon="-74.06404">
        <ele>2601.6</ele>
        <time>2020-06-22T12:51:08Z</time>
      </trkpt>
      <trkpt lat="4.62377" lon="-74.06402">
        <ele>2602.1</ele>
        <time>2020-06-22T12:51:10Z</time>
      </trkpt>
      <trkpt lat="4.62376" lon="-74.06401">
        <ele>2602.1</ele>
        <time>2020-06-22T12:51:11Z</time>
      </trkpt>
      <trkpt lat="4.62374" lon="-74.064">
        <ele>2602.1</ele>
        <time>2020-06-22T12:51:12Z</time>
      </trkpt>
      <trkpt lat="4.6237" lon="-74.06397">
        <ele>2602.8</ele>
        <time>2020-06-22T12:51:14Z</time>
      </trkpt>
      <trkpt lat="4.62369" lon="-74.06395">
        <ele>2603.1</ele>
        <time>2020-06-22T12:51:15Z</time>
      </trkpt>
      <trkpt lat="4.62364" lon="-74.06391">
        <ele>2603.8</ele>
        <time>2020-06-22T12:51:17Z</time>
      </trkpt>
      <trkpt lat="4.62361" lon="-74.06387">
        <ele>2604.3</ele>
        <time>2020-06-22T12:51:18Z</time>
      </trkpt>
      <trkpt lat="4.62358" lon="-74.06384">
        <ele>2605.1</ele>
        <time>2020-06-22T12:51:20Z</time>
      </trkpt>
      <trkpt lat="4.62354" lon="-74.06382">
        <ele>2605.5</ele>
        <time>2020-06-22T12:51:22Z</time>
      </trkpt>
      <trkpt lat="4.6235" lon="-74.06381">
        <ele>2605.5</ele>
        <time>2020-06-22T12:51:24Z</time>
      </trkpt>
      <trkpt lat="4.62346" lon="-74.0638">
        <ele>2605.5</ele>
        <time>2020-06-22T12:51:26Z</time>
      </trkpt>
      <trkpt lat="4.62342" lon="-74.0638">
        <ele>2605.5</ele>
        <time>2020-06-22T12:51:27Z</time>
      </trkpt>
      <trkpt lat="4.62339" lon="-74.06381">
        <ele>2605.5</ele>
        <time>2020-06-22T12:51:30Z</time>
      </trkpt>
      <trkpt lat="4.62338" lon="-74.06381">
        <ele>2605.5</ele>
        <time>2020-06-22T12:51:32Z</time>
      </trkpt>
      <trkpt lat="4.62336" lon="-74.06383">
        <ele>2605.5</ele>
        <time>2020-06-22T12:51:37Z</time>
      </trkpt>
      <trkpt lat="4.62331" lon="-74.06386">
        <ele>2605.5</ele>
        <time>2020-06-22T12:51:40Z</time>
      </trkpt>
      <trkpt lat="4.62356" lon="-74.06381">
        <ele>2605.5</ele>
        <time>2020-06-22T12:51:46Z</time>
      </trkpt>
      <trkpt lat="4.62362" lon="-74.06379">
        <ele>2605.2</ele>
        <time>2020-06-22T12:51:47Z</time>
      </trkpt>
      <trkpt lat="4.62364" lon="-74.06379">
        <ele>2605.2</ele>
        <time>2020-06-22T12:51:48Z</time>
      </trkpt>
      <trkpt lat="4.62367" lon="-74.06379">
        <ele>2605.2</ele>
        <time>2020-06-22T12:51:50Z</time>
      </trkpt>
      <trkpt lat="4.6237" lon="-74.06378">
        <ele>2605.2</ele>
        <time>2020-06-22T12:51:52Z</time>
      </trkpt>
      <trkpt lat="4.62371" lon="-74.06372">
        <ele>2605.2</ele>
        <time>2020-06-22T12:51:57Z</time>
      </trkpt>
      <trkpt lat="4.62366" lon="-74.06367">
        <ele>2606.5</ele>
        <time>2020-06-22T12:51:59Z</time>
      </trkpt>
      <trkpt lat="4.62363" lon="-74.06366">
        <ele>2607.2</ele>
        <time>2020-06-22T12:52:01Z</time>
      </trkpt>
      <trkpt lat="4.62358" lon="-74.06368">
        <ele>2608.3</ele>
        <time>2020-06-22T12:52:02Z</time>
      </trkpt>
      <trkpt lat="4.62354" lon="-74.06369">
        <ele>2609.2</ele>
        <time>2020-06-22T12:52:04Z</time>
      </trkpt>
      <trkpt lat="4.62352" lon="-74.06368">
        <ele>2609.6</ele>
        <time>2020-06-22T12:52:05Z</time>
      </trkpt>
      <trkpt lat="4.62346" lon="-74.06367">
        <ele>2610.6</ele>
        <time>2020-06-22T12:52:07Z</time>
      </trkpt>
      <trkpt lat="4.62341" lon="-74.06366">
        <ele>2611.6</ele>
        <time>2020-06-22T12:52:09Z</time>
      </trkpt>
      <trkpt lat="4.6234" lon="-74.06365">
        <ele>2611.9</ele>
        <time>2020-06-22T12:52:11Z</time>
      </trkpt>
      <trkpt lat="4.62338" lon="-74.06365">
        <ele>2612.2</ele>
        <time>2020-06-22T12:52:12Z</time>
      </trkpt>
      <trkpt lat="4.62337" lon="-74.0636">
        <ele>2613.1</ele>
        <time>2020-06-22T12:52:14Z</time>
      </trkpt>
      <trkpt lat="4.62336" lon="-74.06356">
        <ele>2613.8</ele>
        <time>2020-06-22T12:52:16Z</time>
      </trkpt>
      <trkpt lat="4.62336" lon="-74.06353">
        <ele>2614.4</ele>
        <time>2020-06-22T12:52:17Z</time>
      </trkpt>
      <trkpt lat="4.62336" lon="-74.06348">
        <ele>2615.2</ele>
        <time>2020-06-22T12:52:19Z</time>
      </trkpt>
      <trkpt lat="4.62336" lon="-74.06346">
        <ele>2615.6</ele>
        <time>2020-06-22T12:52:20Z</time>
      </trkpt>
      <trkpt lat="4.62335" lon="-74.06342">
        <ele>2616.2</ele>
        <time>2020-06-22T12:52:22Z</time>
      </trkpt>
      <trkpt lat="4.62333" lon="-74.06337">
        <ele>2616.9</ele>
        <time>2020-06-22T12:52:24Z</time>
      </trkpt>
      <trkpt lat="4.62329" lon="-74.0633">
        <ele>2610.9</ele>
        <time>2020-06-22T12:52:28Z</time>
      </trkpt>
      <trkpt lat="4.62326" lon="-74.06327">
        <ele>2612.4</ele>
        <time>2020-06-22T12:52:31Z</time>
      </trkpt>
      <trkpt lat="4.62324" lon="-74.06323">
        <ele>2614</ele>
        <time>2020-06-22T12:52:33Z</time>
      </trkpt>
      <trkpt lat="4.62322" lon="-74.0632">
        <ele>2615.8</ele>
        <time>2020-06-22T12:52:34Z</time>
      </trkpt>
      <trkpt lat="4.6232" lon="-74.06313">
        <ele>2616.5</ele>
        <time>2020-06-22T12:52:38Z</time>
      </trkpt>
      <trkpt lat="4.62322" lon="-74.0631">
        <ele>2616.9</ele>
        <time>2020-06-22T12:52:39Z</time>
      </trkpt>
      <trkpt lat="4.62324" lon="-74.06311">
        <ele>2617.1</ele>
        <time>2020-06-22T12:52:41Z</time>
      </trkpt>
      <trkpt lat="4.62325" lon="-74.0631">
        <ele>2617.2</ele>
        <time>2020-06-22T12:52:42Z</time>
      </trkpt>
      <trkpt lat="4.62324" lon="-74.06306">
        <ele>2617.7</ele>
        <time>2020-06-22T12:52:44Z</time>
      </trkpt>
      <trkpt lat="4.62322" lon="-74.06302">
        <ele>2618.3</ele>
        <time>2020-06-22T12:52:46Z</time>
      </trkpt>
      <trkpt lat="4.62322" lon="-74.063">
        <ele>2618.6</ele>
        <time>2020-06-22T12:52:47Z</time>
      </trkpt>
      <trkpt lat="4.62322" lon="-74.06299">
        <ele>2618.8</ele>
        <time>2020-06-22T12:52:52Z</time>
      </trkpt>
      <trkpt lat="4.62322" lon="-74.06296">
        <ele>2619.2</ele>
        <time>2020-06-22T12:52:53Z</time>
      </trkpt>
      <trkpt lat="4.62322" lon="-74.06284">
        <ele>2621</ele>
        <time>2020-06-22T12:52:58Z</time>
      </trkpt>
      <trkpt lat="4.62322" lon="-74.06283">
        <ele>2621.2</ele>
        <time>2020-06-22T12:52:59Z</time>
      </trkpt>
      <trkpt lat="4.62326" lon="-74.06281">
        <ele>2622</ele>
        <time>2020-06-22T12:53:02Z</time>
      </trkpt>
      <trkpt lat="4.62328" lon="-74.06272">
        <ele>2623.4</ele>
        <time>2020-06-22T12:53:07Z</time>
      </trkpt>
      <trkpt lat="4.62328" lon="-74.06262">
        <ele>2624.8</ele>
        <time>2020-06-22T12:53:12Z</time>
      </trkpt>
      <trkpt lat="4.62318" lon="-74.0626">
        <ele>2626.1</ele>
        <time>2020-06-22T12:53:13Z</time>
      </trkpt>
      <trkpt lat="4.62313" lon="-74.06258">
        <ele>2626.9</ele>
        <time>2020-06-22T12:53:15Z</time>
      </trkpt>
      <trkpt lat="4.62309" lon="-74.06255">
        <ele>2627.4</ele>
        <time>2020-06-22T12:53:17Z</time>
      </trkpt>
      <trkpt lat="4.62305" lon="-74.06253">
        <ele>2628</ele>
        <time>2020-06-22T12:53:19Z</time>
      </trkpt>
      <trkpt lat="4.62302" lon="-74.06251">
        <ele>2628.5</ele>
        <time>2020-06-22T12:53:21Z</time>
      </trkpt>
      <trkpt lat="4.62299" lon="-74.06246">
        <ele>2629</ele>
        <time>2020-06-22T12:53:23Z</time>
      </trkpt>
      <trkpt lat="4.62296" lon="-74.0624">
        <ele>2629.9</ele>
        <time>2020-06-22T12:53:25Z</time>
      </trkpt>
      <trkpt lat="4.62293" lon="-74.06235">
        <ele>2630.6</ele>
        <time>2020-06-22T12:53:27Z</time>
      </trkpt>
      <trkpt lat="4.62292" lon="-74.06232">
        <ele>2631</ele>
        <time>2020-06-22T12:53:28Z</time>
      </trkpt>
      <trkpt lat="4.62291" lon="-74.06228">
        <ele>2631.6</ele>
        <time>2020-06-22T12:53:30Z</time>
      </trkpt>
      <trkpt lat="4.6229" lon="-74.06225">
        <ele>2632.1</ele>
        <time>2020-06-22T12:53:32Z</time>
      </trkpt>
      <trkpt lat="4.62289" lon="-74.06221">
        <ele>2632.6</ele>
        <time>2020-06-22T12:53:33Z</time>
      </trkpt>
      <trkpt lat="4.62287" lon="-74.06216">
        <ele>2633.5</ele>
        <time>2020-06-22T12:53:36Z</time>
      </trkpt>
      <trkpt lat="4.62286" lon="-74.06215">
        <ele>2633.7</ele>
        <time>2020-06-22T12:53:37Z</time>
      </trkpt>
      <trkpt lat="4.62285" lon="-74.06211">
        <ele>2634.4</ele>
        <time>2020-06-22T12:53:39Z</time>
      </trkpt>
      <trkpt lat="4.62284" lon="-74.06203">
        <ele>2635.9</ele>
        <time>2020-06-22T12:53:42Z</time>
      </trkpt>
      <trkpt lat="4.62283" lon="-74.06202">
        <ele>2636</ele>
        <time>2020-06-22T12:53:43Z</time>
      </trkpt>
      <trkpt lat="4.62282" lon="-74.062">
        <ele>2636.5</ele>
        <time>2020-06-22T12:53:45Z</time>
      </trkpt>
      <trkpt lat="4.62279" lon="-74.06197">
        <ele>2637.5</ele>
        <time>2020-06-22T12:53:48Z</time>
      </trkpt>
      <trkpt lat="4.62278" lon="-74.06194">
        <ele>2637.2</ele>
        <time>2020-06-22T12:53:50Z</time>
      </trkpt>
      <trkpt lat="4.62278" lon="-74.0619">
        <ele>2637</ele>
        <time>2020-06-22T12:53:52Z</time>
      </trkpt>
      <trkpt lat="4.62279" lon="-74.0619">
        <ele>2636.9</ele>
        <time>2020-06-22T12:53:53Z</time>
      </trkpt>
      <trkpt lat="4.6228" lon="-74.06189">
        <ele>2636.8</ele>
        <time>2020-06-22T12:53:54Z</time>
      </trkpt>
      <trkpt lat="4.62283" lon="-74.06188">
        <ele>2636.7</ele>
        <time>2020-06-22T12:53:56Z</time>
      </trkpt>
      <trkpt lat="4.62284" lon="-74.06188">
        <ele>2636.6</ele>
        <time>2020-06-22T12:53:58Z</time>
      </trkpt>
      <trkpt lat="4.62284" lon="-74.06194">
        <ele>2636.3</ele>
        <time>2020-06-22T12:54:00Z</time>
      </trkpt>
      <trkpt lat="4.62282" lon="-74.06195">
        <ele>2636.1</ele>
        <time>2020-06-22T12:54:01Z</time>
      </trkpt>
      <trkpt lat="4.62278" lon="-74.06197">
        <ele>2635.9</ele>
        <time>2020-06-22T12:54:03Z</time>
      </trkpt>
      <trkpt lat="4.62277" lon="-74.06197">
        <ele>2635.8</ele>
        <time>2020-06-22T12:54:04Z</time>
      </trkpt>
      <trkpt lat="4.62272" lon="-74.06197">
        <ele>2635.5</ele>
        <time>2020-06-22T12:54:08Z</time>
      </trkpt>
      <trkpt lat="4.62271" lon="-74.06197">
        <ele>2635.4</ele>
        <time>2020-06-22T12:54:11Z</time>
      </trkpt>
      <trkpt lat="4.62269" lon="-74.06202">
        <ele>2635.1</ele>
        <time>2020-06-22T12:54:14Z</time>
      </trkpt>
      <trkpt lat="4.62268" lon="-74.06204">
        <ele>2635</ele>
        <time>2020-06-22T12:54:15Z</time>
      </trkpt>
      <trkpt lat="4.62268" lon="-74.06205">
        <ele>2634.9</ele>
        <time>2020-06-22T12:54:16Z</time>
      </trkpt>
      <trkpt lat="4.62268" lon="-74.06206">
        <ele>2634.8</ele>
        <time>2020-06-22T12:54:17Z</time>
      </trkpt>
      <trkpt lat="4.62268" lon="-74.06208">
        <ele>2634.7</ele>
        <time>2020-06-22T12:54:19Z</time>
      </trkpt>
      <trkpt lat="4.62268" lon="-74.06209">
        <ele>2634.7</ele>
        <time>2020-06-22T12:54:20Z</time>
      </trkpt>
      <trkpt lat="4.62267" lon="-74.0621">
        <ele>2634.6</ele>
        <time>2020-06-22T12:54:21Z</time>
      </trkpt>
      <trkpt lat="4.62267" lon="-74.06211">
        <ele>2634.6</ele>
        <time>2020-06-22T12:54:22Z</time>
      </trkpt>
      <trkpt lat="4.62266" lon="-74.06212">
        <ele>2634.5</ele>
        <time>2020-06-22T12:54:25Z</time>
      </trkpt>
      <trkpt lat="4.62266" lon="-74.06213">
        <ele>2634.4</ele>
        <time>2020-06-22T12:54:27Z</time>
      </trkpt>
      <trkpt lat="4.62266" lon="-74.06221">
        <ele>2634</ele>
        <time>2020-06-22T12:54:32Z</time>
      </trkpt>
      <trkpt lat="4.62267" lon="-74.06226">
        <ele>2633.7</ele>
        <time>2020-06-22T12:54:34Z</time>
      </trkpt>
      <trkpt lat="4.6227" lon="-74.06232">
        <ele>2633.4</ele>
        <time>2020-06-22T12:54:37Z</time>
      </trkpt>
      <trkpt lat="4.62273" lon="-74.0624">
        <ele>2633</ele>
        <time>2020-06-22T12:54:42Z</time>
      </trkpt>
      <trkpt lat="4.62272" lon="-74.06236">
        <ele>2632.8</ele>
        <time>2020-06-22T12:54:48Z</time>
      </trkpt>
      <trkpt lat="4.62271" lon="-74.06232">
        <ele>2632.6</ele>
        <time>2020-06-22T12:54:52Z</time>
      </trkpt>
      <trkpt lat="4.62271" lon="-74.06229">
        <ele>2632.4</ele>
        <time>2020-06-22T12:54:57Z</time>
      </trkpt>
      <trkpt lat="4.62267" lon="-74.06261">
        <ele>2632.2</ele>
        <time>2020-06-22T12:55:01Z</time>
      </trkpt>
      <trkpt lat="4.62264" lon="-74.06276">
        <ele>2629.6</ele>
        <time>2020-06-22T12:55:02Z</time>
      </trkpt>
      <trkpt lat="4.6226" lon="-74.06281">
        <ele>2628.3</ele>
        <time>2020-06-22T12:55:04Z</time>
      </trkpt>
      <trkpt lat="4.62258" lon="-74.06283">
        <ele>2628.2</ele>
        <time>2020-06-22T12:55:05Z</time>
      </trkpt>
      <trkpt lat="4.62255" lon="-74.06286">
        <ele>2626.9</ele>
        <time>2020-06-22T12:55:07Z</time>
      </trkpt>
      <trkpt lat="4.62254" lon="-74.06288">
        <ele>2625.5</ele>
        <time>2020-06-22T12:55:08Z</time>
      </trkpt>
      <trkpt lat="4.62252" lon="-74.0629">
        <ele>2625.5</ele>
        <time>2020-06-22T12:55:09Z</time>
      </trkpt>
      <trkpt lat="4.62249" lon="-74.06293">
        <ele>2624.3</ele>
        <time>2020-06-22T12:55:11Z</time>
      </trkpt>
      <trkpt lat="4.62247" lon="-74.06295">
        <ele>2624.3</ele>
        <time>2020-06-22T12:55:12Z</time>
      </trkpt>
      <trkpt lat="4.62242" lon="-74.06297">
        <ele>2623.3</ele>
        <time>2020-06-22T12:55:14Z</time>
      </trkpt>
      <trkpt lat="4.62238" lon="-74.06298">
        <ele>2623.2</ele>
        <time>2020-06-22T12:55:16Z</time>
      </trkpt>
      <trkpt lat="4.62233" lon="-74.06298">
        <ele>2623.3</ele>
        <time>2020-06-22T12:55:18Z</time>
      </trkpt>
      <trkpt lat="4.62228" lon="-74.06296">
        <ele>2624.2</ele>
        <time>2020-06-22T12:55:20Z</time>
      </trkpt>
      <trkpt lat="4.62225" lon="-74.06292">
        <ele>2624.7</ele>
        <time>2020-06-22T12:55:22Z</time>
      </trkpt>
      <trkpt lat="4.62223" lon="-74.0629">
        <ele>2626</ele>
        <time>2020-06-22T12:55:23Z</time>
      </trkpt>
      <trkpt lat="4.62218" lon="-74.06289">
        <ele>2626.7</ele>
        <time>2020-06-22T12:55:25Z</time>
      </trkpt>
      <trkpt lat="4.62212" lon="-74.06288">
        <ele>2627.4</ele>
        <time>2020-06-22T12:55:27Z</time>
      </trkpt>
      <trkpt lat="4.62205" lon="-74.06288">
        <ele>2628.9</ele>
        <time>2020-06-22T12:55:29Z</time>
      </trkpt>
      <trkpt lat="4.62201" lon="-74.06287">
        <ele>2629.7</ele>
        <time>2020-06-22T12:55:30Z</time>
      </trkpt>
      <trkpt lat="4.62195" lon="-74.06286">
        <ele>2631.1</ele>
        <time>2020-06-22T12:55:32Z</time>
      </trkpt>
      <trkpt lat="4.62191" lon="-74.06286">
        <ele>2631.8</ele>
        <time>2020-06-22T12:55:33Z</time>
      </trkpt>
      <trkpt lat="4.62185" lon="-74.06284">
        <ele>2633.2</ele>
        <time>2020-06-22T12:55:35Z</time>
      </trkpt>
      <trkpt lat="4.62179" lon="-74.06284">
        <ele>2633.6</ele>
        <time>2020-06-22T12:55:37Z</time>
      </trkpt>
      <trkpt lat="4.62173" lon="-74.06284">
        <ele>2633.9</ele>
        <time>2020-06-22T12:55:39Z</time>
      </trkpt>
      <trkpt lat="4.62163" lon="-74.06284">
        <ele>2634</ele>
        <time>2020-06-22T12:55:41Z</time>
      </trkpt>
      <trkpt lat="4.62158" lon="-74.06285">
        <ele>2633.7</ele>
        <time>2020-06-22T12:55:43Z</time>
      </trkpt>
      <trkpt lat="4.62154" lon="-74.06286">
        <ele>2633.3</ele>
        <time>2020-06-22T12:55:44Z</time>
      </trkpt>
      <trkpt lat="4.62152" lon="-74.06286">
        <ele>2633.3</ele>
        <time>2020-06-22T12:55:45Z</time>
      </trkpt>
      <trkpt lat="4.62147" lon="-74.06288">
        <ele>2631.9</ele>
        <time>2020-06-22T12:55:47Z</time>
      </trkpt>
      <trkpt lat="4.62142" lon="-74.06291">
        <ele>2630.8</ele>
        <time>2020-06-22T12:55:49Z</time>
      </trkpt>
      <trkpt lat="4.62134" lon="-74.06295">
        <ele>2629.3</ele>
        <time>2020-06-22T12:55:51Z</time>
      </trkpt>
      <trkpt lat="4.62131" lon="-74.06298">
        <ele>2627.8</ele>
        <time>2020-06-22T12:55:53Z</time>
      </trkpt>
      <trkpt lat="4.62129" lon="-74.06302">
        <ele>2626.6</ele>
        <time>2020-06-22T12:55:54Z</time>
      </trkpt>
      <trkpt lat="4.62127" lon="-74.06308">
        <ele>2625.8</ele>
        <time>2020-06-22T12:55:56Z</time>
      </trkpt>
      <trkpt lat="4.62126" lon="-74.06313">
        <ele>2625</ele>
        <time>2020-06-22T12:55:58Z</time>
      </trkpt>
      <trkpt lat="4.62125" lon="-74.06315">
        <ele>2624.4</ele>
        <time>2020-06-22T12:55:59Z</time>
      </trkpt>
      <trkpt lat="4.62123" lon="-74.0632">
        <ele>2623.8</ele>
        <time>2020-06-22T12:56:01Z</time>
      </trkpt>
      <trkpt lat="4.62121" lon="-74.06322">
        <ele>2623</ele>
        <time>2020-06-22T12:56:03Z</time>
      </trkpt>
      <trkpt lat="4.62119" lon="-74.06325">
        <ele>2623</ele>
        <time>2020-06-22T12:56:05Z</time>
      </trkpt>
      <trkpt lat="4.62119" lon="-74.06328">
        <ele>2622.4</ele>
        <time>2020-06-22T12:56:07Z</time>
      </trkpt>
      <trkpt lat="4.62118" lon="-74.0633">
        <ele>2622.4</ele>
        <time>2020-06-22T12:56:09Z</time>
      </trkpt>
      <trkpt lat="4.62118" lon="-74.06332">
        <ele>2621.9</ele>
        <time>2020-06-22T12:56:11Z</time>
      </trkpt>
      <trkpt lat="4.62117" lon="-74.06332">
        <ele>2621.9</ele>
        <time>2020-06-22T12:56:12Z</time>
      </trkpt>
      <trkpt lat="4.62115" lon="-74.06334">
        <ele>2621.9</ele>
        <time>2020-06-22T12:56:14Z</time>
      </trkpt>
      <trkpt lat="4.62114" lon="-74.06334">
        <ele>2621.8</ele>
        <time>2020-06-22T12:56:15Z</time>
      </trkpt>
      <trkpt lat="4.62112" lon="-74.06336">
        <ele>2621.6</ele>
        <time>2020-06-22T12:56:17Z</time>
      </trkpt>
      <trkpt lat="4.6211" lon="-74.06338">
        <ele>2621.6</ele>
        <time>2020-06-22T12:56:19Z</time>
      </trkpt>
      <trkpt lat="4.62106" lon="-74.06341">
        <ele>2621.3</ele>
        <time>2020-06-22T12:56:21Z</time>
      </trkpt>
      <trkpt lat="4.62103" lon="-74.06344">
        <ele>2621</ele>
        <time>2020-06-22T12:56:23Z</time>
      </trkpt>
      <trkpt lat="4.62102" lon="-74.06346">
        <ele>2620.9</ele>
        <time>2020-06-22T12:56:24Z</time>
      </trkpt>
      <trkpt lat="4.621" lon="-74.06348">
        <ele>2620.4</ele>
        <time>2020-06-22T12:56:26Z</time>
      </trkpt>
      <trkpt lat="4.621" lon="-74.0635">
        <ele>2620.6</ele>
        <time>2020-06-22T12:56:27Z</time>
      </trkpt>
      <trkpt lat="4.621" lon="-74.06351">
        <ele>2620.5</ele>
        <time>2020-06-22T12:56:28Z</time>
      </trkpt>
      <trkpt lat="4.62102" lon="-74.06352">
        <ele>2619.9</ele>
        <time>2020-06-22T12:56:30Z</time>
      </trkpt>
      <trkpt lat="4.62102" lon="-74.06352">
        <ele>2619.9</ele>
        <time>2020-06-22T12:56:32Z</time>
      </trkpt>
      <trkpt lat="4.62103" lon="-74.06353">
        <ele>2619.9</ele>
        <time>2020-06-22T12:56:33Z</time>
      </trkpt>
      <trkpt lat="4.62104" lon="-74.06355">
        <ele>2619.7</ele>
        <time>2020-06-22T12:56:35Z</time>
      </trkpt>
      <trkpt lat="4.62105" lon="-74.06358">
        <ele>2619.4</ele>
        <time>2020-06-22T12:56:37Z</time>
      </trkpt>
      <trkpt lat="4.62106" lon="-74.0636">
        <ele>2619.2</ele>
        <time>2020-06-22T12:56:38Z</time>
      </trkpt>
      <trkpt lat="4.62108" lon="-74.06362">
        <ele>2619</ele>
        <time>2020-06-22T12:56:40Z</time>
      </trkpt>
      <trkpt lat="4.62109" lon="-74.06363">
        <ele>2618.9</ele>
        <time>2020-06-22T12:56:41Z</time>
      </trkpt>
      <trkpt lat="4.62111" lon="-74.06366">
        <ele>2618.6</ele>
        <time>2020-06-22T12:56:43Z</time>
      </trkpt>
      <trkpt lat="4.62112" lon="-74.06369">
        <ele>2618.3</ele>
        <time>2020-06-22T12:56:44Z</time>
      </trkpt>
      <trkpt lat="4.62112" lon="-74.0637">
        <ele>2618.3</ele>
        <time>2020-06-22T12:56:45Z</time>
      </trkpt>
      <trkpt lat="4.62114" lon="-74.06376">
        <ele>2617.8</ele>
        <time>2020-06-22T12:56:47Z</time>
      </trkpt>
      <trkpt lat="4.62115" lon="-74.06378">
        <ele>2617.6</ele>
        <time>2020-06-22T12:56:48Z</time>
      </trkpt>
      <trkpt lat="4.62116" lon="-74.0638">
        <ele>2617.4</ele>
        <time>2020-06-22T12:56:50Z</time>
      </trkpt>
      <trkpt lat="4.62117" lon="-74.06383">
        <ele>2617.2</ele>
        <time>2020-06-22T12:56:52Z</time>
      </trkpt>
      <trkpt lat="4.62118" lon="-74.06384">
        <ele>2617</ele>
        <time>2020-06-22T12:56:53Z</time>
      </trkpt>
      <trkpt lat="4.62118" lon="-74.06386">
        <ele>2616.9</ele>
        <time>2020-06-22T12:56:54Z</time>
      </trkpt>
      <trkpt lat="4.6212" lon="-74.06389">
        <ele>2616.7</ele>
        <time>2020-06-22T12:56:56Z</time>
      </trkpt>
      <trkpt lat="4.62121" lon="-74.06392">
        <ele>2616.5</ele>
        <time>2020-06-22T12:56:58Z</time>
      </trkpt>
      <trkpt lat="4.62122" lon="-74.06393">
        <ele>2616.3</ele>
        <time>2020-06-22T12:56:59Z</time>
      </trkpt>
      <trkpt lat="4.62123" lon="-74.06395">
        <ele>2616.2</ele>
        <time>2020-06-22T12:57:00Z</time>
      </trkpt>
      <trkpt lat="4.62125" lon="-74.064">
        <ele>2615.8</ele>
        <time>2020-06-22T12:57:02Z</time>
      </trkpt>
      <trkpt lat="4.62126" lon="-74.06404">
        <ele>2615.4</ele>
        <time>2020-06-22T12:57:04Z</time>
      </trkpt>
      <trkpt lat="4.62127" lon="-74.06405">
        <ele>2615.3</ele>
        <time>2020-06-22T12:57:05Z</time>
      </trkpt>
      <trkpt lat="4.62127" lon="-74.06407">
        <ele>2615.2</ele>
        <time>2020-06-22T12:57:06Z</time>
      </trkpt>
      <trkpt lat="4.62128" lon="-74.0641">
        <ele>2614.9</ele>
        <time>2020-06-22T12:57:08Z</time>
      </trkpt>
      <trkpt lat="4.6213" lon="-74.06414">
        <ele>2614.5</ele>
        <time>2020-06-22T12:57:10Z</time>
      </trkpt>
      <trkpt lat="4.62131" lon="-74.06418">
        <ele>2614</ele>
        <time>2020-06-22T12:57:11Z</time>
      </trkpt>
      <trkpt lat="4.62133" lon="-74.06421">
        <ele>2613.8</ele>
        <time>2020-06-22T12:57:13Z</time>
      </trkpt>
      <trkpt lat="4.62133" lon="-74.06422">
        <ele>2613.7</ele>
        <time>2020-06-22T12:57:14Z</time>
      </trkpt>
      <trkpt lat="4.62133" lon="-74.06424">
        <ele>2613.6</ele>
        <time>2020-06-22T12:57:15Z</time>
      </trkpt>
      <trkpt lat="4.62134" lon="-74.06427">
        <ele>2613.3</ele>
        <time>2020-06-22T12:57:17Z</time>
      </trkpt>
      <trkpt lat="4.62136" lon="-74.0643">
        <ele>2613.1</ele>
        <time>2020-06-22T12:57:19Z</time>
      </trkpt>
      <trkpt lat="4.62138" lon="-74.06435">
        <ele>2612.6</ele>
        <time>2020-06-22T12:57:21Z</time>
      </trkpt>
      <trkpt lat="4.62139" lon="-74.06438">
        <ele>2612.3</ele>
        <time>2020-06-22T12:57:23Z</time>
      </trkpt>
      <trkpt lat="4.6214" lon="-74.0644">
        <ele>2612.2</ele>
        <time>2020-06-22T12:57:24Z</time>
      </trkpt>
      <trkpt lat="4.62142" lon="-74.06443">
        <ele>2611.9</ele>
        <time>2020-06-22T12:57:26Z</time>
      </trkpt>
      <trkpt lat="4.62145" lon="-74.06447">
        <ele>2611.5</ele>
        <time>2020-06-22T12:57:28Z</time>
      </trkpt>
      <trkpt lat="4.62146" lon="-74.06448">
        <ele>2611.3</ele>
        <time>2020-06-22T12:57:30Z</time>
      </trkpt>
      <trkpt lat="4.62147" lon="-74.06449">
        <ele>2611.2</ele>
        <time>2020-06-22T12:57:31Z</time>
      </trkpt>
      <trkpt lat="4.62149" lon="-74.06451">
        <ele>2611</ele>
        <time>2020-06-22T12:57:33Z</time>
      </trkpt>
      <trkpt lat="4.6215" lon="-74.06452">
        <ele>2610.8</ele>
        <time>2020-06-22T12:57:34Z</time>
      </trkpt>
      <trkpt lat="4.62152" lon="-74.06455">
        <ele>2610.5</ele>
        <time>2020-06-22T12:57:36Z</time>
      </trkpt>
      <trkpt lat="4.62153" lon="-74.06457">
        <ele>2610.4</ele>
        <time>2020-06-22T12:57:37Z</time>
      </trkpt>
      <trkpt lat="4.62155" lon="-74.0646">
        <ele>2610</ele>
        <time>2020-06-22T12:57:39Z</time>
      </trkpt>
      <trkpt lat="4.62158" lon="-74.06464">
        <ele>2609.6</ele>
        <time>2020-06-22T12:57:40Z</time>
      </trkpt>
      <trkpt lat="4.62158" lon="-74.06466">
        <ele>2609.5</ele>
        <time>2020-06-22T12:57:41Z</time>
      </trkpt>
      <trkpt lat="4.6216" lon="-74.0647">
        <ele>2609.1</ele>
        <time>2020-06-22T12:57:43Z</time>
      </trkpt>
      <trkpt lat="4.6216" lon="-74.06473">
        <ele>2608.7</ele>
        <time>2020-06-22T12:57:44Z</time>
      </trkpt>
      <trkpt lat="4.6216" lon="-74.06477">
        <ele>2608.4</ele>
        <time>2020-06-22T12:57:46Z</time>
      </trkpt>
      <trkpt lat="4.6216" lon="-74.0648">
        <ele>2608.2</ele>
        <time>2020-06-22T12:57:47Z</time>
      </trkpt>
      <trkpt lat="4.6216" lon="-74.06484">
        <ele>2607.8</ele>
        <time>2020-06-22T12:57:49Z</time>
      </trkpt>
      <trkpt lat="4.62159" lon="-74.06488">
        <ele>2607.4</ele>
        <time>2020-06-22T12:57:51Z</time>
      </trkpt>
      <trkpt lat="4.62158" lon="-74.06493">
        <ele>2606.9</ele>
        <time>2020-06-22T12:57:53Z</time>
      </trkpt>
      <trkpt lat="4.62157" lon="-74.06497">
        <ele>2606.5</ele>
        <time>2020-06-22T12:57:55Z</time>
      </trkpt>
      <trkpt lat="4.62155" lon="-74.065">
        <ele>2606</ele>
        <time>2020-06-22T12:57:56Z</time>
      </trkpt>
      <trkpt lat="4.62154" lon="-74.06502">
        <ele>2605.8</ele>
        <time>2020-06-22T12:57:57Z</time>
      </trkpt>
      <trkpt lat="4.62151" lon="-74.06506">
        <ele>2605.2</ele>
        <time>2020-06-22T12:57:59Z</time>
      </trkpt>
      <trkpt lat="4.62149" lon="-74.06511">
        <ele>2604.7</ele>
        <time>2020-06-22T12:58:01Z</time>
      </trkpt>
      <trkpt lat="4.62149" lon="-74.06513">
        <ele>2604.5</ele>
        <time>2020-06-22T12:58:02Z</time>
      </trkpt>
      <trkpt lat="4.62151" lon="-74.06516">
        <ele>2604</ele>
        <time>2020-06-22T12:58:04Z</time>
      </trkpt>
      <trkpt lat="4.62154" lon="-74.06518">
        <ele>2603.6</ele>
        <time>2020-06-22T12:58:06Z</time>
      </trkpt>
      <trkpt lat="4.6216" lon="-74.06518">
        <ele>2603</ele>
        <time>2020-06-22T12:58:08Z</time>
      </trkpt>
      <trkpt lat="4.62164" lon="-74.06517">
        <ele>2602.7</ele>
        <time>2020-06-22T12:58:09Z</time>
      </trkpt>
      <trkpt lat="4.6217" lon="-74.06516">
        <ele>2601.2</ele>
        <time>2020-06-22T12:58:11Z</time>
      </trkpt>
      <trkpt lat="4.62177" lon="-74.06512">
        <ele>2601</ele>
        <time>2020-06-22T12:58:13Z</time>
      </trkpt>
      <trkpt lat="4.62179" lon="-74.06511">
        <ele>2600.9</ele>
        <time>2020-06-22T12:58:14Z</time>
      </trkpt>
      <trkpt lat="4.6218" lon="-74.0651">
        <ele>2600.9</ele>
        <time>2020-06-22T12:58:15Z</time>
      </trkpt>
      <trkpt lat="4.62183" lon="-74.06508">
        <ele>2600.8</ele>
        <time>2020-06-22T12:58:17Z</time>
      </trkpt>
      <trkpt lat="4.62184" lon="-74.06507">
        <ele>2600.7</ele>
        <time>2020-06-22T12:58:18Z</time>
      </trkpt>
      <trkpt lat="4.62187" lon="-74.06505">
        <ele>2600.6</ele>
        <time>2020-06-22T12:58:20Z</time>
      </trkpt>
      <trkpt lat="4.62194" lon="-74.06504">
        <ele>2600.4</ele>
        <time>2020-06-22T12:58:22Z</time>
      </trkpt>
      <trkpt lat="4.62198" lon="-74.06504">
        <ele>2600.3</ele>
        <time>2020-06-22T12:58:23Z</time>
      </trkpt>
      <trkpt lat="4.62199" lon="-74.06504">
        <ele>2600.3</ele>
        <time>2020-06-22T12:58:24Z</time>
      </trkpt>
      <trkpt lat="4.62202" lon="-74.06504">
        <ele>2600.2</ele>
        <time>2020-06-22T12:58:25Z</time>
      </trkpt>
      <trkpt lat="4.62206" lon="-74.06502">
        <ele>2600.1</ele>
        <time>2020-06-22T12:58:27Z</time>
      </trkpt>
      <trkpt lat="4.62209" lon="-74.06501">
        <ele>2600</ele>
        <time>2020-06-22T12:58:28Z</time>
      </trkpt>
      <trkpt lat="4.62213" lon="-74.06499">
        <ele>2599.9</ele>
        <time>2020-06-22T12:58:30Z</time>
      </trkpt>
      <trkpt lat="4.62216" lon="-74.06497">
        <ele>2599.8</ele>
        <time>2020-06-22T12:58:31Z</time>
      </trkpt>
      <trkpt lat="4.62223" lon="-74.06496">
        <ele>2599.7</ele>
        <time>2020-06-22T12:58:34Z</time>
      </trkpt>
      <trkpt lat="4.62226" lon="-74.06497">
        <ele>2599.6</ele>
        <time>2020-06-22T12:58:35Z</time>
      </trkpt>
      <trkpt lat="4.62229" lon="-74.06497">
        <ele>2599.5</ele>
        <time>2020-06-22T12:58:36Z</time>
      </trkpt>
      <trkpt lat="4.62235" lon="-74.06496">
        <ele>2599.4</ele>
        <time>2020-06-22T12:58:38Z</time>
      </trkpt>
      <trkpt lat="4.62238" lon="-74.06494">
        <ele>2599.3</ele>
        <time>2020-06-22T12:58:40Z</time>
      </trkpt>
      <trkpt lat="4.6224" lon="-74.06494">
        <ele>2599.2</ele>
        <time>2020-06-22T12:58:41Z</time>
      </trkpt>
      <trkpt lat="4.62244" lon="-74.06493">
        <ele>2599.2</ele>
        <time>2020-06-22T12:58:43Z</time>
      </trkpt>
      <trkpt lat="4.62246" lon="-74.06493">
        <ele>2599.1</ele>
        <time>2020-06-22T12:58:44Z</time>
      </trkpt>
      <trkpt lat="4.6225" lon="-74.06493">
        <ele>2599</ele>
        <time>2020-06-22T12:58:46Z</time>
      </trkpt>
      <trkpt lat="4.62254" lon="-74.06491">
        <ele>2599</ele>
        <time>2020-06-22T12:58:48Z</time>
      </trkpt>
      <trkpt lat="4.62256" lon="-74.0649">
        <ele>2598.9</ele>
        <time>2020-06-22T12:58:49Z</time>
      </trkpt>
      <trkpt lat="4.6226" lon="-74.06489">
        <ele>2598.8</ele>
        <time>2020-06-22T12:58:51Z</time>
      </trkpt>
      <trkpt lat="4.62263" lon="-74.06488">
        <ele>2598.7</ele>
        <time>2020-06-22T12:58:53Z</time>
      </trkpt>
      <trkpt lat="4.62267" lon="-74.06488">
        <ele>2598.7</ele>
        <time>2020-06-22T12:58:55Z</time>
      </trkpt>
      <trkpt lat="4.62268" lon="-74.06489">
        <ele>2598.6</ele>
        <time>2020-06-22T12:58:56Z</time>
      </trkpt>
      <trkpt lat="4.62271" lon="-74.0649">
        <ele>2598.5</ele>
        <time>2020-06-22T12:58:58Z</time>
      </trkpt>
      <trkpt lat="4.62272" lon="-74.06494">
        <ele>2598.4</ele>
        <time>2020-06-22T12:59:00Z</time>
      </trkpt>
      <trkpt lat="4.62272" lon="-74.06499">
        <ele>2598.3</ele>
        <time>2020-06-22T12:59:02Z</time>
      </trkpt>
      <trkpt lat="4.62273" lon="-74.06502">
        <ele>2598.2</ele>
        <time>2020-06-22T12:59:04Z</time>
      </trkpt>
      <trkpt lat="4.62274" lon="-74.06507">
        <ele>2598.1</ele>
        <time>2020-06-22T12:59:06Z</time>
      </trkpt>
      <trkpt lat="4.62275" lon="-74.06512">
        <ele>2597.9</ele>
        <time>2020-06-22T12:59:08Z</time>
      </trkpt>
      <trkpt lat="4.62278" lon="-74.06516">
        <ele>2597.8</ele>
        <time>2020-06-22T12:59:10Z</time>
      </trkpt>
      <trkpt lat="4.62279" lon="-74.06519">
        <ele>2597.7</ele>
        <time>2020-06-22T12:59:11Z</time>
      </trkpt>
      <trkpt lat="4.62281" lon="-74.06523">
        <ele>2597.6</ele>
        <time>2020-06-22T12:59:13Z</time>
      </trkpt>
      <trkpt lat="4.62282" lon="-74.06525">
        <ele>2597.5</ele>
        <time>2020-06-22T12:59:14Z</time>
      </trkpt>
      <trkpt lat="4.62284" lon="-74.0653">
        <ele>2597.4</ele>
        <time>2020-06-22T12:59:16Z</time>
      </trkpt>
      <trkpt lat="4.62284" lon="-74.06532">
        <ele>2597.4</ele>
        <time>2020-06-22T12:59:17Z</time>
      </trkpt>
      <trkpt lat="4.62285" lon="-74.06537">
        <ele>2597.2</ele>
        <time>2020-06-22T12:59:19Z</time>
      </trkpt>
      <trkpt lat="4.62287" lon="-74.06542">
        <ele>2597.1</ele>
        <time>2020-06-22T12:59:21Z</time>
      </trkpt>
      <trkpt lat="4.62289" lon="-74.06547">
        <ele>2597</ele>
        <time>2020-06-22T12:59:23Z</time>
      </trkpt>
      <trkpt lat="4.6229" lon="-74.06549">
        <ele>2596.9</ele>
        <time>2020-06-22T12:59:24Z</time>
      </trkpt>
      <trkpt lat="4.62291" lon="-74.06552">
        <ele>2596.9</ele>
        <time>2020-06-22T12:59:25Z</time>
      </trkpt>
      <trkpt lat="4.62291" lon="-74.06554">
        <ele>2596.8</ele>
        <time>2020-06-22T12:59:26Z</time>
      </trkpt>
      <trkpt lat="4.62293" lon="-74.06557">
        <ele>2596.8</ele>
        <time>2020-06-22T12:59:28Z</time>
      </trkpt>
      <trkpt lat="4.62294" lon="-74.06559">
        <ele>2596.6</ele>
        <time>2020-06-22T12:59:29Z</time>
      </trkpt>
      <trkpt lat="4.62295" lon="-74.0656">
        <ele>2596.6</ele>
        <time>2020-06-22T12:59:30Z</time>
      </trkpt>
      <trkpt lat="4.62297" lon="-74.06563">
        <ele>2596.5</ele>
        <time>2020-06-22T12:59:32Z</time>
      </trkpt>
      <trkpt lat="4.62298" lon="-74.06567">
        <ele>2596.3</ele>
        <time>2020-06-22T12:59:34Z</time>
      </trkpt>
      <trkpt lat="4.62299" lon="-74.06571">
        <ele>2596.2</ele>
        <time>2020-06-22T12:59:36Z</time>
      </trkpt>
      <trkpt lat="4.623" lon="-74.06573">
        <ele>2596.1</ele>
        <time>2020-06-22T12:59:37Z</time>
      </trkpt>
      <trkpt lat="4.62302" lon="-74.06577">
        <ele>2596</ele>
        <time>2020-06-22T12:59:39Z</time>
      </trkpt>
      <trkpt lat="4.62305" lon="-74.06582">
        <ele>2595.9</ele>
        <time>2020-06-22T12:59:41Z</time>
      </trkpt>
      <trkpt lat="4.62307" lon="-74.06584">
        <ele>2595.9</ele>
        <time>2020-06-22T12:59:43Z</time>
      </trkpt>
      <trkpt lat="4.62309" lon="-74.06585">
        <ele>2595.8</ele>
        <time>2020-06-22T12:59:44Z</time>
      </trkpt>
      <trkpt lat="4.62312" lon="-74.06589">
        <ele>2595.8</ele>
        <time>2020-06-22T12:59:46Z</time>
      </trkpt>
      <trkpt lat="4.62315" lon="-74.06594">
        <ele>2595.7</ele>
        <time>2020-06-22T12:59:48Z</time>
      </trkpt>
      <trkpt lat="4.62317" lon="-74.066">
        <ele>2595.7</ele>
        <time>2020-06-22T12:59:50Z</time>
      </trkpt>
      <trkpt lat="4.62319" lon="-74.06605">
        <ele>2595.6</ele>
        <time>2020-06-22T12:59:51Z</time>
      </trkpt>
      <trkpt lat="4.62319" lon="-74.06609">
        <ele>2595.6</ele>
        <time>2020-06-22T12:59:53Z</time>
      </trkpt>
      <trkpt lat="4.6232" lon="-74.06611">
        <ele>2595.6</ele>
        <time>2020-06-22T12:59:54Z</time>
      </trkpt>
      <trkpt lat="4.62322" lon="-74.06614">
        <ele>2595.5</ele>
        <time>2020-06-22T12:59:56Z</time>
      </trkpt>
      <trkpt lat="4.62323" lon="-74.06616">
        <ele>2595.5</ele>
        <time>2020-06-22T12:59:57Z</time>
      </trkpt>
      <trkpt lat="4.62324" lon="-74.0662">
        <ele>2595.5</ele>
        <time>2020-06-22T12:59:59Z</time>
      </trkpt>
      <trkpt lat="4.62325" lon="-74.06622">
        <ele>2595.4</ele>
        <time>2020-06-22T13:00:00Z</time>
      </trkpt>
      <trkpt lat="4.62327" lon="-74.06627">
        <ele>2595.4</ele>
        <time>2020-06-22T13:00:02Z</time>
      </trkpt>
      <trkpt lat="4.62329" lon="-74.06629">
        <ele>2595.3</ele>
        <time>2020-06-22T13:00:04Z</time>
      </trkpt>
      <trkpt lat="4.6233" lon="-74.0663">
        <ele>2595.3</ele>
        <time>2020-06-22T13:00:05Z</time>
      </trkpt>
      <trkpt lat="4.62331" lon="-74.06632">
        <ele>2595.3</ele>
        <time>2020-06-22T13:00:06Z</time>
      </trkpt>
      <trkpt lat="4.62332" lon="-74.06634">
        <ele>2595.3</ele>
        <time>2020-06-22T13:00:08Z</time>
      </trkpt>
      <trkpt lat="4.62333" lon="-74.06638">
        <ele>2595.2</ele>
        <time>2020-06-22T13:00:10Z</time>
      </trkpt>
      <trkpt lat="4.62334" lon="-74.06641">
        <ele>2595.1</ele>
        <time>2020-06-22T13:00:11Z</time>
      </trkpt>
      <trkpt lat="4.62335" lon="-74.06642">
        <ele>2595.1</ele>
        <time>2020-06-22T13:00:12Z</time>
      </trkpt>
      <trkpt lat="4.62337" lon="-74.06645">
        <ele>2594.9</ele>
        <time>2020-06-22T13:00:14Z</time>
      </trkpt>
      <trkpt lat="4.62339" lon="-74.06648">
        <ele>2594.7</ele>
        <time>2020-06-22T13:00:16Z</time>
      </trkpt>
      <trkpt lat="4.62342" lon="-74.06651">
        <ele>2594.4</ele>
        <time>2020-06-22T13:00:18Z</time>
      </trkpt>
      <trkpt lat="4.62344" lon="-74.06653">
        <ele>2594.2</ele>
        <time>2020-06-22T13:00:19Z</time>
      </trkpt>
      <trkpt lat="4.62345" lon="-74.06653">
        <ele>2594.1</ele>
        <time>2020-06-22T13:00:20Z</time>
      </trkpt>
      <trkpt lat="4.62348" lon="-74.06655">
        <ele>2593.9</ele>
        <time>2020-06-22T13:00:22Z</time>
      </trkpt>
      <trkpt lat="4.6235" lon="-74.06657">
        <ele>2593.7</ele>
        <time>2020-06-22T13:00:23Z</time>
      </trkpt>
      <trkpt lat="4.6235" lon="-74.06658">
        <ele>2593.6</ele>
        <time>2020-06-22T13:00:24Z</time>
      </trkpt>
      <trkpt lat="4.62352" lon="-74.06662">
        <ele>2593.2</ele>
        <time>2020-06-22T13:00:26Z</time>
      </trkpt>
      <trkpt lat="4.62354" lon="-74.06666">
        <ele>2592.9</ele>
        <time>2020-06-22T13:00:27Z</time>
      </trkpt>
      <trkpt lat="4.62355" lon="-74.06667">
        <ele>2592.8</ele>
        <time>2020-06-22T13:00:28Z</time>
      </trkpt>
      <trkpt lat="4.62357" lon="-74.06671">
        <ele>2592.5</ele>
        <time>2020-06-22T13:00:30Z</time>
      </trkpt>
      <trkpt lat="4.62358" lon="-74.06673">
        <ele>2592.3</ele>
        <time>2020-06-22T13:00:31Z</time>
      </trkpt>
      <trkpt lat="4.62361" lon="-74.0668">
        <ele>2591.8</ele>
        <time>2020-06-22T13:00:33Z</time>
      </trkpt>
      <trkpt lat="4.62362" lon="-74.06682">
        <ele>2591.6</ele>
        <time>2020-06-22T13:00:34Z</time>
      </trkpt>
      <trkpt lat="4.62363" lon="-74.06684">
        <ele>2591.5</ele>
        <time>2020-06-22T13:00:36Z</time>
      </trkpt>
      <trkpt lat="4.62365" lon="-74.06687">
        <ele>2591.3</ele>
        <time>2020-06-22T13:00:38Z</time>
      </trkpt>
      <trkpt lat="4.62366" lon="-74.0669">
        <ele>2591.1</ele>
        <time>2020-06-22T13:00:39Z</time>
      </trkpt>
      <trkpt lat="4.62369" lon="-74.06693">
        <ele>2590.9</ele>
        <time>2020-06-22T13:00:41Z</time>
      </trkpt>
      <trkpt lat="4.6237" lon="-74.06695">
        <ele>2590.8</ele>
        <time>2020-06-22T13:00:42Z</time>
      </trkpt>
      <trkpt lat="4.62373" lon="-74.06698">
        <ele>2590.6</ele>
        <time>2020-06-22T13:00:44Z</time>
      </trkpt>
      <trkpt lat="4.62377" lon="-74.06699">
        <ele>2590.1</ele>
        <time>2020-06-22T13:00:46Z</time>
      </trkpt>
      <trkpt lat="4.62379" lon="-74.06699">
        <ele>2590.1</ele>
        <time>2020-06-22T13:00:47Z</time>
      </trkpt>
      <trkpt lat="4.62383" lon="-74.06698">
        <ele>2590.1</ele>
        <time>2020-06-22T13:00:49Z</time>
      </trkpt>
      <trkpt lat="4.62385" lon="-74.06698">
        <ele>2590.1</ele>
        <time>2020-06-22T13:00:50Z</time>
      </trkpt>
      <trkpt lat="4.6239" lon="-74.06698">
        <ele>2590.1</ele>
        <time>2020-06-22T13:00:52Z</time>
      </trkpt>
      <trkpt lat="4.62393" lon="-74.06698">
        <ele>2590.1</ele>
        <time>2020-06-22T13:00:54Z</time>
      </trkpt>
      <trkpt lat="4.62397" lon="-74.06697">
        <ele>2590.1</ele>
        <time>2020-06-22T13:00:56Z</time>
      </trkpt>
      <trkpt lat="4.62399" lon="-74.06697">
        <ele>2590.2</ele>
        <time>2020-06-22T13:00:57Z</time>
      </trkpt>
      <trkpt lat="4.62402" lon="-74.06697">
        <ele>2590.2</ele>
        <time>2020-06-22T13:00:59Z</time>
      </trkpt>
      <trkpt lat="4.62405" lon="-74.06696">
        <ele>2590.3</ele>
        <time>2020-06-22T13:01:01Z</time>
      </trkpt>
      <trkpt lat="4.6241" lon="-74.06695">
        <ele>2590.4</ele>
        <time>2020-06-22T13:01:03Z</time>
      </trkpt>
      <trkpt lat="4.62414" lon="-74.06695">
        <ele>2590.4</ele>
        <time>2020-06-22T13:01:05Z</time>
      </trkpt>
      <trkpt lat="4.62416" lon="-74.06695">
        <ele>2590.5</ele>
        <time>2020-06-22T13:01:06Z</time>
      </trkpt>
      <trkpt lat="4.62421" lon="-74.06695">
        <ele>2590.5</ele>
        <time>2020-06-22T13:01:08Z</time>
      </trkpt>
      <trkpt lat="4.62425" lon="-74.06695">
        <ele>2590.6</ele>
        <time>2020-06-22T13:01:09Z</time>
      </trkpt>
      <trkpt lat="4.62426" lon="-74.06695">
        <ele>2590.6</ele>
        <time>2020-06-22T13:01:10Z</time>
      </trkpt>
      <trkpt lat="4.62432" lon="-74.06693">
        <ele>2590.7</ele>
        <time>2020-06-22T13:01:12Z</time>
      </trkpt>
      <trkpt lat="4.62436" lon="-74.06691">
        <ele>2590.7</ele>
        <time>2020-06-22T13:01:14Z</time>
      </trkpt>
      <trkpt lat="4.62439" lon="-74.0669">
        <ele>2590.8</ele>
        <time>2020-06-22T13:01:16Z</time>
      </trkpt>
      <trkpt lat="4.62441" lon="-74.06689">
        <ele>2590.8</ele>
        <time>2020-06-22T13:01:17Z</time>
      </trkpt>
      <trkpt lat="4.62445" lon="-74.06687">
        <ele>2590.9</ele>
        <time>2020-06-22T13:01:19Z</time>
      </trkpt>
      <trkpt lat="4.62449" lon="-74.06686">
        <ele>2590.9</ele>
        <time>2020-06-22T13:01:21Z</time>
      </trkpt>
      <trkpt lat="4.62456" lon="-74.06686">
        <ele>2591.1</ele>
        <time>2020-06-22T13:01:23Z</time>
      </trkpt>
      <trkpt lat="4.62459" lon="-74.06685">
        <ele>2591.2</ele>
        <time>2020-06-22T13:01:25Z</time>
      </trkpt>
      <trkpt lat="4.62461" lon="-74.06685">
        <ele>2591.3</ele>
        <time>2020-06-22T13:01:26Z</time>
      </trkpt>
      <trkpt lat="4.62466" lon="-74.06683">
        <ele>2591.4</ele>
        <time>2020-06-22T13:01:28Z</time>
      </trkpt>
      <trkpt lat="4.62469" lon="-74.06681">
        <ele>2591.5</ele>
        <time>2020-06-22T13:01:29Z</time>
      </trkpt>
      <trkpt lat="4.6247" lon="-74.06681">
        <ele>2591.6</ele>
        <time>2020-06-22T13:01:30Z</time>
      </trkpt>
      <trkpt lat="4.62474" lon="-74.06679">
        <ele>2591.7</ele>
        <time>2020-06-22T13:01:32Z</time>
      </trkpt>
      <trkpt lat="4.62474" lon="-74.06679">
        <ele>2591.7</ele>
        <time>2020-06-22T13:01:33Z</time>
      </trkpt>
      <trkpt lat="4.62474" lon="-74.0668">
        <ele>2591.7</ele>
        <time>2020-06-22T13:01:35Z</time>
      </trkpt>
      <trkpt lat="4.62475" lon="-74.06683">
        <ele>2591.8</ele>
        <time>2020-06-22T13:01:37Z</time>
      </trkpt>
      <trkpt lat="4.62474" lon="-74.06687">
        <ele>2590.9</ele>
        <time>2020-06-22T13:01:39Z</time>
      </trkpt>
      <trkpt lat="4.62472" lon="-74.06692">
        <ele>2590.7</ele>
        <time>2020-06-22T13:01:41Z</time>
      </trkpt>
      <trkpt lat="4.62469" lon="-74.06696">
        <ele>2590.1</ele>
        <time>2020-06-22T13:01:43Z</time>
      </trkpt>
      <trkpt lat="4.62465" lon="-74.067">
        <ele>2590.6</ele>
        <time>2020-06-22T13:01:45Z</time>
      </trkpt>
      <trkpt lat="4.62462" lon="-74.06702">
        <ele>2591.8</ele>
        <time>2020-06-22T13:01:46Z</time>
      </trkpt>
      <trkpt lat="4.62455" lon="-74.0671">
        <ele>2592.4</ele>
        <time>2020-06-22T13:01:49Z</time>
      </trkpt>
      <trkpt lat="4.62452" lon="-74.06713">
        <ele>2591.7</ele>
        <time>2020-06-22T13:01:51Z</time>
      </trkpt>
      <trkpt lat="4.62449" lon="-74.0672">
        <ele>2592.2</ele>
        <time>2020-06-22T13:01:53Z</time>
      </trkpt>
      <trkpt lat="4.62446" lon="-74.06725">
        <ele>2591.9</ele>
        <time>2020-06-22T13:01:55Z</time>
      </trkpt>
      <trkpt lat="4.62445" lon="-74.0673">
        <ele>2592.6</ele>
        <time>2020-06-22T13:01:58Z</time>
      </trkpt>
      <trkpt lat="4.62445" lon="-74.06733">
        <ele>2592.7</ele>
        <time>2020-06-22T13:01:59Z</time>
      </trkpt>
      <trkpt lat="4.62447" lon="-74.06738">
        <ele>2591.7</ele>
        <time>2020-06-22T13:02:01Z</time>
      </trkpt>
      <trkpt lat="4.62447" lon="-74.06745">
        <ele>2591.8</ele>
        <time>2020-06-22T13:02:03Z</time>
      </trkpt>
      <trkpt lat="4.62448" lon="-74.06748">
        <ele>2591.9</ele>
        <time>2020-06-22T13:02:04Z</time>
      </trkpt>
      <trkpt lat="4.62449" lon="-74.06752">
        <ele>2591.9</ele>
        <time>2020-06-22T13:02:05Z</time>
      </trkpt>
      <trkpt lat="4.62451" lon="-74.06757">
        <ele>2591.5</ele>
        <time>2020-06-22T13:02:07Z</time>
      </trkpt>
      <trkpt lat="4.62452" lon="-74.06759">
        <ele>2591.4</ele>
        <time>2020-06-22T13:02:08Z</time>
      </trkpt>
      <trkpt lat="4.62453" lon="-74.06762">
        <ele>2591.5</ele>
        <time>2020-06-22T13:02:09Z</time>
      </trkpt>
      <trkpt lat="4.62454" lon="-74.06766">
        <ele>2591.4</ele>
        <time>2020-06-22T13:02:11Z</time>
      </trkpt>
      <trkpt lat="4.62453" lon="-74.0677">
        <ele>2591.1</ele>
        <time>2020-06-22T13:02:12Z</time>
      </trkpt>
      <trkpt lat="4.62453" lon="-74.06774">
        <ele>2590.8</ele>
        <time>2020-06-22T13:02:14Z</time>
      </trkpt>
      <trkpt lat="4.62454" lon="-74.06778">
        <ele>2590.4</ele>
        <time>2020-06-22T13:02:15Z</time>
      </trkpt>
      <trkpt lat="4.62458" lon="-74.06782">
        <ele>2589.6</ele>
        <time>2020-06-22T13:02:17Z</time>
      </trkpt>
      <trkpt lat="4.62462" lon="-74.06783">
        <ele>2589.5</ele>
        <time>2020-06-22T13:02:19Z</time>
      </trkpt>
      <trkpt lat="4.62466" lon="-74.06784">
        <ele>2589.3</ele>
        <time>2020-06-22T13:02:21Z</time>
      </trkpt>
      <trkpt lat="4.6247" lon="-74.06786">
        <ele>2588.5</ele>
        <time>2020-06-22T13:02:22Z</time>
      </trkpt>
      <trkpt lat="4.62475" lon="-74.06787">
        <ele>2588.3</ele>
        <time>2020-06-22T13:02:24Z</time>
      </trkpt>
      <trkpt lat="4.62483" lon="-74.06787">
        <ele>2587.5</ele>
        <time>2020-06-22T13:02:25Z</time>
      </trkpt>
      <trkpt lat="4.62482" lon="-74.06789">
        <ele>2587.6</ele>
        <time>2020-06-22T13:02:27Z</time>
      </trkpt>
      <trkpt lat="4.6247" lon="-74.06793">
        <ele>2588</ele>
        <time>2020-06-22T13:02:29Z</time>
      </trkpt>
      <trkpt lat="4.62467" lon="-74.06795">
        <ele>2587.5</ele>
        <time>2020-06-22T13:02:30Z</time>
      </trkpt>
      <trkpt lat="4.62471" lon="-74.06796">
        <ele>2587.3</ele>
        <time>2020-06-22T13:02:32Z</time>
      </trkpt>
      <trkpt lat="4.62467" lon="-74.06798">
        <ele>2587.7</ele>
        <time>2020-06-22T13:02:34Z</time>
      </trkpt>
      <trkpt lat="4.62466" lon="-74.06799">
        <ele>2587</ele>
        <time>2020-06-22T13:02:35Z</time>
      </trkpt>
      <trkpt lat="4.62465" lon="-74.068">
        <ele>2587</ele>
        <time>2020-06-22T13:02:36Z</time>
      </trkpt>
      <trkpt lat="4.62464" lon="-74.06802">
        <ele>2587.1</ele>
        <time>2020-06-22T13:02:37Z</time>
      </trkpt>
      <trkpt lat="4.62463" lon="-74.06805">
        <ele>2586.8</ele>
        <time>2020-06-22T13:02:39Z</time>
      </trkpt>
      <trkpt lat="4.62463" lon="-74.06807">
        <ele>2586.2</ele>
        <time>2020-06-22T13:02:40Z</time>
      </trkpt>
      <trkpt lat="4.62461" lon="-74.06812">
        <ele>2585.8</ele>
        <time>2020-06-22T13:02:42Z</time>
      </trkpt>
      <trkpt lat="4.62459" lon="-74.06817">
        <ele>2585.5</ele>
        <time>2020-06-22T13:02:44Z</time>
      </trkpt>
      <trkpt lat="4.62459" lon="-74.06823">
        <ele>2585.5</ele>
        <time>2020-06-22T13:02:46Z</time>
      </trkpt>
      <trkpt lat="4.62459" lon="-74.06827">
        <ele>2585.6</ele>
        <time>2020-06-22T13:02:47Z</time>
      </trkpt>
      <trkpt lat="4.62459" lon="-74.06831">
        <ele>2585.3</ele>
        <time>2020-06-22T13:02:48Z</time>
      </trkpt>
      <trkpt lat="4.62459" lon="-74.06832">
        <ele>2585.2</ele>
        <time>2020-06-22T13:02:49Z</time>
      </trkpt>
      <trkpt lat="4.62458" lon="-74.06836">
        <ele>2585</ele>
        <time>2020-06-22T13:02:50Z</time>
      </trkpt>
      <trkpt lat="4.62458" lon="-74.0684">
        <ele>2584.9</ele>
        <time>2020-06-22T13:02:52Z</time>
      </trkpt>
      <trkpt lat="4.62457" lon="-74.06845">
        <ele>2584.8</ele>
        <time>2020-06-22T13:02:54Z</time>
      </trkpt>
      <trkpt lat="4.62457" lon="-74.06847">
        <ele>2584.7</ele>
        <time>2020-06-22T13:02:55Z</time>
      </trkpt>
      <trkpt lat="4.62457" lon="-74.06852">
        <ele>2584.6</ele>
        <time>2020-06-22T13:02:57Z</time>
      </trkpt>
      <trkpt lat="4.62457" lon="-74.06859">
        <ele>2584.4</ele>
        <time>2020-06-22T13:02:59Z</time>
      </trkpt>
      <trkpt lat="4.62458" lon="-74.06862">
        <ele>2584.3</ele>
        <time>2020-06-22T13:03:01Z</time>
      </trkpt>
      <trkpt lat="4.62458" lon="-74.06865">
        <ele>2584.3</ele>
        <time>2020-06-22T13:03:02Z</time>
      </trkpt>
      <trkpt lat="4.6246" lon="-74.06868">
        <ele>2584.2</ele>
        <time>2020-06-22T13:03:04Z</time>
      </trkpt>
      <trkpt lat="4.62461" lon="-74.0687">
        <ele>2584.1</ele>
        <time>2020-06-22T13:03:05Z</time>
      </trkpt>
      <trkpt lat="4.62461" lon="-74.06874">
        <ele>2584</ele>
        <time>2020-06-22T13:03:07Z</time>
      </trkpt>
      <trkpt lat="4.62462" lon="-74.06878">
        <ele>2583.9</ele>
        <time>2020-06-22T13:03:08Z</time>
      </trkpt>
      <trkpt lat="4.62462" lon="-74.06881">
        <ele>2583.9</ele>
        <time>2020-06-22T13:03:09Z</time>
      </trkpt>
      <trkpt lat="4.62463" lon="-74.06884">
        <ele>2583.8</ele>
        <time>2020-06-22T13:03:11Z</time>
      </trkpt>
      <trkpt lat="4.62463" lon="-74.06887">
        <ele>2583.7</ele>
        <time>2020-06-22T13:03:12Z</time>
      </trkpt>
      <trkpt lat="4.62463" lon="-74.06888">
        <ele>2583.7</ele>
        <time>2020-06-22T13:03:13Z</time>
      </trkpt>
      <trkpt lat="4.62462" lon="-74.06892">
        <ele>2583.6</ele>
        <time>2020-06-22T13:03:15Z</time>
      </trkpt>
      <trkpt lat="4.62461" lon="-74.06895">
        <ele>2583.6</ele>
        <time>2020-06-22T13:03:17Z</time>
      </trkpt>
      <trkpt lat="4.6246" lon="-74.069">
        <ele>2583.5</ele>
        <time>2020-06-22T13:03:19Z</time>
      </trkpt>
      <trkpt lat="4.6246" lon="-74.06902">
        <ele>2583.4</ele>
        <time>2020-06-22T13:03:21Z</time>
      </trkpt>
      <trkpt lat="4.6246" lon="-74.06902">
        <ele>2583.4</ele>
        <time>2020-06-22T13:03:22Z</time>
      </trkpt>
      <trkpt lat="4.6246" lon="-74.06903">
        <ele>2583.4</ele>
        <time>2020-06-22T13:03:23Z</time>
      </trkpt>
      <trkpt lat="4.62461" lon="-74.06907">
        <ele>2583.3</ele>
        <time>2020-06-22T13:03:25Z</time>
      </trkpt>
      <trkpt lat="4.62463" lon="-74.0691">
        <ele>2583.2</ele>
        <time>2020-06-22T13:03:26Z</time>
      </trkpt>
      <trkpt lat="4.62463" lon="-74.06912">
        <ele>2583.2</ele>
        <time>2020-06-22T13:03:27Z</time>
      </trkpt>
      <trkpt lat="4.62464" lon="-74.06915">
        <ele>2583</ele>
        <time>2020-06-22T13:03:29Z</time>
      </trkpt>
      <trkpt lat="4.62464" lon="-74.06916">
        <ele>2583</ele>
        <time>2020-06-22T13:03:30Z</time>
      </trkpt>
      <trkpt lat="4.62465" lon="-74.06919">
        <ele>2582.9</ele>
        <time>2020-06-22T13:03:32Z</time>
      </trkpt>
      <trkpt lat="4.62467" lon="-74.06924">
        <ele>2582.8</ele>
        <time>2020-06-22T13:03:34Z</time>
      </trkpt>
      <trkpt lat="4.62468" lon="-74.06926">
        <ele>2582.8</ele>
        <time>2020-06-22T13:03:35Z</time>
      </trkpt>
      <trkpt lat="4.6247" lon="-74.06929">
        <ele>2582.8</ele>
        <time>2020-06-22T13:03:37Z</time>
      </trkpt>
      <trkpt lat="4.6247" lon="-74.06932">
        <ele>2582.7</ele>
        <time>2020-06-22T13:03:38Z</time>
      </trkpt>
      <trkpt lat="4.62471" lon="-74.06935">
        <ele>2582.7</ele>
        <time>2020-06-22T13:03:40Z</time>
      </trkpt>
      <trkpt lat="4.62471" lon="-74.06939">
        <ele>2582.6</ele>
        <time>2020-06-22T13:03:42Z</time>
      </trkpt>
      <trkpt lat="4.62471" lon="-74.06944">
        <ele>2582.4</ele>
        <time>2020-06-22T13:03:44Z</time>
      </trkpt>
      <trkpt lat="4.62472" lon="-74.06949">
        <ele>2582.2</ele>
        <time>2020-06-22T13:03:46Z</time>
      </trkpt>
      <trkpt lat="4.62473" lon="-74.06955">
        <ele>2582.1</ele>
        <time>2020-06-22T13:03:48Z</time>
      </trkpt>
      <trkpt lat="4.62473" lon="-74.06957">
        <ele>2582</ele>
        <time>2020-06-22T13:03:49Z</time>
      </trkpt>
      <trkpt lat="4.62475" lon="-74.06962">
        <ele>2581.8</ele>
        <time>2020-06-22T13:03:51Z</time>
      </trkpt>
      <trkpt lat="4.62476" lon="-74.06966">
        <ele>2581.7</ele>
        <time>2020-06-22T13:03:53Z</time>
      </trkpt>
      <trkpt lat="4.62476" lon="-74.06968">
        <ele>2581.6</ele>
        <time>2020-06-22T13:03:54Z</time>
      </trkpt>
      <trkpt lat="4.62476" lon="-74.06974">
        <ele>2581.5</ele>
        <time>2020-06-22T13:03:56Z</time>
      </trkpt>
      <trkpt lat="4.62477" lon="-74.0698">
        <ele>2581.3</ele>
        <time>2020-06-22T13:03:58Z</time>
      </trkpt>
      <trkpt lat="4.62478" lon="-74.06988">
        <ele>2581.1</ele>
        <time>2020-06-22T13:04:00Z</time>
      </trkpt>
      <trkpt lat="4.62478" lon="-74.0699">
        <ele>2581</ele>
        <time>2020-06-22T13:04:01Z</time>
      </trkpt>
      <trkpt lat="4.62479" lon="-74.06994">
        <ele>2580.9</ele>
        <time>2020-06-22T13:04:03Z</time>
      </trkpt>
      <trkpt lat="4.6248" lon="-74.06996">
        <ele>2580.9</ele>
        <time>2020-06-22T13:04:04Z</time>
      </trkpt>
      <trkpt lat="4.62481" lon="-74.07">
        <ele>2580.8</ele>
        <time>2020-06-22T13:04:06Z</time>
      </trkpt>
      <trkpt lat="4.62482" lon="-74.07001">
        <ele>2580.8</ele>
        <time>2020-06-22T13:04:07Z</time>
      </trkpt>
      <trkpt lat="4.62483" lon="-74.07007">
        <ele>2580.7</ele>
        <time>2020-06-22T13:04:09Z</time>
      </trkpt>
      <trkpt lat="4.62483" lon="-74.07011">
        <ele>2580.6</ele>
        <time>2020-06-22T13:04:11Z</time>
      </trkpt>
      <trkpt lat="4.62484" lon="-74.07016">
        <ele>2580.5</ele>
        <time>2020-06-22T13:04:13Z</time>
      </trkpt>
      <trkpt lat="4.62484" lon="-74.07019">
        <ele>2580.4</ele>
        <time>2020-06-22T13:04:14Z</time>
      </trkpt>
      <trkpt lat="4.62486" lon="-74.07026">
        <ele>2580.3</ele>
        <time>2020-06-22T13:04:16Z</time>
      </trkpt>
      <trkpt lat="4.62486" lon="-74.07029">
        <ele>2580.2</ele>
        <time>2020-06-22T13:04:17Z</time>
      </trkpt>
      <trkpt lat="4.62487" lon="-74.07035">
        <ele>2580</ele>
        <time>2020-06-22T13:04:19Z</time>
      </trkpt>
      <trkpt lat="4.62488" lon="-74.07039">
        <ele>2579.9</ele>
        <time>2020-06-22T13:04:20Z</time>
      </trkpt>
      <trkpt lat="4.62489" lon="-74.07041">
        <ele>2579.9</ele>
        <time>2020-06-22T13:04:21Z</time>
      </trkpt>
      <trkpt lat="4.62489" lon="-74.07045">
        <ele>2579.7</ele>
        <time>2020-06-22T13:04:23Z</time>
      </trkpt>
      <trkpt lat="4.6249" lon="-74.07051">
        <ele>2579.6</ele>
        <time>2020-06-22T13:04:25Z</time>
      </trkpt>
      <trkpt lat="4.6249" lon="-74.07054">
        <ele>2579.5</ele>
        <time>2020-06-22T13:04:26Z</time>
      </trkpt>
      <trkpt lat="4.6249" lon="-74.07057">
        <ele>2579.4</ele>
        <time>2020-06-22T13:04:27Z</time>
      </trkpt>
      <trkpt lat="4.6249" lon="-74.07063">
        <ele>2579.3</ele>
        <time>2020-06-22T13:04:29Z</time>
      </trkpt>
      <trkpt lat="4.6249" lon="-74.07066">
        <ele>2579.2</ele>
        <time>2020-06-22T13:04:30Z</time>
      </trkpt>
      <trkpt lat="4.62491" lon="-74.07069">
        <ele>2579.2</ele>
        <time>2020-06-22T13:04:31Z</time>
      </trkpt>
      <trkpt lat="4.62491" lon="-74.07073">
        <ele>2579.1</ele>
        <time>2020-06-22T13:04:33Z</time>
      </trkpt>
      <trkpt lat="4.62492" lon="-74.07075">
        <ele>2579.1</ele>
        <time>2020-06-22T13:04:34Z</time>
      </trkpt>
      <trkpt lat="4.62493" lon="-74.07079">
        <ele>2579</ele>
        <time>2020-06-22T13:04:36Z</time>
      </trkpt>
      <trkpt lat="4.62494" lon="-74.07084">
        <ele>2579</ele>
        <time>2020-06-22T13:04:38Z</time>
      </trkpt>
      <trkpt lat="4.62496" lon="-74.07089">
        <ele>2578.9</ele>
        <time>2020-06-22T13:04:40Z</time>
      </trkpt>
      <trkpt lat="4.62496" lon="-74.07092">
        <ele>2578.9</ele>
        <time>2020-06-22T13:04:41Z</time>
      </trkpt>
      <trkpt lat="4.62497" lon="-74.07096">
        <ele>2578.8</ele>
        <time>2020-06-22T13:04:43Z</time>
      </trkpt>
      <trkpt lat="4.62498" lon="-74.071">
        <ele>2578.7</ele>
        <time>2020-06-22T13:04:45Z</time>
      </trkpt>
      <trkpt lat="4.62498" lon="-74.07101">
        <ele>2578.7</ele>
        <time>2020-06-22T13:04:46Z</time>
      </trkpt>
      <trkpt lat="4.62499" lon="-74.07103">
        <ele>2578.7</ele>
        <time>2020-06-22T13:04:47Z</time>
      </trkpt>
      <trkpt lat="4.62509" lon="-74.07149">
      </trkpt>
    </trkseg>
  </trk>
</gpx>